Provisional Data: Snake Creek near Lawsville Center, PA


Please select a monitoring station.
Please select start date.
Please select start date.

Toggle Unit: C/F Toggle Unit: C/F
Sample Time Temperature (C) Temperature (F) Specific Conductivity (mS/cm) pH   Turbidity (NTU+) DO (mg/L)
5/17/2022 12:00:00 AM 14.89 58.802 0.063 7.09 4 9.47
5/17/2022 12:15:00 AM 14.78 58.604 0.055 7.08 3.98 9.52
5/17/2022 12:30:00 AM 14.69 58.442 0.055 7.08 3.99 9.54
5/17/2022 12:45:00 AM 14.58 58.244 0.049 7.07 4.16 9.56
5/17/2022 1:00:00 AM 14.46 58.028 0.04 7.07 4.36 9.57
5/17/2022 1:15:00 AM 14.38 57.884 0.039 7.07 4.26 9.61
5/17/2022 1:30:00 AM 14.26 57.668 0.035 7.07 4.39 9.59
5/17/2022 1:45:00 AM 14.15 57.47 0.031 7.07 4.47 9.59
5/17/2022 2:00:00 AM 14.05 57.29 0.025 7.07 4.63 9.65
5/17/2022 2:15:00 AM 14.04 57.272 0.021 7.07 4.76 9.59
5/17/2022 2:30:00 AM 13.93 57.074 0.016 7.07 5.43 9.63
5/17/2022 2:45:00 AM 13.83 56.894 0.012 7.07 5.42 9.67
5/17/2022 3:00:00 AM 13.72 56.696 0.008 7.07 5.72 9.69
5/17/2022 3:15:00 AM 13.59 56.462 0.006 7.06 5.92 9.71
5/17/2022 3:30:00 AM 13.5 56.3 0.003 7.07 6.13 9.74
5/17/2022 3:45:00 AM 13.41 56.138 0.002 7.07 6.26 9.77
5/17/2022 4:00:00 AM 13.24 55.832 0 7.07 6.92 9.81
5/17/2022 4:15:00 AM 13.08 55.544 0 7.07 7.05 9.85
5/17/2022 4:30:00 AM 12.93 55.274 0 7.08 6.86 9.86
5/17/2022 4:45:00 AM 12.81 55.058 0 7.07 6.61 9.91
5/17/2022 5:00:00 AM 12.78 55.004 0 7.07 6.96 9.91
5/17/2022 5:15:00 AM 12.6 54.68 0 7.07 9.21 9.94
5/17/2022 5:30:00 AM 12.57 54.626 0 7.08 10.01 9.96
5/17/2022 5:45:00 AM 12.38 54.284 0 7.08 10.08 10.02
5/17/2022 6:00:00 AM 12.47 54.446 0 7.09 9.84 10.02
5/17/2022 6:15:00 AM 12.41 54.338 0 7.08 9.59 10.04
5/17/2022 6:30:00 AM 12.36 54.248 0 7.09 9.27 10.03
5/17/2022 6:45:00 AM 12.44 54.392 0 7.1 9.01 10.04
5/17/2022 7:00:00 AM 12.47 54.446 0 7.11 8.91 10.03
5/17/2022 7:15:00 AM 12.49 54.482 0 7.13 8.37 10.06
5/17/2022 7:30:00 AM 12.31 54.158 0 7.15 8.11 10.08
5/17/2022 7:45:00 AM 12.56 54.608 0 7.18 8.14 10.05
5/17/2022 8:00:00 AM 12.51 54.518 0 7.2 8.17 10.05
5/17/2022 8:15:00 AM 12.47 54.446 0 7.23 7.91 10.05
5/17/2022 8:30:00 AM 12.53 54.554 0 7.26 7.46 10.05
5/17/2022 8:45:00 AM 12.64 54.752 0 7.29 7.11 10.03
5/17/2022 9:00:00 AM 12.55 54.59 0 7.32 7.17 10.06
5/17/2022 9:15:00 AM 12.75 54.95 0 7.34 7.17 10.02
5/17/2022 9:30:00 AM 12.88 55.184 0 7.38 7.66 10
5/17/2022 9:45:00 AM 12.88 55.184 0 7.42 7.42 10
5/17/2022 10:00:00 AM 13.18 55.724 0 7.46 7.89 9.95
5/17/2022 10:15:00 AM 13.21 55.778 0 7.49 11.35 9.93
5/17/2022 10:30:00 AM 13.19 55.742 0 7.53 12.93 9.97
5/17/2022 10:45:00 AM 13.54 56.372 0 7.57 16.81 9.91
5/17/2022 11:00:00 AM 13.67 56.606 0 7.6 13.82 9.84
5/17/2022 11:15:00 AM 13.79 56.822 0 7.65 20.27 9.81
5/17/2022 11:30:00 AM 13.82 56.876 0 7.7 17.85 9.91
5/17/2022 11:45:00 AM 14.46 58.028 0 7.75 16.03 9.82
5/17/2022 12:00:00 PM 14.6 58.28 0 7.81 9.08 9.82
5/17/2022 12:15:00 PM 15.13 59.234 0 7.86 18.95 9.64
5/17/2022 12:30:00 PM 15.53 59.954 0 7.92 5.9 9.58
5/17/2022 12:45:00 PM 15.31 59.558 0 7.96 7.87 9.5
5/17/2022 1:00:00 PM 14.73 58.514 0 7.97 4.76 9.63
5/17/2022 1:15:00 PM 15.26 59.468 0 8.03 4.72 9.6
5/17/2022 1:30:00 PM 16.29 61.322 0 8.07 4.77 9.41
5/17/2022 1:45:00 PM 15.98 60.764 0 8.06 5.19 9.43
5/17/2022 2:00:00 PM 16.63 61.934 0 8.15 4.48 9.28
5/17/2022 2:15:00 PM 16.97 62.546 0 8.22 4.75 9.25
5/17/2022 2:30:00 PM 17.15 62.87 0 8.28 3.66 9.22
5/17/2022 2:45:00 PM 16.74 62.132 0 8.37 3.28 9.17
5/17/2022 3:00:00 PM 16.73 62.114 0 8.45 2.97 9.19
5/17/2022 3:15:00 PM 17.2 62.96 0 8.47 2.87 9.07
5/17/2022 3:30:00 PM 17.88 64.184 0 8.51 2.81 9.01
5/17/2022 3:45:00 PM 17.85 64.13 0 8.57 2.93 9.12
5/17/2022 4:00:00 PM 16.78 62.204 0 8.51 2.79 9.14
5/17/2022 4:15:00 PM 18.03 64.454 0 8.5 2.84 9.09
5/17/2022 4:30:00 PM 18.05 64.49 0 8.46 2.7 9.08
5/17/2022 4:45:00 PM 17.47 63.446 0 8.46 2.8 9.15
5/17/2022 5:00:00 PM 17.81 64.058 0 8.4 2.72 9.08
5/17/2022 5:15:00 PM 17.09 62.762 0 8.47 2.78 9.2
5/17/2022 5:30:00 PM 17.25 63.05 0 8.21 2.68 9.15
5/17/2022 5:45:00 PM 16.99 62.582 0 8.22 2.59 9.23
5/17/2022 6:00:00 PM 17.38 63.284 0 8.21 2.64 9.11
5/17/2022 6:15:00 PM 17.31 63.158 0 8.12 2.65 9.13
5/17/2022 6:30:00 PM 17.18 62.924 0 8.05 2.54 9.16
5/17/2022 6:45:00 PM 15.82 60.476 0 8 2.6 9.46
5/17/2022 7:00:00 PM 15.72 60.296 0 7.95 2.58 9.41
5/17/2022 7:15:00 PM 15.47 59.846 0 7.79 2.55 9.45
5/17/2022 7:30:00 PM 14.64 58.352 0 7.36 2.69 9.48
5/17/2022 7:45:00 PM 14.89 58.802 0 7.51 2.56 9.58
5/17/2022 8:00:00 PM 14.63 58.334 0 7.63 2.76 9.61
5/17/2022 8:15:00 PM 14.35 57.83 0 7.6 2.43 9.7
5/17/2022 8:30:00 PM 13.96 57.128 0 7.6 2.52 9.77
5/17/2022 8:45:00 PM 14.06 57.308 0 7.68 2.44 9.73
5/17/2022 9:00:00 PM 13.78 56.804 0 7.69 2.5 9.77
5/17/2022 9:15:00 PM 13.61 56.498 0 7.63 2.56 9.81
5/17/2022 9:30:00 PM 13.48 56.264 0 7.6 2.58 9.83
5/17/2022 9:45:00 PM 13 55.4 0 7.59 2.29 9.95
5/17/2022 10:00:00 PM 12.71 54.878 0 7.59 2.52 10.01
5/17/2022 10:15:00 PM 12.41 54.338 0 7.61 2.39 10.09
5/17/2022 10:30:00 PM 11.84 53.312 0 7.56 2.44 10.23
5/17/2022 10:45:00 PM 11.48 52.664 0 7.52 2.5 10.34
5/17/2022 11:00:00 PM 11.48 52.664 0 7.36 2.5 10.29
5/17/2022 11:15:00 PM 11.48 52.664 0 7.49 2.6 10.33
5/17/2022 11:30:00 PM 11.32 52.376 0 7.43 2.81 10.37
5/17/2022 11:45:00 PM 11.27 52.286 0 7.44 2.7 10.42
5/18/2022 12:00:00 AM 11.24 52.232 0 7.44 2.71 10.44
5/18/2022 12:15:00 AM 10.97 51.746 0 7.41 2.66 10.53
5/18/2022 12:30:00 AM 11.08 51.944 0 7.47 2.63 10.45
5/18/2022 12:45:00 AM 10.87 51.566 0 7.32 2.87 10.45
5/18/2022 1:00:00 AM 10.67 51.206 0 7.41 2.92 10.56
5/18/2022 1:15:00 AM 10.37 50.666 0 7.32 2.63 10.64
5/18/2022 1:30:00 AM 10.32 50.576 0 7.39 2.7 10.63
5/18/2022 1:45:00 AM 9.93 49.874 0 6.96 2.74 10.69
5/18/2022 2:00:00 AM 10.09 50.162 0 7.39 2.62 10.69
5/18/2022 2:15:00 AM 9.75 49.55 0 7.34 2.79 10.8
5/18/2022 2:30:00 AM 9.55 49.19 0 6.97 2.67 10.8
5/18/2022 2:45:00 AM 9.43 48.974 0 7.19 2.51 10.84
5/18/2022 3:00:00 AM 9.59 49.262 0 7.45 3.17 10.82
5/18/2022 3:15:00 AM 9.17 48.506 0 7.05 2.56 10.94
5/18/2022 3:30:00 AM 9.08 48.344 0 7.38 2.5 11.01
5/18/2022 3:45:00 AM 9.35 48.83 0 7.45 3.04 10.91
5/18/2022 4:00:00 AM 9 48.2 0 7.15 2.5 11
5/18/2022 4:15:00 AM 9.01 48.218 0 7.05 3.86 10.95
5/18/2022 4:30:00 AM 9 48.2 0 7.39 2.81 11.01
5/18/2022 4:45:00 AM 9.17 48.506 0 7.38 2.56 10.9
5/18/2022 5:00:00 AM 8.98 48.164 0 7.45 2.35 11
5/18/2022 5:15:00 AM 8.69 47.642 0 7.23 2.42 11.09
5/18/2022 5:30:00 AM 8.66 47.588 0 7.44 2.51 11.1
5/18/2022 5:45:00 AM 8.56 47.408 0 7.45 2.16 11.13
5/18/2022 6:00:00 AM 8.29 46.922 0 7.05 3.2 11.16
5/18/2022 6:15:00 AM 8.45 47.21 0 7.52 2.19 11.15
5/18/2022 6:30:00 AM 8.33 46.994 0 7.43 2.33 11.21
5/18/2022 6:45:00 AM 8.44 47.192 0 7.53 2.04 11.17
5/18/2022 7:00:00 AM 8.61 47.498 0 7.31 4.61 11.08
5/18/2022 7:15:00 AM 8.75 47.75 0 7.43 2.05 11.09
5/18/2022 7:30:00 AM 9.06 48.308 0 7.45 2 11.02
5/18/2022 7:45:00 AM 9.36 48.848 0 7.45 2.2 10.93
5/18/2022 8:00:00 AM 9.45 49.01 0 6.97 3.09 10.9
5/18/2022 8:15:00 AM 9.14 48.452 0 6.64 5.04 11.02
5/18/2022 8:30:00 AM 9.62 49.316 0 7.39 2.39 10.9
5/18/2022 8:45:00 AM 9.98 49.964 0 7.41 2.82 10.79
5/18/2022 9:00:00 AM 10.3 50.54 0 7.32 2.65 10.72
5/18/2022 9:15:00 AM 9.73 49.514 0 6.75 5.77 10.85
5/18/2022 9:30:00 AM 10.12 50.216 0 7.15 3.27 10.8
5/18/2022 9:45:00 AM 10.58 51.044 0 7.33 2.75 10.67
5/18/2022 10:00:00 AM 10.79 51.422 0 6.87 3.71 10.57
5/18/2022 10:15:00 AM 10.69 51.242 0 6.65 5.76 10.62
5/18/2022 10:30:00 AM 11.14 52.052 0 7.17 3.4 10.53
5/18/2022 10:45:00 AM 10.68 51.224 0 6.88 5.69 10.64
5/18/2022 11:00:00 AM 11.35 52.43 0 6.63 5.71 10.45
5/18/2022 11:15:00 AM 11.19 52.142 0 6.47 5.78 10.5
5/18/2022 11:30:00 AM 12.48 54.464 0 6.83 5.64 10.27
5/18/2022 11:45:00 AM 13.38 56.084 0 6.84 5.57 10.09
5/18/2022 12:00:00 PM 15.48 59.864 0 7.04 4.12 9.7
5/18/2022 12:15:00 PM 15.55 59.99 0 6.62 5.64 9.64
5/18/2022 12:30:00 PM 16.61 61.898 0 6.52 5.58 9.41
5/18/2022 12:45:00 PM 16.37 61.466 0 6.46 5.65 9.47
5/18/2022 1:00:00 PM 18.32 64.976 0 6.65 5.47 9.13
5/18/2022 1:15:00 PM 18.01 64.418 0 6.62 5.59 9.2
5/18/2022 1:30:00 PM 19.18 66.524 0 6.53 5.53 8.98
5/18/2022 1:45:00 PM 18.31 64.958 0 6.4 5.77 9.11
5/18/2022 2:00:00 PM 17.63 63.734 0 6.53 5.83 9.24
5/18/2022 2:15:00 PM 18.53 65.354 0 6.17 5.84 9.08
5/18/2022 2:30:00 PM 19.66 67.388 0 6.61 5.66 8.89
5/18/2022 2:45:00 PM 19.14 66.452 0 6.35 5.88 8.95
5/18/2022 3:00:00 PM 19.04 66.272 0 6.18 5.86 8.95
5/18/2022 3:15:00 PM 19.75 67.55 0 6.33 5.9 8.81
5/18/2022 3:30:00 PM 18.76 65.768 0 6.54 5.87 8.98
5/18/2022 3:45:00 PM 18.63 65.534 0 6.32 5.94 8.96
5/18/2022 4:00:00 PM 18.6 65.48 0 6.65 5.88 8.94
5/18/2022 4:15:00 PM 18.05 64.49 0 6.44 6 8.96
5/18/2022 4:30:00 PM 17.82 64.076 0 6.57 5.99 9.05
5/18/2022 4:45:00 PM 18.05 64.49 0 6.51 6.06 9.01
5/18/2022 5:00:00 PM 17.53 63.554 0 6.86 5.76 9.1
5/18/2022 5:15:00 PM 17.16 62.888 0 6.79 5.77 9.14
5/18/2022 5:30:00 PM 16.92 62.456 0 6.91 5.73 9.18
5/18/2022 5:45:00 PM 16.71 62.078 0 7.09 5.59 9.19
5/18/2022 6:00:00 PM 16.29 61.322 0 7.05 5.57 9.27
5/18/2022 6:15:00 PM 16.17 61.106 0 7.28 5.49 9.25
5/18/2022 6:30:00 PM 15.75 60.35 0 6.59 5.92 9.31
5/18/2022 6:45:00 PM 15.56 60.008 0 7.25 5.25 9.38
5/18/2022 7:00:00 PM 15.22 59.396 0 7.13 5.78 9.44
5/18/2022 7:15:00 PM 15.05 59.09 0 7.21 5.59 9.48
5/18/2022 7:30:00 PM 14.89 58.802 0 7.35 5.4 9.51
5/18/2022 7:45:00 PM 14.71 58.478 0 7.33 4.5 9.53
5/18/2022 8:00:00 PM 14.35 57.83 0 7.33 4.82 9.61
5/18/2022 8:15:00 PM 14.12 57.416 0 7.23 5.03 9.65
5/18/2022 8:30:00 PM 14 57.2 0 7.31 4.66 9.67
5/18/2022 8:45:00 PM 13.75 56.75 0 7.19 5.8 9.7
5/18/2022 9:00:00 PM 13.6 56.48 0 7.42 4.57 9.74
5/18/2022 9:15:00 PM 13.22 55.796 0 7.05 5.81 9.84
5/18/2022 9:30:00 PM 13.34 56.012 0 7.5 4.45 9.81
5/18/2022 9:45:00 PM 13.19 55.742 0 7.16 5.07 9.82
5/18/2022 10:00:00 PM 13.12 55.616 0 7.46 4.12 9.85
5/18/2022 10:15:00 PM 12.86 55.148 0 7.5 3.88 9.93
5/18/2022 10:30:00 PM 12.47 54.446 0 7.41 19.48 10.02
5/18/2022 10:45:00 PM 12.24 54.032 0 7.37 3.28 10.07
5/18/2022 11:00:00 PM 12.13 53.834 0 7.39 2.98 10.1
5/18/2022 11:15:00 PM 11.84 53.312 0 7.24 4.09 10.15
5/18/2022 11:30:00 PM 11.93 53.474 0 7.51 2.99 10.13
5/18/2022 11:45:00 PM 11.94 53.492 0 7.52 2.84 10.12
5/19/2022 12:00:00 AM 11.77 53.186 0 7.22 5.38 10.15
5/19/2022 12:15:00 AM 11.79 53.222 0 7.27 3.1 10.15
5/19/2022 12:30:00 AM 11.73 53.114 0 7.25 4.09 10.17
5/19/2022 12:45:00 AM 11.94 53.492 0 7.58 2.86 10.11
5/19/2022 1:00:00 AM 11.91 53.438 0 7.54 3.18 10.12
5/19/2022 1:15:00 AM 11.75 53.15 0 7.19 3.85 10.15
5/19/2022 1:30:00 AM 11.62 52.916 0 7.44 3.01 10.2
5/19/2022 1:45:00 AM 11.97 53.546 0 7.58 2.73 10.09
5/19/2022 2:00:00 AM 12.08 53.744 0 7.58 2.2 10.05
5/19/2022 2:15:00 AM 11.9 53.42 0 7.52 2.72 10.11
5/19/2022 2:30:00 AM 12 53.6 0 7.54 2.39 10.07
5/19/2022 2:45:00 AM 11.77 53.186 0 7.44 2.77 10.15
5/19/2022 3:00:00 AM 11.84 53.312 0 7.36 2.84 10.12
5/19/2022 3:15:00 AM 11.81 53.258 0 7.28 3.07 10.1
5/19/2022 3:30:00 AM 11.78 53.204 0 7.31 2.99 10.13
5/19/2022 3:45:00 AM 11.86 53.348 0 7.32 2.84 10.1
5/19/2022 4:00:00 AM 12.04 53.672 0 7.78 2.55 10.04
5/19/2022 4:15:00 AM 12.05 53.69 0 7.76 2.5 10.03
5/19/2022 4:30:00 AM 12.13 53.834 0 7.86 2.46 9.97
5/19/2022 4:45:00 AM 12.25 54.05 0 7.69 2.5 9.97
5/19/2022 5:00:00 AM 12.31 54.158 0 7.57 2.48 9.96
5/19/2022 5:15:00 AM 12.46 54.428 0 7.42 2.86 9.92
5/19/2022 5:30:00 AM 12.56 54.608 0 7.28 3.21 9.9
5/19/2022 5:45:00 AM 12.58 54.644 0 7.16 2.83 9.89
5/19/2022 6:00:00 AM 12.62 54.716 0 7.13 3.32 9.89
5/19/2022 6:15:00 AM 12.72 54.896 0 7.13 5.28 9.87
5/19/2022 6:30:00 AM 12.65 54.77 0 7.13 5.33 9.88
5/19/2022 6:45:00 AM 12.69 54.842 0 7.13 7.12 9.86
5/19/2022 7:00:00 AM 12.63 54.734 0 7.14 12.45 9.9
5/19/2022 7:15:00 AM 12.66 54.788 0 7.16 20.02 9.88
5/19/2022 7:30:00 AM 12.71 54.878 0 7.16 24.23 9.88
5/19/2022 7:45:00 AM 12.8 55.04 0 7.18 21.29 9.87
5/19/2022 8:00:00 AM 12.66 54.788 0 7.18 11.6 9.91
5/19/2022 8:15:00 AM 12.6 54.68 0 7.19 9.76 9.91
5/19/2022 8:30:00 AM 12.65 54.77 0 7.2 8.42 9.91
5/19/2022 8:45:00 AM 12.68 54.824 0 7.21 8.2 9.9
5/19/2022 9:00:00 AM 12.71 54.878 0 7.23 7.71 9.9
5/19/2022 9:15:00 AM 12.77 54.986 0 7.25 7.46 9.88
5/19/2022 9:30:00 AM 12.82 55.076 0 7.26 7.52 9.88
5/19/2022 9:45:00 AM 12.82 55.076 0 7.3 7.44 9.88
5/19/2022 10:00:00 AM 12.86 55.148 0 7.31 7.52 9.87
5/19/2022 10:15:00 AM 12.94 55.292 0 7.33 7.64 9.86
5/19/2022 10:30:00 AM 12.98 55.364 0 7.36 7.23 9.85
5/19/2022 10:45:00 AM 13.07 55.526 0 7.39 7.44 9.85
5/19/2022 11:00:00 AM 13.17 55.706 0 7.41 7.28 9.83
5/19/2022 11:15:00 AM 13.22 55.796 0 7.45 7.27 9.82
5/19/2022 11:30:00 AM 13.26 55.868 0 7.49 7.16 9.82
5/19/2022 11:45:00 AM 13.34 56.012 0 7.52 7.08 9.81
5/19/2022 12:00:00 PM 13.48 56.264 0 7.57 6.82 9.79
5/19/2022 12:15:00 PM 13.52 56.336 0 7.59 7.12 9.78
5/19/2022 12:30:00 PM 13.61 56.498 0 7.63 7.7 9.76
5/19/2022 12:45:00 PM 13.68 56.624 0 7.66 9.36 9.75
5/19/2022 1:00:00 PM 13.68 56.624 0 7.7 10.17 9.75
5/19/2022 1:15:00 PM 13.71 56.678 0 7.73 12.95 9.75
5/19/2022 1:30:00 PM 13.86 56.948 0 7.76 16.03 9.73
5/19/2022 1:45:00 PM 14.21 57.578 0 7.79 18.31 9.7
5/19/2022 2:00:00 PM 14.5 58.1 0 7.83 21.59 9.66
5/19/2022 2:15:00 PM 14.82 58.676 0 7.89 21.14 9.59
5/19/2022 2:30:00 PM 15.11 59.198 0 7.97 20.5 9.55
5/19/2022 2:45:00 PM 15.6 60.08 0 8.06 16.58 9.48
5/19/2022 3:00:00 PM 15.84 60.512 0 8.16 10.62 9.45
5/19/2022 3:15:00 PM 16.23 61.214 0 8.25 10.45 9.35
5/19/2022 3:30:00 PM 15.89 60.602 0 8.27 17.46 9.42
5/19/2022 3:45:00 PM 16.58 61.844 0 8.37 13.16 9.29
5/19/2022 4:00:00 PM 16.83 62.294 0 8.4 9.28 9.27
5/19/2022 4:15:00 PM 16.95 62.51 0 8.42 9.74 9.24
5/19/2022 4:30:00 PM 17.33 63.194 0 8.48 8.13 9.14
5/19/2022 4:45:00 PM 17.77 63.986 0 8.52 8 9.15
5/19/2022 5:00:00 PM 17.7 63.86 0 8.55 6.06 9.18
5/19/2022 5:15:00 PM 17.93 64.274 0 8.52 4.82 9.09
5/19/2022 5:30:00 PM 17.88 64.184 0 8.58 5.15 9.13
5/19/2022 5:45:00 PM 18.13 64.634 0 8.58 5.4 9.1
5/19/2022 6:00:00 PM 17.68 63.824 0 8.58 5.19 9.13
5/19/2022 6:15:00 PM 17.85 64.13 0 8.54 5.04 9.05
5/19/2022 6:30:00 PM 17.35 63.23 0 8.52 4.18 9.14
5/19/2022 6:45:00 PM 17.35 63.23 0 8.47 4.01 9.18
5/19/2022 7:00:00 PM 16.89 62.402 0 8.34 3.47 9.16
5/19/2022 7:15:00 PM 16.31 61.358 0 8.2 3.23 9.29
5/19/2022 7:30:00 PM 15.66 60.188 0 8.05 3.21 9.37
5/19/2022 7:45:00 PM 15.6 60.08 0 7.91 3.08 9.38
5/19/2022 8:00:00 PM 15.48 59.864 0 7.75 2.97 9.4
5/19/2022 8:15:00 PM 15.14 59.252 0 7.62 2.95 9.44
5/19/2022 8:30:00 PM 15.02 59.036 0 7.51 3.02 9.47
5/19/2022 8:45:00 PM 14.79 58.622 0 7.4 2.95 9.51
5/19/2022 9:00:00 PM 14.3 57.74 0 7.36 2.92 9.6
5/19/2022 9:15:00 PM 14.17 57.506 0 7.3 2.88 9.62
5/19/2022 9:30:00 PM 14.06 57.308 0 7.31 2.9 9.64
5/19/2022 9:45:00 PM 13.89 57.002 0 7.32 2.81 9.69
5/19/2022 10:00:00 PM 13.65 56.57 0 7.31 2.73 9.75
5/19/2022 10:15:00 PM 13.43 56.174 0 7.34 2.72 9.8
5/19/2022 10:30:00 PM 13.14 55.652 0 7.37 2.75 9.82
5/19/2022 10:45:00 PM 12.88 55.184 0 7.41 2.74 9.91
5/19/2022 11:00:00 PM 12.85 55.13 0 7.43 2.69 9.89
5/19/2022 11:15:00 PM 12.63 54.734 0 7.44 2.73 9.95
5/19/2022 11:30:00 PM 12.61 54.698 0 7.47 2.66 9.97
5/19/2022 11:45:00 PM 12.36 54.248 0 7.47 2.58 9.99
5/20/2022 12:00:00 AM 12.47 54.446 0 7.52 2.51 10.01
5/20/2022 12:15:00 AM 12.14 53.852 0 7.51 2.55 10.07
5/20/2022 12:30:00 AM 11.94 53.492 0 7.45 2.54 10.13
5/20/2022 12:45:00 AM 11.72 53.096 0 7.44 2.57 10.18
5/20/2022 1:00:00 AM 11.68 53.024 0 7.42 2.82 10.2
5/20/2022 1:15:00 AM 11.61 52.898 0 7.39 2.73 10.21
5/20/2022 1:30:00 AM 11.42 52.556 0 7.46 2.51 10.26
5/20/2022 1:45:00 AM 10.99 51.782 0 7.49 2.6 10.37
5/20/2022 2:00:00 AM 11.2 52.16 0 7.56 2.6 10.3
5/20/2022 2:15:00 AM 11.26 52.268 0 7.61 2.59 10.29
5/20/2022 2:30:00 AM 11.03 51.854 0 7.56 2.59 10.31
5/20/2022 2:45:00 AM 10.72 51.296 0 7.61 2.56 10.43
5/20/2022 3:00:00 AM 10.75 51.35 0 7.55 2.66 10.42
5/20/2022 3:15:00 AM 10.64 51.152 0 7.49 2.36 10.42
5/20/2022 3:30:00 AM 10.56 51.008 0 7.61 2.45 10.48
5/20/2022 3:45:00 AM 10.66 51.188 0 7.59 2.63 10.44
5/20/2022 4:00:00 AM 10.45 50.81 0 7.66 2.77 10.5
5/20/2022 4:15:00 AM 10.36 50.648 0 7.68 2.69 10.53
5/20/2022 4:30:00 AM 10.51 50.918 0 7.61 2.56 10.48
5/20/2022 4:45:00 AM 9.98 49.964 0 7.62 2.51 10.63
5/20/2022 5:00:00 AM 9.93 49.874 0 7.51 2.57 10.62
5/20/2022 5:15:00 AM 10 50 0 7.56 2.57 10.63
5/20/2022 5:30:00 AM 9.86 49.748 0 7.42 2.6 10.65
5/20/2022 5:45:00 AM 9.61 49.298 0 7.44 2.6 10.75
5/20/2022 6:00:00 AM 9.62 49.316 0 7.27 2.53 10.69
5/20/2022 6:15:00 AM 9.7 49.46 0 7.54 2.68 10.72
5/20/2022 6:30:00 AM 9.78 49.604 0 7.58 2.64 10.7
5/20/2022 6:45:00 AM 10.11 50.198 0 7.53 2.39 10.63
5/20/2022 7:00:00 AM 10.32 50.576 0 7.51 2.45 10.57
5/20/2022 7:15:00 AM 10.57 51.026 0 7.49 2.57 10.53
5/20/2022 7:30:00 AM 10.97 51.746 0 7.47 2.46 10.44
5/20/2022 7:45:00 AM 11.4 52.52 0 7.46 2.55 10.35
5/20/2022 8:00:00 AM 12.19 53.942 0 7.44 2.7 10.17
5/20/2022 8:15:00 AM 12.8 55.04 0 7.48 2.45 10.03
5/20/2022 8:30:00 AM 13.12 55.616 0 7.45 2.55 9.97
5/20/2022 8:45:00 AM 13.53 56.354 0 7.37 2.41 9.89
5/20/2022 9:00:00 AM 14.01 57.218 0 7.2 2.53 9.8
5/20/2022 9:15:00 AM 14.18 57.524 0 7.37 2.47 9.76
5/20/2022 9:30:00 AM 14.43 57.974 0 7.36 2.38 9.72
5/20/2022 9:45:00 AM 14.95 58.91 0 7.39 2.62 9.63
5/20/2022 10:00:00 AM 15.52 59.936 0 7.31 2.63 9.51
5/20/2022 10:15:00 AM 15.88 60.584 0 7.35 2.65 9.46
5/20/2022 10:30:00 AM 15.99 60.782 0 7.31 3 9.43
5/20/2022 10:45:00 AM 15.97 60.746 0 7.28 3.21 9.44
5/20/2022 11:00:00 AM 15.91 60.638 0 7.26 3.34 9.45
5/20/2022 11:15:00 AM 15.87 60.566 0 7.26 3.08 9.47
5/20/2022 11:30:00 AM 15.93 60.674 0 7.2 3.36 9.45
5/20/2022 11:45:00 AM 16.5 61.7 0 7.13 3.17 9.35
5/20/2022 12:00:00 PM 16.7 62.06 0 7.09 3.41 9.3
5/20/2022 12:15:00 PM 16.68 62.024 0 6.97 4.96 9.3
5/20/2022 12:30:00 PM 16.65 61.97 0 7.09 3.79 9.31
5/20/2022 12:45:00 PM 16.83 62.294 0 6.98 4.59 9.27
5/20/2022 1:00:00 PM 17.64 63.752 0 7.14 4.09 9.19
5/20/2022 1:15:00 PM 18.98 66.164 0 7.21 4.2 8.95
5/20/2022 1:30:00 PM 19.88 67.784 0 7.07 4.82 8.79
5/20/2022 1:45:00 PM 20.48 68.864 0 6.76 5.4 8.69
5/20/2022 2:00:00 PM 20.97 69.746 0 6.84 5.49 8.56
5/20/2022 2:15:00 PM 20.95 69.71 0 6.69 5.56 8.58
5/20/2022 2:30:00 PM 20.86 69.548 0 6.66 5.63 8.58
5/20/2022 2:45:00 PM 19.8 67.64 0 6.73 5.6 8.72
5/20/2022 3:00:00 PM 19.25 66.65 0 7.44 3.47 8.82
5/20/2022 3:15:00 PM 20.57 69.026 0 7.37 2.95 8.59
5/20/2022 3:30:00 PM 21.49 70.682 0 7.67 2.56 8.48
5/20/2022 3:45:00 PM 21.91 71.438 0 7.91 2.49 8.37
5/20/2022 4:00:00 PM 20.68 69.224 0 8.1 2.64 8.56
5/20/2022 4:15:00 PM 20.04 68.07201 0 8.14 2.77 8.66
5/20/2022 4:30:00 PM 19.68 67.424 0 8.04 2.65 8.71
5/20/2022 4:45:00 PM 19.31 66.758 0 8.02 2.66 8.77
5/20/2022 5:00:00 PM 19.15 66.47 0 7.89 2.67 8.79
5/20/2022 5:15:00 PM 18.93 66.074 0 7.89 2.49 8.82
5/20/2022 5:30:00 PM 18.86 65.948 0 7.87 2.43 8.84
5/20/2022 5:45:00 PM 18.83 65.894 0 7.81 2.58 8.84
5/20/2022 6:00:00 PM 18.61 65.498 0 7.85 2.33 8.88
5/20/2022 6:15:00 PM 18.33 64.994 0 7.75 2.37 8.92
5/20/2022 6:30:00 PM 18.24 64.832 0 7.67 2.34 8.94
5/20/2022 6:45:00 PM 18.09 64.562 0 7.65 2.4 8.97
5/20/2022 7:00:00 PM 17.84 64.112 0 7.63 2.36 9.02
5/20/2022 7:15:00 PM 17.65 63.77 0 7.63 2.45 9.05
5/20/2022 7:30:00 PM 17.45 63.41 0 7.59 2.52 9.09
5/20/2022 7:45:00 PM 17.3 63.14 0 7.56 2.65 9.12
5/20/2022 8:00:00 PM 17.2 62.96 0 7.53 2.68 9.14
5/20/2022 8:15:00 PM 17.09 62.762 0 7.52 2.66 9.17
5/20/2022 8:30:00 PM 17 62.6 0 7.52 2.54 9.18
5/20/2022 8:45:00 PM 16.88 62.384 0 7.49 2.47 9.21
5/20/2022 9:00:00 PM 16.81 62.258 0 7.51 2.46 9.23
5/20/2022 9:15:00 PM 16.69 62.042 0 7.49 2.38 9.24
5/20/2022 9:30:00 PM 16.55 61.79 0 7.49 2.45 9.27
5/20/2022 9:45:00 PM 16.33 61.394 0 7.47 2.41 9.31
5/20/2022 10:00:00 PM 16.12 61.016 0 7.46 2.31 9.35
5/20/2022 10:15:00 PM 15.92 60.656 0 7.43 2.41 9.38
5/20/2022 10:30:00 PM 15.7 60.26 0 7.44 2.13 9.42
5/20/2022 10:45:00 PM 15.54 59.972 0 7.43 2.41 9.45
5/20/2022 11:00:00 PM 15.39 59.702 0 7.42 2.34 9.48
5/20/2022 11:15:00 PM 15.2 59.36 0 7.52 2.32 9.52
5/20/2022 11:30:00 PM 15.16 59.288 0 7.57 2.38 9.53
5/20/2022 11:45:00 PM 14.97 58.946 0 7.58 2.45 9.57
5/21/2022 12:00:00 AM 14.93 58.874 0 7.56 2.44 9.58
5/21/2022 12:15:00 AM 14.94 58.892 0 7.52 2.64 9.58
5/21/2022 12:30:00 AM 14.88 58.784 0 7.49 2.22 9.59
5/21/2022 12:45:00 AM 14.79 58.622 0 7.48 2.38 9.61
5/21/2022 1:00:00 AM 14.61 58.298 0 7.49 2.38 9.64
5/21/2022 1:15:00 AM 14.57 58.226 0 7.52 2.37 9.66
5/21/2022 1:30:00 AM 14.63 58.334 0 7.51 2.41 9.65
5/21/2022 1:45:00 AM 14.59 58.262 0 7.52 2.47 9.66
5/21/2022 2:00:00 AM 14.55 58.19 0 7.52 2.3 9.67
5/21/2022 2:15:00 AM 14.46 58.028 0 7.54 2.36 9.69
5/21/2022 2:30:00 AM 14.43 57.974 0 7.55 2.38 9.7
5/21/2022 2:45:00 AM 14.41 57.938 0 7.58 2.36 9.7
5/21/2022 3:00:00 AM 14.35 57.83 0 7.56 2.35 9.72
5/21/2022 3:15:00 AM 14.26 57.668 0 7.54 2.35 9.74
5/21/2022 3:30:00 AM 14.19 57.542 0 7.51 2.37 9.75
5/21/2022 3:45:00 AM 14.18 57.524 0 7.5 2.41 9.76
5/21/2022 4:00:00 AM 14.21 57.578 0 7.51 2.4 9.75
5/21/2022 4:15:00 AM 14.33 57.794 0 7.54 2.38 9.73
5/21/2022 4:30:00 AM 14.43 57.974 0 7.62 2.34 9.72
5/21/2022 4:45:00 AM 14.59 58.262 0 7.52 2.42 9.7
5/21/2022 5:00:00 AM 14.69 58.442 0 7.44 2.32 9.67
5/21/2022 5:15:00 AM 14.91 58.838 0 7.45 2.38 9.64
5/21/2022 5:30:00 AM 15.14 59.252 0 7.43 2.37 9.6
5/21/2022 5:45:00 AM 15.15 59.27 0 7.43 2.42 9.62
5/21/2022 6:00:00 AM 15.47 59.846 0 7.41 2.36 9.55
5/21/2022 6:15:00 AM 15.61 60.098 0 7.43 2.36 9.55
5/21/2022 6:30:00 AM 15.57 60.026 0 7.45 2.33 9.56
5/21/2022 6:45:00 AM 15.64 60.152 0 7.47 2.34 9.55
5/21/2022 7:00:00 AM 15.94 60.692 0 7.46 2.42 9.5
5/21/2022 7:15:00 AM 15.94 60.692 0 7.43 2.44 9.5
5/21/2022 7:30:00 AM 16.24 61.232 0 7.47 2.37 9.45
5/21/2022 7:45:00 AM 16.38 61.484 0 7.59 2.44 9.45
5/21/2022 8:00:00 AM 16.21 61.178 0 7.65 2.37 9.51
5/21/2022 8:15:00 AM 16.35 61.43 0 7.63 2.35 9.49
5/21/2022 8:30:00 AM 16.7 62.06 0 7.56 2.45 9.4
5/21/2022 8:45:00 AM 16.71 62.078 0 7.59 2.48 9.41
5/21/2022 9:00:00 AM 17.47 63.446 0 7.6 2.47 9.26
5/21/2022 9:15:00 AM 18.05 64.49 0 7.6 2.45 9.14
5/21/2022 9:30:00 AM 17.85 64.13 0 7.6 2.51 9.18
5/21/2022 9:45:00 AM 17.81 64.058 0 7.58 2.38 9.19
5/21/2022 10:00:00 AM 17.99 64.382 0 7.61 2.47 9.16
5/21/2022 10:15:00 AM 18.25 64.85 0 7.61 2.44 9.11
5/21/2022 10:30:00 AM 18.53 65.354 0 7.64 2.5 9.05
5/21/2022 10:45:00 AM 18.82 65.876 0 7.64 2.54 9.01
5/21/2022 11:00:00 AM 19.17 66.506 0 7.64 2.54 8.93
5/21/2022 11:15:00 AM 19.39 66.902 0 7.66 2.43 8.94
5/21/2022 11:30:00 AM 20.04 68.07201 0 7.64 2.47 8.83
5/21/2022 11:45:00 AM 20.86 69.548 0 7.61 2.47 8.71
5/21/2022 12:00:00 PM 22.26 72.068 0 7.59 2.48 8.49
5/21/2022 12:15:00 PM 22.85 73.13 0 7.57 2.48 8.37
5/21/2022 12:30:00 PM 23.68 74.624 0 7.49 2.47 8.26
5/21/2022 12:45:00 PM 24.14 75.452 0 7.45 2.43 8.19
5/21/2022 1:00:00 PM 24.89 76.802 0 7.47 2.55 8.02
5/21/2022 1:15:00 PM 24.49 76.082 0 7.12 2.42 7.95
5/21/2022 1:30:00 PM 24.86 76.748 0 7.45 2.47 7.95
5/21/2022 1:45:00 PM 25.12 77.216 0 7.42 2.35 7.98
5/21/2022 2:00:00 PM 25.37 77.666 0 7.64 2.4 7.9
5/21/2022 2:15:00 PM 25.25 77.45 0 7.52 2.5 7.95
5/21/2022 2:30:00 PM 25.59 78.062 0 7.64 2.61 7.89
5/21/2022 2:45:00 PM 25.23 77.414 0 7.62 2.53 7.89
5/21/2022 3:00:00 PM 25.9 78.62 0 7.5 2.54 7.75
5/21/2022 3:15:00 PM 26.05 78.89 0 7.45 2.53 7.75
5/21/2022 3:30:00 PM 25.43 77.774 0 7.27 2.78 7.76
5/21/2022 3:45:00 PM 25.32 77.576 0 6.95 4.75 7.82
5/21/2022 4:00:00 PM 26.79 80.222 0 7.48 2.6 7.67
5/21/2022 4:15:00 PM 26.51 79.718 0 7.24 2.64 7.64
5/21/2022 4:30:00 PM 26.19 79.142 0 6.9 3.92 7.68
5/21/2022 4:45:00 PM 26.15 79.07 0 6.91 3.38 7.75
5/21/2022 5:00:00 PM 26.4 79.52 0 7.11 4.16 7.7
5/21/2022 5:15:00 PM 25.61 78.098 0 6.83 5.16 7.86
5/21/2022 5:30:00 PM 26.27 79.286 0 7.06 4.94 7.69
5/21/2022 5:45:00 PM 25.94 78.692 0 6.62 5.3 7.8
5/21/2022 6:00:00 PM 25.76 78.368 0 7 5.37 7.82
5/21/2022 6:15:00 PM 26.02 78.836 0 6.99 5.56 7.75
5/21/2022 6:30:00 PM 25.26 77.468 0 6.93 5.81 8
5/21/2022 6:45:00 PM 25.77 78.386 0 6.88 5.37 7.83
5/21/2022 7:00:00 PM 25.06 77.108 0 6.9 5.62 7.88
5/21/2022 7:15:00 PM 24.04 75.272 0 7 5.74 8.11
5/21/2022 7:30:00 PM 23.86 74.948 0 7.15 4.63 8.05
5/21/2022 7:45:00 PM 23.51 74.318 0 7.4 4.42 8.11
5/21/2022 8:00:00 PM 23.24 73.832 0 7.58 3.86 8.13
5/21/2022 8:15:00 PM 22.4 72.32 0 7.13 3.72 8.24
5/21/2022 8:30:00 PM 22.22 71.996 0 7.43 3.25 8.29
5/21/2022 8:45:00 PM 21.82 71.276 0 7.5 3.39 8.34
5/21/2022 9:00:00 PM 21.38 70.484 0 7.61 3.44 8.4
5/21/2022 9:15:00 PM 20.92 69.656 0 7.53 3.31 8.47
5/21/2022 9:30:00 PM 20.67 69.206 0 7.57 3.61 8.52
5/21/2022 9:45:00 PM 20.42 68.756 0 7.6 3.07 8.56
5/21/2022 10:00:00 PM 20.04 68.07201 0 7.64 3.18 8.61
5/21/2022 10:15:00 PM 19.89 67.802 0 7.72 3.09 8.64
5/21/2022 10:30:00 PM 19.65 67.37 0 7.71 3.07 8.68
5/21/2022 10:45:00 PM 19.58 67.244 0 7.7 3.05 8.69
5/21/2022 11:00:00 PM 19.42 66.956 0 7.73 2.96 8.71
5/21/2022 11:15:00 PM 19.29 66.722 0 7.74 2.73 8.73
5/21/2022 11:30:00 PM 19.1 66.38 0 7.7 2.74 8.76
5/21/2022 11:45:00 PM 18.93 66.074 0 7.73 2.99 8.78
5/22/2022 12:00:00 AM 18.75 65.75 0 7.79 2.89 8.82
5/22/2022 12:15:00 AM 18.54 65.372 0 7.62 2.76 8.84
5/22/2022 12:30:00 AM 18.32 64.976 0 7.61 2.69 8.89
5/22/2022 12:45:00 AM 18.57 65.426 0 7.85 2.48 8.87
5/22/2022 1:00:00 AM 18.58 65.444 0 7.81 2.73 8.86
5/22/2022 1:15:00 AM 18.55 65.39 0 7.81 2.61 8.86
5/22/2022 1:30:00 AM 18.2 64.76 0 7.75 2.63 8.92
5/22/2022 1:45:00 AM 18.08 64.544 0 7.68 2.85 8.94
5/22/2022 2:00:00 AM 17.98 64.364 0 7.89 2.76 8.96
5/22/2022 2:15:00 AM 17.93 64.274 0 7.88 3.01 8.98
5/22/2022 2:30:00 AM 17.96 64.328 0 7.83 2.65 8.98
5/22/2022 2:45:00 AM 17.87 64.166 0 7.77 2.6 8.97
5/22/2022 3:00:00 AM 17.83 64.094 0 7.76 2.63 8.98
5/22/2022 3:15:00 AM 17.69 63.842 0 7.86 2.71 9.01
5/22/2022 3:30:00 AM 17.59 63.662 0 7.82 2.94 9.02
5/22/2022 3:45:00 AM 17.48 63.464 0 7.87 2.73 9.04
5/22/2022 4:00:00 AM 17.27 63.086 0 7.84 2.76 9.08
5/22/2022 4:15:00 AM 17.22 62.996 0 7.86 2.68 9.09
5/22/2022 4:30:00 AM 16.99 62.582 0 7.86 2.73 9.14
5/22/2022 4:45:00 AM 16.9 62.42 0 7.77 2.74 9.15
5/22/2022 5:00:00 AM 16.78 62.204 0 7.86 2.58 9.18
5/22/2022 5:15:00 AM 16.64 61.952 0 7.87 2.96 9.2
5/22/2022 5:30:00 AM 16.35 61.43 0 7.71 2.45 9.27
5/22/2022 5:45:00 AM 16.37 61.466 0 7.85 2.76 9.26
5/22/2022 6:00:00 AM 16.18 61.124 0 7.86 2.49 9.3
5/22/2022 6:15:00 AM 16.1 60.98 0 7.81 2.56 9.32
5/22/2022 6:30:00 AM 16.36 61.448 0 7.94 2.61 9.29
5/22/2022 6:45:00 AM 16.69 62.042 0 7.94 2.64 9.22
5/22/2022 7:00:00 AM 16.88 62.384 0 7.93 2.71 9.19
5/22/2022 7:15:00 AM 17.04 62.672 0 7.9 2.53 9.17
5/22/2022 7:30:00 AM 17.18 62.924 0 7.87 2.53 9.14
5/22/2022 7:45:00 AM 17.16 62.888 0 7.83 2.55 9.15
5/22/2022 8:00:00 AM 17.36 63.248 0 7.86 2.46 9.12
5/22/2022 8:15:00 AM 17.71 63.878 0 7.85 2.52 9.06
5/22/2022 8:30:00 AM 18.32 64.976 0 7.85 3.02 8.95
5/22/2022 8:45:00 AM 18.58 65.444 0 7.79 2.92 8.91
5/22/2022 9:00:00 AM 18.97 66.146 0 7.79 2.73 8.85
5/22/2022 9:15:00 AM 19.36 66.848 0 7.7 2.52 8.81
5/22/2022 9:30:00 AM 19.57 67.226 0 7.53 3.16 8.79
5/22/2022 9:45:00 AM 19.94 67.892 0 7.65 2.76 8.71
5/22/2022 10:00:00 AM 20.1 68.18 0 7.75 2.84 8.7
5/22/2022 10:15:00 AM 19.95 67.91 0 7.34 2.94 8.7
5/22/2022 10:30:00 AM 20.22 68.396 0 7.52 3.4 8.69
5/22/2022 10:45:00 AM 20.53 68.954 0 7.58 3.36 8.65
5/22/2022 11:00:00 AM 20.89 69.602 0 7.45 3.75 8.57
5/22/2022 11:15:00 AM 20.91 69.638 0 7.06 6.17 8.65
5/22/2022 11:30:00 AM 21.9 71.42 0 6.92 5.72 8.52
5/22/2022 11:45:00 AM 22.33 72.194 0 6.76 6.06 8.53
5/22/2022 12:00:00 PM 23.78 74.804 0 7.32 4.54 8.29
5/22/2022 12:15:00 PM 24.26 75.668 0 7.2 5.8 8.24
5/22/2022 12:30:00 PM 24.76 76.568 0 6.71 5.89 8.18
5/22/2022 12:45:00 PM 25.5 77.9 0 6.6 5.89 8.07
5/22/2022 1:00:00 PM 26.45 79.61 0 6.77 5.85 7.93
5/22/2022 1:15:00 PM 27.34 81.212 0 7.04 5.51 7.82
5/22/2022 1:30:00 PM 27.72 81.896 0 7.11 5.48 7.74
5/22/2022 1:45:00 PM 28.05 82.49 0 7.07 5.55 7.66
5/22/2022 2:00:00 PM 27.83 82.094 0 7.13 5.63 7.64
5/22/2022 2:15:00 PM 28.43 83.174 0 6.71 5.92 7.56
5/22/2022 2:30:00 PM 28.68 83.624 0 7.05 5.86 7.52
5/22/2022 2:45:00 PM 29.16 84.488 0 7.12 5.71 7.47
5/22/2022 3:00:00 PM 28.53 83.354 0 7.28 5.71 7.47
5/22/2022 3:15:00 PM 27.34 81.212 0 6.72 5.9 7.6
5/22/2022 3:30:00 PM 26.75 80.15 0 7.05 5.8 7.67
5/22/2022 3:45:00 PM 25.92 78.656 0 6.92 5.89 7.74
5/22/2022 4:00:00 PM 24.5 76.1 0 7.44 5.79 7.91
5/22/2022 4:15:00 PM 23.24 73.832 0 7.67 5.3 8.07
5/22/2022 4:30:00 PM 22.38 72.284 0 7.58 4.5 8.17
5/22/2022 4:45:00 PM 21.88 71.384 0 7.64 4.18 8.23
5/22/2022 5:00:00 PM 22.51 72.518 0 7.77 2.06 8.2
5/22/2022 5:15:00 PM 23.64 74.552 0 7.94 2.04 8
5/22/2022 5:30:00 PM 23.07 73.526 0 7.31 5.77 8.06
5/22/2022 5:45:00 PM 23.42 74.156 0 7.64 3.7 8.03
5/22/2022 6:00:00 PM 22.38 72.284 0 7.45 5.11 8.17
5/22/2022 6:15:00 PM 20.34 68.612 0 7.64 3.08 8.47
5/22/2022 6:30:00 PM 19.67 67.406 0 8.1 2.67 8.56
5/22/2022 6:45:00 PM 19.54 67.172 0 7.82 6.84 8.6
5/22/2022 7:00:00 PM 19.94 67.892 0 7.48 8.37 8.52
5/22/2022 7:15:00 PM 20.41 68.738 0.101 7.39 2.94 8.43
5/22/2022 7:30:00 PM 20.21 68.378 0.102 7.32 12.26 8.2
5/22/2022 7:45:00 PM 20 68 0.102 7.27 46.8 7.74
5/22/2022 8:00:00 PM 19.79 67.622 0.102 7.23 57.56 7.58
5/22/2022 8:15:00 PM 19.6 67.28 0.102 7.2 56.61 7.5
5/22/2022 8:30:00 PM 19.4 66.92 0.102 7.17 72.44 7.46
5/22/2022 8:45:00 PM 19.1 66.38 0.1 7.17 80.62 7.54
5/22/2022 9:00:00 PM 18.87 65.966 0.105 7.24 65.11 7.87
5/22/2022 9:15:00 PM 18.79 65.82201 0.113 7.28 47.26 8.05
5/22/2022 9:30:00 PM 18.64 65.552 0.111 7.26 62.75 8.13
5/22/2022 9:45:00 PM 18.46 65.228 0.106 7.24 79.12 8.17
5/22/2022 10:00:00 PM 18.26 64.868 0.103 7.22 90.29 8.22
5/22/2022 10:15:00 PM 18.08 64.544 0.1 7.19 91.79 8.25
5/22/2022 10:30:00 PM 17.91 64.238 0.098 7.19 90.47 8.29
5/22/2022 10:45:00 PM 17.74 63.932 0.095 7.19 95.1 8.32
5/22/2022 11:00:00 PM 17.58 63.644 0.094 7.19 90.93 8.36
5/22/2022 11:15:00 PM 17.43 63.374 0.093 7.19 88.68 8.38
5/22/2022 11:30:00 PM 17.31 63.158 0.093 7.19 86.29 8.41
5/22/2022 11:45:00 PM 17.2 62.96 0.094 7.2 65.62 8.43
5/23/2022 12:00:00 AM 17.12 62.816 0.095 7.21 57.79 8.45
5/23/2022 12:15:00 AM 17.07 62.726 0.096 7.22 45.69 8.46
5/23/2022 12:30:00 AM 17.03 62.654 0.098 7.23 36.35 8.48
5/23/2022 12:45:00 AM 16.99 62.582 0.099 7.23 30.64 8.48
5/23/2022 1:00:00 AM 16.95 62.51 0.1 7.24 27.3 8.48
5/23/2022 1:15:00 AM 16.91 62.438 0.102 7.24 28.89 8.49
5/23/2022 1:30:00 AM 16.86 62.348 0.103 7.24 22.66 8.49
5/23/2022 1:45:00 AM 16.8 62.24 0.104 7.25 20.53 8.5
5/23/2022 2:00:00 AM 16.76 62.168 0.104 7.25 18.27 8.51
5/23/2022 2:15:00 AM 16.7 62.06 0.105 7.25 17.01 8.51
5/23/2022 2:30:00 AM 16.65 61.97 0.105 7.25 16.85 8.52
5/23/2022 2:45:00 AM 16.61 61.898 0.105 7.25 17.16 8.53
5/23/2022 3:00:00 AM 16.56 61.808 0.106 7.25 16.77 8.54
5/23/2022 3:15:00 AM 16.5 61.7 0.106 7.25 16.04 8.55
5/23/2022 3:30:00 AM 16.44 61.592 0.106 7.24 18.99 8.56
5/23/2022 3:45:00 AM 16.36 61.448 0.107 7.24 15.96 8.57
5/23/2022 4:00:00 AM 16.3 61.34 0.107 7.24 14.91 8.58
5/23/2022 4:15:00 AM 16.26 61.268 0.107 7.24 15 8.58
5/23/2022 4:30:00 AM 16.19 61.142 0.108 7.24 14.47 8.59
5/23/2022 4:45:00 AM 16.14 61.052 0.108 7.24 13.95 8.6
5/23/2022 5:00:00 AM 16.07 60.926 0.108 7.24 13.62 8.61
5/23/2022 5:15:00 AM 16.01 60.818 0.108 7.24 13.62 8.62
5/23/2022 5:30:00 AM 15.95 60.71 0.109 7.24 13.14 8.63
5/23/2022 5:45:00 AM 15.89 60.602 0.109 7.24 12.64 8.64
5/23/2022 6:00:00 AM 15.83 60.494 0.109 7.24 12.02 8.65
5/23/2022 6:15:00 AM 15.77 60.386 0.109 7.24 11.76 8.67
5/23/2022 6:30:00 AM 15.72 60.296 0.11 7.25 11.45 8.71
5/23/2022 6:45:00 AM 15.67 60.206 0.11 7.25 11.93 8.76
5/23/2022 7:00:00 AM 15.62 60.116 0.11 7.27 11.01 8.84
5/23/2022 7:15:00 AM 15.57 60.026 0.11 7.28 10.75 8.9
5/23/2022 7:30:00 AM 15.53 59.954 0.11 7.29 11.25 8.98
5/23/2022 7:45:00 AM 15.51 59.918 0.11 7.31 10.27 9.06
5/23/2022 8:00:00 AM 15.49 59.882 0.11 7.33 9.48 9.17
5/23/2022 8:15:00 AM 15.47 59.846 0.11 7.36 8.78 9.25
5/23/2022 8:30:00 AM 15.48 59.864 0.11 7.38 9.08 9.34
5/23/2022 8:45:00 AM 15.47 59.846 0.11 7.41 8.87 9.43
5/23/2022 9:00:00 AM 15.45 59.81 0.11 7.43 8.63 9.51
5/23/2022 9:15:00 AM 15.46 59.828 0.11 7.45 8.38 9.59
5/23/2022 9:30:00 AM 15.49 59.882 0.11 7.49 8.05 9.68
5/23/2022 9:45:00 AM 15.52 59.936 0.109 7.52 7.76 9.76
5/23/2022 10:00:00 AM 15.58 60.044 0.109 7.55 7.75 9.82
5/23/2022 10:15:00 AM 15.68 60.224 0.109 7.57 7.73 9.87
5/23/2022 10:30:00 AM 15.8 60.44 0.109 7.61 7.47 9.93
5/23/2022 10:45:00 AM 15.92 60.656 0.109 7.64 7.5 9.99
5/23/2022 11:00:00 AM 16.06 60.908 0.109 7.68 7.44 10.02
5/23/2022 11:15:00 AM 16.17 61.106 0.109 7.71 7.21 10.04
5/23/2022 11:30:00 AM 16.28 61.304 0.109 7.75 7.41 10.06
5/23/2022 11:45:00 AM 16.4 61.52 0.108 7.79 7.06 10.08
5/23/2022 12:00:00 PM 16.61 61.898 0.108 7.81 6.64 10.09
5/23/2022 12:15:00 PM 16.76 62.168 0.108 7.85 6.99 10.1
5/23/2022 12:30:00 PM 16.91 62.438 0.108 7.89 6.72 10.11
5/23/2022 12:45:00 PM 17.14 62.852 0.108 7.96 7.36 10.15
5/23/2022 1:00:00 PM 17.34 63.212 0.108 8.01 6.38 10.15
5/23/2022 1:15:00 PM 17.53 63.554 0.108 8.09 7.27 10.18
5/23/2022 1:30:00 PM 17.7 63.86 0.108 8.13 7.03 10.17
5/23/2022 1:45:00 PM 17.87 64.166 0.108 8.2 6.09 10.18
5/23/2022 2:00:00 PM 17.98 64.364 0.108 8.25 6.18 10.18
5/23/2022 2:15:00 PM 18.03 64.454 0.108 8.28 5.82 10.14
5/23/2022 2:30:00 PM 18.12 64.616 0.108 8.32 5.87 10.12
5/23/2022 2:45:00 PM 18.17 64.706 0.108 8.33 5.69 10.09
5/23/2022 3:00:00 PM 18.27 64.886 0.108 8.35 5.84 10.09
5/23/2022 3:15:00 PM 18.31 64.958 0.108 8.37 5.65 10.09
5/23/2022 3:30:00 PM 18.39 65.102 0.108 8.38 5.61 10.08
5/23/2022 3:45:00 PM 18.4 65.12 0.108 8.39 5.52 10.08
5/23/2022 4:00:00 PM 18.46 65.228 0.108 8.43 6.25 10.09
5/23/2022 4:15:00 PM 18.5 65.3 0.108 8.43 5.64 10.09
5/23/2022 4:30:00 PM 18.49 65.282 0.108 8.44 5.44 10.07
5/23/2022 4:45:00 PM 18.45 65.21 0.108 8.44 5.46 10.05
5/23/2022 5:00:00 PM 18.38 65.084 0.108 8.42 5.18 10.02
5/23/2022 5:15:00 PM 18.3 64.94 0.108 8.39 5.11 9.98
5/23/2022 5:30:00 PM 18.17 64.706 0.108 8.34 5.15 9.93
5/23/2022 5:45:00 PM 18.09 64.562 0.108 8.29 5.46 9.87
5/23/2022 6:00:00 PM 17.97 64.346 0.108 8.21 5.15 9.8
5/23/2022 6:15:00 PM 17.84 64.112 0.108 8.1 4.77 9.72
5/23/2022 6:30:00 PM 17.72 63.896 0.108 8 4.8 9.63
5/23/2022 6:45:00 PM 17.61 63.698 0.108 7.9 4.78 9.53
5/23/2022 7:00:00 PM 17.47 63.446 0.109 7.79 4.78 9.41
5/23/2022 7:15:00 PM 17.35 63.23 0.109 7.69 4.67 9.28
5/23/2022 7:30:00 PM 17.22 62.996 0.109 7.6 4.58 9.15
5/23/2022 7:45:00 PM 17.1 62.78 0.109 7.52 4.51 8.98
5/23/2022 8:00:00 PM 16.97 62.546 0.11 7.45 4.31 8.83
5/23/2022 8:15:00 PM 16.84 62.312 0.11 7.39 4.23 8.72
5/23/2022 8:30:00 PM 16.71 62.078 0.11 7.35 4.31 8.62
5/23/2022 8:45:00 PM 16.58 61.844 0.11 7.3 4.25 8.53
5/23/2022 9:00:00 PM 16.46 61.628 0.111 7.27 4.35 8.44
5/23/2022 9:15:00 PM 16.34 61.412 0.111 7.24 4.71 8.39
5/23/2022 9:30:00 PM 16.23 61.214 0.111 7.22 4.54 8.36
5/23/2022 9:45:00 PM 16.13 61.034 0.111 7.2 4.38 8.33
5/23/2022 10:00:00 PM 16.02 60.836 0.111 7.19 4.45 8.31
5/23/2022 10:15:00 PM 15.93 60.674 0.111 7.17 4.43 8.29
5/23/2022 10:30:00 PM 15.81 60.458 0.112 7.16 4.44 8.32
5/23/2022 10:45:00 PM 15.71 60.278 0.112 7.15 4.18 8.33
5/23/2022 11:00:00 PM 15.63 60.134 0.112 7.14 4.17 8.31
5/23/2022 11:15:00 PM 15.53 59.954 0.112 7.13 4.08 8.34
5/23/2022 11:30:00 PM 15.45 59.81 0.112 7.12 4.1 8.35
5/23/2022 11:45:00 PM 15.36 59.648 0.112 7.12 3.91 8.39
5/24/2022 12:00:00 AM 15.28 59.504 0.112 7.12 4.03 8.4
5/24/2022 12:15:00 AM 15.2 59.36 0.112 7.11 3.98 8.43
5/24/2022 12:30:00 AM 15.12 59.216 0.112 7.11 3.96 8.44
5/24/2022 12:45:00 AM 15.04 59.072 0.112 7.11 3.96 8.47
5/24/2022 1:00:00 AM 14.96 58.928 0.112 7.11 3.85 8.48
5/24/2022 1:15:00 AM 14.88 58.784 0.112 7.11 3.82 8.5
5/24/2022 1:30:00 AM 14.8 58.64 0.112 7.11 3.74 8.56
5/24/2022 1:45:00 AM 14.72 58.496 0.112 7.1 3.72 8.6
5/24/2022 2:00:00 AM 14.66 58.388 0.112 7.1 3.78 8.62
5/24/2022 2:15:00 AM 14.59 58.262 0.112 7.1 3.76 8.65
5/24/2022 2:30:00 AM 14.52 58.136 0.112 7.1 3.53 8.68
5/24/2022 2:45:00 AM 14.46 58.028 0.113 7.1 3.61 8.74
5/24/2022 3:00:00 AM 14.41 57.938 0.113 7.1 3.49 8.79
5/24/2022 3:15:00 AM 14.35 57.83 0.113 7.1 3.64 8.9
5/24/2022 3:30:00 AM 14.3 57.74 0.113 7.1 3.66 9.04
5/24/2022 3:45:00 AM 14.25 57.65 0.113 7.1 3.6 9.09
5/24/2022 4:00:00 AM 14.19 57.542 0.113 7.1 3.51 9.3
5/24/2022 4:15:00 AM 14.15 57.47 0.113 7.1 3.72 9.41
5/24/2022 4:30:00 AM 14.09 57.362 0.113 7.09 3.49 9.49
5/24/2022 4:45:00 AM 14.04 57.272 0.113 7.1 3.73 9.59
5/24/2022 5:00:00 AM 13.99 57.182 0.113 7.1 3.66 9.67
5/24/2022 5:15:00 AM 14.07 57.326 0.112 7.1 3.61 9.72
5/24/2022 5:30:00 AM 14 57.2 0.112 7.1 3.48 9.78
5/24/2022 5:45:00 AM 13.93 57.074 0.112 7.09 3.5 9.83
5/24/2022 6:00:00 AM 13.87 56.966 0.112 7.09 3.63 9.85
5/24/2022 6:15:00 AM 13.81 56.858 0.111 7.09 3.51 9.86
5/24/2022 6:30:00 AM 13.76 56.768 0.111 7.1 3.44 9.88
5/24/2022 6:45:00 AM 13.73 56.714 0.111 7.11 3.44 9.9
5/24/2022 7:00:00 AM 13.7 56.66 0.111 7.13 3.35 9.9
5/24/2022 7:15:00 AM 13.68 56.624 0.11 7.15 3.35 9.9
5/24/2022 7:30:00 AM 13.66 56.588 0.109 7.18 3.32 9.91
5/24/2022 7:45:00 AM 13.63 56.534 0.108 7.21 3.4 9.91
5/24/2022 8:00:00 AM 13.66 56.588 0.105 7.23 6.26 9.92
5/24/2022 8:15:00 AM 13.69 56.642 0.102 7.26 3.48 9.93
5/24/2022 8:30:00 AM 13.73 56.714 0.101 7.29 3.51 9.93
5/24/2022 8:45:00 AM 13.78 56.804 0.1 7.32 3.57 9.91
5/24/2022 9:00:00 AM 13.83 56.894 0.098 7.36 3.53 9.89
5/24/2022 9:15:00 AM 13.91 57.038 0.093 7.4 3.51 9.85
5/24/2022 9:30:00 AM 13.99 57.182 0.092 7.45 3.52 9.87
5/24/2022 9:45:00 AM 14.07 57.326 0.083 7.48 3.56 9.83
5/24/2022 10:00:00 AM 14.22 57.596 0.075 7.54 3.66 9.81
5/24/2022 10:15:00 AM 14.41 57.938 0.064 7.62 3.89 9.79
5/24/2022 10:30:00 AM 14.56 58.208 0.049 7.69 4.26 9.76
5/24/2022 10:45:00 AM 14.61 58.298 0.04 7.73 4.5 9.73
5/24/2022 11:00:00 AM 14.69 58.442 0.048 7.79 4.27 9.73
5/24/2022 11:15:00 AM 14.75 58.55 0.04 7.85 4.44 9.7
5/24/2022 11:30:00 AM 14.86 58.748 0.037 7.91 4.41 9.69
5/24/2022 11:45:00 AM 14.91 58.838 0.03 7.97 4.62 9.68
5/24/2022 12:00:00 PM 14.97 58.946 0.02 8.01 5.01 9.66
5/24/2022 12:15:00 PM 15.01 59.018 0.023 8.03 4.93 9.65
5/24/2022 12:30:00 PM 15.07 59.126 0.016 8.07 5.23 9.64
5/24/2022 12:45:00 PM 15.11 59.198 0.01 8.11 5.78 9.63
5/24/2022 1:00:00 PM 15.19 59.342 0.008 8.19 5.85 9.59
5/24/2022 1:15:00 PM 15.32 59.576 0.006 8.22 6.11 9.59
5/24/2022 1:30:00 PM 15.34 59.612 0.004 8.3 6.32 9.56
5/24/2022 1:45:00 PM 15.53 59.954 0.002 8.37 6.65 9.56
5/24/2022 2:00:00 PM 15.52 59.936 0.001 8.44 6.96 9.52
5/24/2022 2:15:00 PM 15.61 60.098 0 8.47 7.11 9.54
5/24/2022 2:30:00 PM 15.63 60.134 0 8.53 7.07 9.49
5/24/2022 2:45:00 PM 16.06 60.908 0 8.57 7.03 9.51
5/24/2022 3:00:00 PM 16.1 60.98 0 8.62 7.11 9.49
5/24/2022 3:15:00 PM 16.24 61.232 0 8.66 7.1 9.47
5/24/2022 3:30:00 PM 16.25 61.25 0 8.66 7.17 9.42
5/24/2022 3:45:00 PM 16.37 61.466 0 8.73 7.04 9.4
5/24/2022 4:00:00 PM 16.34 61.412 0 8.74 8.14 9.41
5/24/2022 4:15:00 PM 16.5 61.7 0 8.75 10.14 9.38
5/24/2022 4:30:00 PM 16.49 61.682 0 8.76 10.55 9.38
5/24/2022 4:45:00 PM 16.48 61.664 0 8.76 11 9.37
5/24/2022 5:00:00 PM 16.18 61.124 0 8.76 11.39 9.4
5/24/2022 5:15:00 PM 16.72 62.096 0 8.78 10.39 9.36
5/24/2022 5:30:00 PM 17.04 62.672 0 8.75 10.73 9.32
5/24/2022 5:45:00 PM 16.74 62.132 0 8.72 10.62 9.32
5/24/2022 6:00:00 PM 16.57 61.826 0 8.65 10.56 9.35
5/24/2022 6:15:00 PM 16.51 61.718 0 8.59 9.83 9.35
5/24/2022 6:30:00 PM 16.47 61.646 0 8.52 9.67 9.36
5/24/2022 6:45:00 PM 16.32 61.376 0 8.41 9.44 9.38
5/24/2022 7:00:00 PM 16.18 61.124 0 8.25 11.89 9.42
5/24/2022 7:15:00 PM 16.19 61.142 0 8.08 15.48 9.41
5/24/2022 7:30:00 PM 16.02 60.836 0 7.9 20.78 9.44
5/24/2022 7:45:00 PM 16.05 60.89 0 7.76 23.83 9.44
5/24/2022 8:00:00 PM 15.95 60.71 0 7.63 24.84 9.46
5/24/2022 8:15:00 PM 15.94 60.692 0 7.51 24.25 9.46
5/24/2022 8:30:00 PM 15.87 60.566 0 7.45 21.92 9.47
5/24/2022 8:45:00 PM 15.78 60.404 0 7.37 18.93 9.49
5/24/2022 9:00:00 PM 15.62 60.116 0 7.32 15.89 9.51
5/24/2022 9:15:00 PM 15.52 59.936 0 7.28 15.38 9.52
5/24/2022 9:30:00 PM 15.5 59.9 0 7.25 11.25 9.54
5/24/2022 9:45:00 PM 15.42 59.756 0 7.2 10.24 9.55
5/24/2022 10:00:00 PM 15.11 59.198 0 7.19 8.45 9.6
5/24/2022 10:15:00 PM 15.23 59.414 0 7.17 8.24 9.58
5/24/2022 10:30:00 PM 15.13 59.234 0 7.16 6.41 9.6
5/24/2022 10:45:00 PM 14.97 58.946 0 7.15 6.34 9.61
5/24/2022 11:00:00 PM 14.92 58.856 0 7.14 5.06 9.64
5/24/2022 11:15:00 PM 14.8 58.64 0 7.14 5.27 9.65
5/24/2022 11:30:00 PM 14.55 58.19 0 7.14 5.22 9.7
5/24/2022 11:45:00 PM 14.5 58.1 0 7.13 5.39 9.71
5/25/2022 12:00:00 AM 14.49 58.082 0 7.12 5.35 9.72
5/25/2022 12:15:00 AM 14.44 57.992 0 7.11 4.91 9.73
5/25/2022 12:30:00 AM 14.26 57.668 0 7.11 4.8 9.78
5/25/2022 12:45:00 AM 14.11 57.398 0 7.11 3.88 9.8
5/25/2022 1:00:00 AM 14.04 57.272 0 7.11 3.46 9.81
5/25/2022 1:15:00 AM 14.12 57.416 0 7.1 3.37 9.8
5/25/2022 1:30:00 AM 14.03 57.254 0 7.09 3.3 9.81
5/25/2022 1:45:00 AM 13.79 56.822 0 7.1 3.16 9.86
5/25/2022 2:00:00 AM 13.54 56.372 0 7.09 3.03 9.91
5/25/2022 2:15:00 AM 13.78 56.804 0 7.09 2.98 9.87
5/25/2022 2:30:00 AM 13.47 56.246 0 7.1 3 9.95
5/25/2022 2:45:00 AM 13.79 56.822 0 7.09 2.88 9.88
5/25/2022 3:00:00 AM 13.67 56.606 0 7.07 2.74 9.9
5/25/2022 3:15:00 AM 13.74 56.732 0 7.09 2.87 9.89
5/25/2022 3:30:00 AM 13.63 56.534 0 7.08 2.81 9.91
5/25/2022 3:45:00 AM 13.71 56.678 0 7.08 2.79 9.9
5/25/2022 4:00:00 AM 13.68 56.624 0 7.06 2.83 9.92
5/25/2022 4:15:00 AM 13.66 56.588 0 7.09 2.8 9.92
5/25/2022 4:30:00 AM 13.54 56.372 0 7.05 2.78 9.94
5/25/2022 4:45:00 AM 13.61 56.498 0 7.09 2.82 9.93
5/25/2022 5:00:00 AM 13.57 56.426 0 7.06 2.85 9.94
5/25/2022 5:15:00 AM 13.62 56.516 0 7.08 3.07 9.93
5/25/2022 5:30:00 AM 13.57 56.426 0 7.08 3.35 9.94
5/25/2022 5:45:00 AM 13.56 56.408 0 7.07 3.48 9.95
5/25/2022 6:00:00 AM 13.58 56.444 0 7.08 3.58 9.95
5/25/2022 6:15:00 AM 13.52 56.336 0 7.08 3.16 9.97
5/25/2022 6:30:00 AM 13.41 56.138 0 7.08 3.16 9.99
5/25/2022 6:45:00 AM 13.55 56.39 0 7.09 2.84 9.97
5/25/2022 7:00:00 AM 13.59 56.462 0 7.11 2.83 9.97
5/25/2022 7:15:00 AM 13.61 56.498 0 7.13 2.74 9.97
5/25/2022 7:30:00 AM 13.42 56.156 0 7.15 2.83 10.01
5/25/2022 7:45:00 AM 13.41 56.138 0 7.18 2.83 10.01
5/25/2022 8:00:00 AM 13.09 55.562 0 7.22 2.79 10.07
5/25/2022 8:15:00 AM 13.09 55.562 0 7.27 2.78 10.06
5/25/2022 8:30:00 AM 13.22 55.796 0 7.33 2.86 10.06
5/25/2022 8:45:00 AM 13.26 55.868 0 7.38 2.86 10.06
5/25/2022 9:00:00 AM 13.38 56.084 0 7.38 2.87 10.05
5/25/2022 9:15:00 AM 13.81 56.858 0 7.42 2.89 9.96
5/25/2022 9:30:00 AM 14.06 57.308 0 7.48 2.96 9.91
5/25/2022 9:45:00 AM 14.15 57.47 0 7.5 2.83 9.9
5/25/2022 10:00:00 AM 14.32 57.776 0 7.54 2.94 9.87
5/25/2022 10:15:00 AM 14.56 58.208 0 7.58 2.94 9.82
5/25/2022 10:30:00 AM 14.63 58.334 0 7.62 2.93 9.81
5/25/2022 10:45:00 AM 14.67 58.406 0 7.64 2.87 9.8
5/25/2022 11:00:00 AM 14.79 58.622 0 7.7 2.9 9.78
5/25/2022 11:15:00 AM 15.01 59.018 0 7.71 2.87 9.74
5/25/2022 11:30:00 AM 15.21 59.378 0 7.76 2.88 9.75
5/25/2022 11:45:00 AM 15.6 60.08 0 7.8 2.79 9.67
5/25/2022 12:00:00 PM 16.08 60.944 0 7.84 2.84 9.6
5/25/2022 12:15:00 PM 16.11 60.998 0 7.82 2.76 9.57
5/25/2022 12:30:00 PM 16.45 61.61 0 7.85 2.73 9.44
5/25/2022 12:45:00 PM 16.74 62.132 0 7.79 2.72 9.35
5/25/2022 1:00:00 PM 17.29 63.122 0 7.89 2.7 9.37
5/25/2022 1:15:00 PM 17.42 63.356 0 7.98 2.65 9.3
5/25/2022 1:30:00 PM 17.25 63.05 0 8.06 2.69 9.34
5/25/2022 1:45:00 PM 17.79 64.022 0 8.11 2.6 9.27
5/25/2022 2:00:00 PM 18.65 65.57 0 8.11 2.54 9.15
5/25/2022 2:15:00 PM 18.48 65.264 0 7.7 2.61 8.95
5/25/2022 2:30:00 PM 19.21 66.578 0 8.09 3.3 9
5/25/2022 2:45:00 PM 19.45 67.01 0 7.82 2.54 8.91
5/25/2022 3:00:00 PM 19.95 67.91 0 7.7 2.58 8.8
5/25/2022 3:15:00 PM 20.33 68.594 0 8.12 2.62 8.84
5/25/2022 3:30:00 PM 20.6 69.08 0 7.99 2.74 8.68
5/25/2022 3:45:00 PM 20.69 69.242 0 7.94 2.62 8.75
5/25/2022 4:00:00 PM 21.29 70.32201 0 7.94 2.7 8.63
5/25/2022 4:15:00 PM 20.73 69.314 0 7.46 2.69 8.54
5/25/2022 4:30:00 PM 20.81 69.458 0 7.61 2.53 8.5
5/25/2022 4:45:00 PM 21.29 70.32201 0 7.62 2.67 8.53
5/25/2022 5:00:00 PM 21.01 69.818 0 7.76 2.74 8.61
5/25/2022 5:15:00 PM 20.96 69.728 0 7.79 2.68 8.6
5/25/2022 5:30:00 PM 20.82 69.476 0 7.59 2.76 8.56
5/25/2022 5:45:00 PM 20.13 68.234 0 7.74 2.72 8.74
5/25/2022 6:00:00 PM 20.45 68.81 0 7.76 2.61 8.67
5/25/2022 6:15:00 PM 19.96 67.92799 0 7.76 2.7 8.78
5/25/2022 6:30:00 PM 19.72 67.496 0 7.3 2.7 8.76
5/25/2022 6:45:00 PM 19.33 66.794 0 7.25 2.69 8.76
5/25/2022 7:00:00 PM 19 66.2 0 7.84 2.68 8.93
5/25/2022 7:15:00 PM 17.91 64.238 0 7.57 2.86 9.1
5/25/2022 7:30:00 PM 17.58 63.644 0 7.18 2.72 9.15
5/25/2022 7:45:00 PM 16.98 62.564 0 7.4 2.84 9.27
5/25/2022 8:00:00 PM 17.12 62.816 0 7.76 3.03 9.25
5/25/2022 8:15:00 PM 17.03 62.654 0 7.58 2.78 9.2
5/25/2022 8:30:00 PM 16.66 61.988 0 7.61 2.88 9.32
5/25/2022 8:45:00 PM 16.33 61.394 0 7.51 2.69 9.39
5/25/2022 9:00:00 PM 16.38 61.484 0 7.78 2.74 9.38
5/25/2022 9:15:00 PM 16.17 61.106 0 7.26 2.77 9.36
5/25/2022 9:30:00 PM 15.58 60.044 0 7.38 2.96 9.51
5/25/2022 9:45:00 PM 15.57 60.026 0 7.41 2.71 9.52
5/25/2022 10:00:00 PM 15.26 59.468 0 7.44 2.78 9.6
5/25/2022 10:15:00 PM 15.16 59.288 0 7.65 2.58 9.64
5/25/2022 10:30:00 PM 15.1 59.18 0 7.66 2.76 9.64
5/25/2022 10:45:00 PM 14.83 58.694 0 7.55 2.77 9.71
5/25/2022 11:00:00 PM 14.65 58.37 0 7.41 2.88 9.72
5/25/2022 11:15:00 PM 14.83 58.694 0 7.6 2.84 9.7
5/25/2022 11:30:00 PM 14.42 57.956 0 7.12 3.12 9.76
5/25/2022 11:45:00 PM 14.18 57.524 0 7.05 4.57 9.83
5/26/2022 12:00:00 AM 14.28 57.704 0 7.5 2.92 9.84
5/26/2022 12:15:00 AM 14.03 57.254 0 7.43 3.04 9.88
5/26/2022 12:30:00 AM 14.05 57.29 0 7.89 2.85 9.83
5/26/2022 12:45:00 AM 14.47 58.046 0 7.18 4.82 9.7
5/26/2022 1:00:00 AM 14.83 58.694 0 7.14 26.02 9.61
5/26/2022 1:15:00 AM 14.76 58.568 0 7.14 11.9 9.65
5/26/2022 1:30:00 AM 14.81 58.658 0 7.14 9.28 9.61
5/26/2022 1:45:00 AM 14.49 58.082 0 7.15 8.41 9.7
5/26/2022 2:00:00 AM 14.4 57.92 0 7.15 8.35 9.76
5/26/2022 2:15:00 AM 14.47 58.046 0 7.15 9.08 9.71
5/26/2022 2:30:00 AM 14.61 58.298 0 7.15 8.36 9.67
5/26/2022 2:45:00 AM 14.14 57.452 0 7.15 8.8 9.74
5/26/2022 3:00:00 AM 14.3 57.74 0 7.15 9.19 9.77
5/26/2022 3:15:00 AM 14.37 57.866 0 7.15 10.56 9.7
5/26/2022 3:30:00 AM 14.18 57.524 0 7.15 10.61 9.8
5/26/2022 3:45:00 AM 14.19 57.542 0 7.15 9.99 9.75
5/26/2022 4:00:00 AM 14.06 57.308 0 7.15 14.04 9.78
5/26/2022 4:15:00 AM 13.73 56.714 0 7.15 14.15 9.81
5/26/2022 4:30:00 AM 13.93 57.074 0 7.15 19.57 9.83
5/26/2022 4:45:00 AM 13.65 56.57 0 7.14 20.62 9.9
5/26/2022 5:00:00 AM 13.83 56.894 0 7.14 22.9 9.84
5/26/2022 5:15:00 AM 13.78 56.804 0 7.13 22.19 9.79
5/26/2022 5:30:00 AM 13.12 55.616 0 7.13 21.81 9.97
5/26/2022 5:45:00 AM 13.69 56.642 0 7.13 22.72 9.89
5/26/2022 6:00:00 AM 13.49 56.282 0 7.12 22.11 9.93
5/26/2022 6:15:00 AM 13.53 56.354 0 7.12 21.8 9.9
5/26/2022 6:30:00 AM 13.37 56.066 0 7.13 20.05 9.93
5/26/2022 6:45:00 AM 13.01 55.418 0 7.13 17.04 9.99
5/26/2022 7:00:00 AM 13.04 55.472 0 7.14 16.3 10.06
5/26/2022 7:15:00 AM 13.53 56.354 0 7.15 13.15 9.97
5/26/2022 7:30:00 AM 12.83 55.094 0 7.17 12.73 10.08
5/26/2022 7:45:00 AM 13.39 56.102 0 7.2 13.24 10
5/26/2022 8:00:00 AM 13.17 55.706 0 7.22 11.1 9.97
5/26/2022 8:15:00 AM 13.14 55.652 0 7.25 9.31 10.03
5/26/2022 8:30:00 AM 13.43 56.174 0 7.27 7.28 9.91
5/26/2022 8:45:00 AM 13.44 56.192 0 7.3 7.69 9.96
5/26/2022 9:00:00 AM 13.62 56.516 0 7.33 7.51 9.95
5/26/2022 9:15:00 AM 13.5 56.3 0 7.37 5.82 9.93
5/26/2022 9:30:00 AM 13.75 56.75 0 7.4 5.6 9.91
5/26/2022 9:45:00 AM 13.97 57.146 0 7.43 4.68 9.86
5/26/2022 10:00:00 AM 13.81 56.858 0 7.45 3.47 9.84
5/26/2022 10:15:00 AM 14.08 57.344 0 7.5 3.28 9.83
5/26/2022 10:30:00 AM 14.3 57.74 0 7.58 3.09 9.73
5/26/2022 10:45:00 AM 14.49 58.082 0 7.62 3.17 9.76
5/26/2022 11:00:00 AM 14.84 58.712 0 7.67 3.08 9.7
5/26/2022 11:15:00 AM 15.12 59.216 0 7.67 2.98 9.57
5/26/2022 11:30:00 AM 15.58 60.044 0 7.75 3.02 9.57
5/26/2022 11:45:00 AM 16.08 60.944 0 7.72 2.94 9.41
5/26/2022 12:00:00 PM 16.87 62.366 0 7.83 2.95 9.35
5/26/2022 12:15:00 PM 17.55 63.59 0 7.84 2.94 9.3
5/26/2022 12:30:00 PM 17.93 64.274 0 7.87 2.96 9.15
5/26/2022 12:45:00 PM 17.97 64.346 0 7.98 2.9 9.09
5/26/2022 1:00:00 PM 18.57 65.426 0 8 2.82 9.07
5/26/2022 1:15:00 PM 19.2 66.56 0 8.06 2.86 8.97
5/26/2022 1:30:00 PM 18.9 66.02 0 8.18 2.78 8.95
5/26/2022 1:45:00 PM 19.18 66.524 0 8.2 3.01 8.91
5/26/2022 2:00:00 PM 19.44 66.992 0 8.25 2.68 8.84
5/26/2022 2:15:00 PM 19.41 66.938 0 8.19 2.8 8.79
5/26/2022 2:30:00 PM 18.88 65.984 0 8.25 2.73 8.87
5/26/2022 2:45:00 PM 18.75 65.75 0 8.27 2.68 8.9
5/26/2022 3:00:00 PM 18.8 65.84 0 8.2 2.72 8.89
5/26/2022 3:15:00 PM 18.66 65.588 0 8.19 2.64 8.91
5/26/2022 3:30:00 PM 18.62 65.516 0 8.22 2.86 8.94
5/26/2022 3:45:00 PM 18.49 65.282 0 8.17 2.97 8.97
5/26/2022 4:00:00 PM 18.32 64.976 0 8.18 2.72 8.98
5/26/2022 4:15:00 PM 18.53 65.354 0 8.11 2.66 8.96
5/26/2022 4:30:00 PM 19.67 67.406 0 8.14 2.7 8.8
5/26/2022 4:45:00 PM 19.16 66.488 0 8.02 2.71 8.8
5/26/2022 5:00:00 PM 18.41 65.138 0 7.95 2.75 8.95
5/26/2022 5:15:00 PM 18.59 65.462 0 8.15 2.61 8.96
5/26/2022 5:30:00 PM 18.75 65.75 0 7.81 2.73 8.82
5/26/2022 5:45:00 PM 18.37 65.066 0 8.02 2.67 8.99
5/26/2022 6:00:00 PM 18.07 64.526 0 7.93 2.68 9
5/26/2022 6:15:00 PM 17.87 64.166 0 7.74 2.7 8.99
5/26/2022 6:30:00 PM 18.01 64.418 0 7.81 2.7 9
5/26/2022 6:45:00 PM 17.9 64.22 0 7.75 2.73 9.03
5/26/2022 7:00:00 PM 17.69 63.842 0 7.72 2.77 9.07
5/26/2022 7:15:00 PM 17.85 64.13 0 7.72 2.96 9.03
5/26/2022 7:30:00 PM 17.69 63.842 0 7.69 2.81 9.06
5/26/2022 7:45:00 PM 17.5 63.5 0 7.76 2.72 9.1
5/26/2022 8:00:00 PM 17.2 62.96 0 7.76 2.68 9.16
5/26/2022 8:15:00 PM 17.26 63.068 0 7.59 2.9 9.14
5/26/2022 8:30:00 PM 17.17 62.906 0 7.74 2.82 9.19
5/26/2022 8:45:00 PM 17.17 62.906 0 7.72 2.81 9.18
5/26/2022 9:00:00 PM 17.09 62.762 0 7.74 2.74 9.19
5/26/2022 9:15:00 PM 17.13 62.834 0 7.68 2.88 9.16
5/26/2022 9:30:00 PM 17.12 62.816 0 7.61 2.77 9.19
5/26/2022 9:45:00 PM 17.05 62.69 0 7.45 2.65 9.19
5/26/2022 10:00:00 PM 17.13 62.834 0 7.67 2.83 9.19
5/26/2022 10:15:00 PM 17.04 62.672 0 7.59 2.99 9.21
5/26/2022 10:30:00 PM 17.07 62.726 0 7.67 2.82 9.2
5/26/2022 10:45:00 PM 17.18 62.924 0 7.7 2.77 9.17
5/26/2022 11:00:00 PM 17.21 62.978 0 7.7 2.81 9.16
5/26/2022 11:15:00 PM 17.2 62.96 0 7.72 2.9 9.16
5/26/2022 11:30:00 PM 17.03 62.654 0 7.65 2.65 9.2
5/26/2022 11:45:00 PM 17.08 62.744 0 7.69 2.91 9.18
5/27/2022 12:00:00 AM 17.03 62.654 0 7.55 2.88 9.19
5/27/2022 12:15:00 AM 16.98 62.564 0 7.62 2.85 9.22
5/27/2022 12:30:00 AM 17 62.6 0 7.71 2.61 9.2
5/27/2022 12:45:00 AM 16.96 62.528 0 7.51 3 9.2
5/27/2022 1:00:00 AM 16.93 62.474 0 7.54 2.79 9.22
5/27/2022 1:15:00 AM 16.96 62.528 0 7.62 2.33 9.21
5/27/2022 1:30:00 AM 16.99 62.582 0 7.67 2.89 9.2
5/27/2022 1:45:00 AM 16.94 62.492 0 7.54 2.76 9.21
5/27/2022 2:00:00 AM 16.85 62.33 0 7.44 2.73 9.22
5/27/2022 2:15:00 AM 16.87 62.366 0 7.53 2.89 9.22
5/27/2022 2:30:00 AM 16.91 62.438 0 7.63 3.09 9.21
5/27/2022 2:45:00 AM 16.89 62.402 0 7.63 2.76 9.22
5/27/2022 3:00:00 AM 16.94 62.492 0 7.7 2.88 9.2
5/27/2022 3:15:00 AM 16.94 62.492 0 7.64 2.59 9.21
5/27/2022 3:30:00 AM 16.95 62.51 0 7.53 2.76 9.2
5/27/2022 3:45:00 AM 16.95 62.51 0 7.39 2.87 9.2
5/27/2022 4:00:00 AM 16.97 62.546 0 7.56 2.83 9.2
5/27/2022 4:15:00 AM 16.98 62.564 0 7.64 2.66 9.2
5/27/2022 4:30:00 AM 16.98 62.564 0 7.62 2.87 9.2
5/27/2022 4:45:00 AM 16.99 62.582 0 7.56 3.13 9.2
5/27/2022 5:00:00 AM 16.95 62.51 0 7.5 3.04 9.2
5/27/2022 5:15:00 AM 16.91 62.438 0 7.44 2.91 9.22
5/27/2022 5:30:00 AM 16.88 62.384 0 7.43 3.04 9.22
5/27/2022 5:45:00 AM 16.87 62.366 0 7.48 3.01 9.22
5/27/2022 6:00:00 AM 16.9 62.42 0 7.58 2.9 9.22
5/27/2022 6:15:00 AM 16.93 62.474 0 7.6 3.1 9.21
5/27/2022 6:30:00 AM 16.94 62.492 0 7.53 2.83 9.21
5/27/2022 6:45:00 AM 17.01 62.618 0 7.48 3.05 9.2
5/27/2022 7:00:00 AM 17.07 62.726 0 7.39 3 9.19
5/27/2022 7:15:00 AM 17.16 62.888 0 7.31 3.09 9.17
5/27/2022 7:30:00 AM 17.19 62.942 0 7.33 3.32 9.17
5/27/2022 7:45:00 AM 17.2 62.96 0 7.44 3.53 9.17
5/27/2022 8:00:00 AM 17.24 63.032 0 7.44 3.27 9.16
5/27/2022 8:15:00 AM 17.34 63.212 0 7.44 3.46 9.14
5/27/2022 8:30:00 AM 17.49 63.482 0 7.52 3.42 9.11
5/27/2022 8:45:00 AM 17.56 63.608 0 7.34 3.37 9.1
5/27/2022 9:00:00 AM 17.57 63.626 0 7.25 3.56 9.1
5/27/2022 9:15:00 AM 17.62 63.716 0 7.38 3.71 9.09
5/27/2022 9:30:00 AM 17.73 63.914 0 7.51 3.34 9.07
5/27/2022 9:45:00 AM 17.78 64.004 0 7.37 3.55 9.05
5/27/2022 10:00:00 AM 17.89 64.202 0 7.56 3.45 9.04
5/27/2022 10:15:00 AM 17.93 64.274 0 7.59 3.75 9.03
5/27/2022 10:30:00 AM 18.11 64.598 0 7.49 3.75 9
5/27/2022 10:45:00 AM 18.16 64.688 0 7.42 3.91 8.99
5/27/2022 11:00:00 AM 18.28 64.904 0 7.33 4.21 8.97
5/27/2022 11:15:00 AM 18.3 64.94 0 7.4 3.79 8.97
5/27/2022 11:30:00 AM 18.46 65.228 0 7.28 4.04 8.94
5/27/2022 11:45:00 AM 18.63 65.534 0 7.42 4.2 8.91
5/27/2022 12:00:00 PM 18.7 65.66 0 7.35 4.3 8.9
5/27/2022 12:15:00 PM 18.84 65.912 0 7.41 4.29 8.87
5/27/2022 12:30:00 PM 19 66.2 0 7.38 4.52 8.84
5/27/2022 12:45:00 PM 19.3 66.74 0 7.49 4.48 8.8
5/27/2022 1:00:00 PM 19.6 67.28 0 7.48 4.51 8.75
5/27/2022 1:15:00 PM 19.47 67.046 0 7.18 5.6 8.75
5/27/2022 1:30:00 PM 19.33 66.794 0 7.11 5.24 8.78
5/27/2022 1:45:00 PM 19.82 67.676 0 7.36 4.78 8.7
5/27/2022 2:00:00 PM 20.14 68.252 0 7.16 5.33 8.63
5/27/2022 2:15:00 PM 19.78 67.604 0 7.09 5.41 8.69
5/27/2022 2:30:00 PM 19.53 67.154 0 7.15 5.17 8.72
5/27/2022 2:45:00 PM 19.38 66.884 0 7.24 4.87 8.75
5/27/2022 3:00:00 PM 19.26 66.668 0 7.08 5.5 8.76
5/27/2022 3:15:00 PM 19.21 66.578 0 7.35 4.95 8.77
5/27/2022 3:30:00 PM 19.07 66.326 0 7.4 4.63 8.78
5/27/2022 3:45:00 PM 18.94 66.092 0 7.58 4.25 8.79
5/27/2022 4:00:00 PM 18.89 66.002 0 7.62 4.32 8.8
5/27/2022 4:15:00 PM 18.98 66.164 0 7.63 3.82 8.78
5/27/2022 4:30:00 PM 19.03 66.254 0 7.6 3.72 8.77
5/27/2022 4:45:00 PM 19.06 66.308 0 7.52 3.93 8.77
5/27/2022 5:00:00 PM 19.1 66.38 0 7.49 3.59 8.76
5/27/2022 5:15:00 PM 19.11 66.398 0 7.35 3.95 8.76
5/27/2022 5:30:00 PM 18.98 66.164 0 7.31 4.24 8.78
5/27/2022 5:45:00 PM 18.9 66.02 0 7.34 4.74 8.8
5/27/2022 6:00:00 PM 18.91 66.038 0 7.31 4.47 8.8
5/27/2022 6:15:00 PM 18.62 65.516 0 7.03 5.21 8.85
5/27/2022 6:30:00 PM 18.49 65.282 0 7.02 4.93 8.87
5/27/2022 6:45:00 PM 18.47 65.246 0 7.22 4.77 8.88
5/27/2022 7:00:00 PM 18.3 64.94 0 7.22 5.13 8.92
5/27/2022 7:15:00 PM 18.14 64.652 0 7.1 5.21 8.94
5/27/2022 7:30:00 PM 18.1 64.58 0 7.3 4.92 8.95
5/27/2022 7:45:00 PM 17.99 64.382 0 7.26 5.1 8.96
5/27/2022 8:00:00 PM 17.91 64.238 0 7.36 5.1 8.98
5/27/2022 8:15:00 PM 17.81 64.058 0 7.45 4.83 8.99
5/27/2022 8:30:00 PM 17.7 63.86 0 7.51 4.85 9.01
5/27/2022 8:45:00 PM 17.49 63.482 0 7.54 4.79 9.04
5/27/2022 9:00:00 PM 17.33 63.194 0 7.56 4.66 9.06
5/27/2022 9:15:00 PM 16.99 62.582 0 7.48 4.63 9.13
5/27/2022 9:30:00 PM 16.67 62.006 0 7.5 4.67 9.2
5/27/2022 9:45:00 PM 16.28 61.304 0 7.95 2.93 9.27
5/27/2022 10:00:00 PM 16.35 61.43 0 7.72 2.79 9.22
5/27/2022 10:15:00 PM 16.1 60.98 0 7.66 2.84 9.27
5/27/2022 10:30:00 PM 16.34 61.412 0 7.51 3.1 9.22
5/27/2022 10:45:00 PM 16.3 61.34 0 7.44 3.07 9.23
5/27/2022 11:00:00 PM 16.22 61.196 0 7.4 3.2 9.24
5/27/2022 11:15:00 PM 16.09 60.962 0 7.39 2.81 9.27
5/27/2022 11:30:00 PM 16.05 60.89 0 7.37 2.83 9.27
5/27/2022 11:45:00 PM 16.11 60.998 0 7.37 3.02 9.25
5/28/2022 12:00:00 AM 16.03 60.854 0 7.35 2.93 9.27
5/28/2022 12:15:00 AM 15.96 60.728 0 7.36 2.82 9.29
5/28/2022 12:30:00 AM 16 60.8 0 7.36 2.77 9.28
5/28/2022 12:45:00 AM 15.74 60.332 0 7.36 2.71 9.33
5/28/2022 1:00:00 AM 15.71 60.278 0 7.37 2.75 9.34
5/28/2022 1:15:00 AM 15.65 60.17 0 7.38 2.66 9.34
5/28/2022 1:30:00 AM 15.67 60.206 0 7.4 2.7 9.34
5/28/2022 1:45:00 AM 15.69 60.242 0 7.4 2.75 9.34
5/28/2022 2:00:00 AM 15.66 60.188 0 7.41 2.77 9.34
5/28/2022 2:15:00 AM 15.49 59.882 0 7.44 2.49 9.36
5/28/2022 2:30:00 AM 15.44 59.792 0 7.48 2.62 9.39
5/28/2022 2:45:00 AM 15.38 59.684 0 7.47 2.68 9.4
5/28/2022 3:00:00 AM 15.35 59.63 0 7.43 2.56 9.41
5/28/2022 3:15:00 AM 15.33 59.594 0 7.45 2.62 9.41
5/28/2022 3:30:00 AM 15.26 59.468 0 7.5 2.58 9.42
5/28/2022 3:45:00 AM 15.17 59.306 0 7.53 2.62 9.45
5/28/2022 4:00:00 AM 15.01 59.018 0 7.58 2.56 9.47
5/28/2022 4:15:00 AM 14.95 58.91 0 7.57 2.63 9.48
5/28/2022 4:30:00 AM 14.94 58.892 0 7.55 2.52 9.49
5/28/2022 4:45:00 AM 14.94 58.892 0 7.5 2.58 9.49
5/28/2022 5:00:00 AM 14.96 58.928 0 7.5 2.53 9.49
5/28/2022 5:15:00 AM 14.96 58.928 0 7.5 2.74 9.48
5/28/2022 5:30:00 AM 14.77 58.586 0 7.56 2.58 9.53
5/28/2022 5:45:00 AM 14.76 58.568 0 7.56 2.67 9.54
5/28/2022 6:00:00 AM 14.68 58.424 0 7.59 2.66 9.56
5/28/2022 6:15:00 AM 14.77 58.586 0 7.57 2.66 9.54
5/28/2022 6:30:00 AM 14.78 58.604 0 7.59 2.57 9.55
5/28/2022 6:45:00 AM 14.95 58.91 0 7.59 2.6 9.52
5/28/2022 7:00:00 AM 15.08 59.144 0 7.6 2.67 9.49
5/28/2022 7:15:00 AM 15.17 59.306 0 7.59 2.63 9.48
5/28/2022 7:30:00 AM 15.32 59.576 0 7.56 2.72 9.45
5/28/2022 7:45:00 AM 15.36 59.648 0 7.55 2.66 9.45
5/28/2022 8:00:00 AM 15.49 59.882 0 7.53 2.75 9.43
5/28/2022 8:15:00 AM 15.78 60.404 0 7.53 2.63 9.38
5/28/2022 8:30:00 AM 16.09 60.962 0 7.51 2.69 9.34
5/28/2022 8:45:00 AM 16.31 61.358 0 7.49 2.76 9.29
5/28/2022 9:00:00 AM 16.48 61.664 0 7.5 2.83 9.27
5/28/2022 9:15:00 AM 16.63 61.934 0 7.5 2.77 9.25
5/28/2022 9:30:00 AM 16.69 62.042 0 7.48 2.78 9.23
5/28/2022 9:45:00 AM 16.7 62.06 0 7.44 2.77 9.24
5/28/2022 10:00:00 AM 16.91 62.438 0 7.48 2.69 9.2
5/28/2022 10:15:00 AM 17.08 62.744 0 7.5 2.89 9.16
5/28/2022 10:30:00 AM 17.32 63.176 0 7.51 3.26 9.13
5/28/2022 10:45:00 AM 17.28 63.104 0 7.4 2.82 9.15
5/28/2022 11:00:00 AM 17.61 63.698 0 7.43 2.88 9.05
5/28/2022 11:15:00 AM 17.93 64.274 0 7.28 2.89 8.99
5/28/2022 11:30:00 AM 18.19 64.742 0 7.45 2.77 8.98
5/28/2022 11:45:00 AM 18.16 64.688 0 7.15 2.59 9
5/28/2022 12:00:00 PM 17.79 64.022 0 6.89 3.35 9.02
5/28/2022 12:15:00 PM 17.96 64.328 0 7.32 3.27 9.04
5/28/2022 12:30:00 PM 18.06 64.508 0 7.41 3.26 8.99
5/28/2022 12:45:00 PM 18.09 64.562 0 7.39 3.8 8.98
5/28/2022 1:00:00 PM 18.02 64.436 0 7.47 4.16 8.99
5/28/2022 1:15:00 PM 18.09 64.562 0 7.33 3.99 8.99
5/28/2022 1:30:00 PM 18.29 64.922 0 7.53 4.42 8.98
5/28/2022 1:45:00 PM 18.45 65.21 0 7.1 4.77 8.93
5/28/2022 2:00:00 PM 18.26 64.868 0 7.25 5.18 8.96
5/28/2022 2:15:00 PM 17.96 64.328 0 7.05 5.7 9.01
5/28/2022 2:30:00 PM 18.14 64.652 0 7.17 5.2 8.96
5/28/2022 2:45:00 PM 18.01 64.418 0 7.49 4.89 9
5/28/2022 3:00:00 PM 18.29 64.922 0 7.48 4.94 8.97
5/28/2022 3:15:00 PM 18.37 65.066 0 7.35 4.84 8.95
5/28/2022 3:30:00 PM 18.24 64.832 0 7.34 5.41 8.96
5/28/2022 3:45:00 PM 17.86 64.148 0 7.29 5.47 9.05
5/28/2022 4:00:00 PM 18 64.4 0 7.39 5.13 9.01
5/28/2022 4:15:00 PM 18 64.4 0 7.36 5.04 9.01
5/28/2022 4:30:00 PM 17.97 64.346 0 7.41 5.05 9.03
5/28/2022 4:45:00 PM 18.23 64.814 0 7.3 5.18 8.98
5/28/2022 5:00:00 PM 18.67 65.606 0 7.5 5.31 8.92
5/28/2022 5:15:00 PM 19.35 66.83 0 7.33 5.38 8.79
5/28/2022 5:30:00 PM 18.93 66.074 0 7.37 5.49 8.86
5/28/2022 5:45:00 PM 18.42 65.156 0 7.28 5.58 8.94
5/28/2022 6:00:00 PM 17.86 64.148 0 6.91 5.7 9.03
5/28/2022 6:15:00 PM 17.75 63.95 0 7.21 5.5 9.07
5/28/2022 6:30:00 PM 17.92 64.256 0 7.37 5.43 9.05
5/28/2022 6:45:00 PM 18.63 65.534 0 7.08 5.37 8.94
5/28/2022 7:00:00 PM 18.52 65.336 0 7.11 5.67 8.95
5/28/2022 7:15:00 PM 17.88 64.184 0 6.93 5.88 9.07
5/28/2022 7:30:00 PM 17.38 63.284 0 6.68 5.87 9.13
5/28/2022 7:45:00 PM 16.87 62.366 0 7.01 5.82 9.23
5/28/2022 8:00:00 PM 16.52 61.736 0 6.78 5.68 9.29
5/28/2022 8:15:00 PM 15.88 60.584 0 6.85 5.85 9.43
5/28/2022 8:30:00 PM 15.7 60.26 0 7.05 5.67 9.44
5/28/2022 8:45:00 PM 15.41 59.738 0 7.05 5.55 9.5
5/28/2022 9:00:00 PM 14.56 58.208 0 6.9 5.86 9.71
5/28/2022 9:15:00 PM 14.39 57.902 0 7.15 5.63 9.73
5/28/2022 9:30:00 PM 14.05 57.29 0 7.14 5.48 9.8
5/28/2022 9:45:00 PM 13.74 56.732 0 7.06 5.69 9.85
5/28/2022 10:00:00 PM 13.56 56.408 0 7.18 5.56 9.88
5/28/2022 10:15:00 PM 13.39 56.102 0 7.44 5.54 9.91
5/28/2022 10:30:00 PM 13.16 55.688 0 7.24 5.57 9.96
5/28/2022 10:45:00 PM 12.57 54.626 0 7.22 5.74 10.11
5/28/2022 11:00:00 PM 12.4 54.32 0 7.36 5.59 10.13
5/28/2022 11:15:00 PM 12.16 53.888 0 7.06 5.92 10.17
5/28/2022 11:30:00 PM 11.89 53.402 0 7.28 5.58 10.26
5/28/2022 11:45:00 PM 11.6 52.88 0 7.02 5.82 10.33
5/29/2022 12:00:00 AM 11.73 53.114 0 7.39 5.54 10.29
5/29/2022 12:15:00 AM 11.52 52.736 0 7.44 5.69 10.36
5/29/2022 12:30:00 AM 11.42 52.556 0 7.22 5.59 10.36
5/29/2022 12:45:00 AM 11.26 52.268 0 7.32 5.73 10.41
5/29/2022 1:00:00 AM 11.06 51.908 0 7.47 5.6 10.46
5/29/2022 1:15:00 AM 10.71 51.278 0 7.56 5.66 10.56
5/29/2022 1:30:00 AM 10.68 51.224 0 7.39 5.68 10.55
5/29/2022 1:45:00 AM 10.5 50.9 0 7.55 5.94 10.6
5/29/2022 2:00:00 AM 10.38 50.684 0 7.29 5.62 10.62
5/29/2022 2:15:00 AM 9.79 49.622 0 7.31 5.78 10.81
5/29/2022 2:30:00 AM 9.83 49.694 0 7.24 5.74 10.78
5/29/2022 2:45:00 AM 9.94 49.892 0 7.64 5.82 10.74
5/29/2022 3:00:00 AM 9.46 49.028 0 7.19 5.91 10.89
5/29/2022 3:15:00 AM 9.46 49.028 0 7.09 5.67 10.87
5/29/2022 3:30:00 AM 9.6 49.28 0 7.55 5.7 10.83
5/29/2022 3:45:00 AM 9.57 49.226 0 7.51 5.76 10.83
5/29/2022 4:00:00 AM 9.45 49.01 0 7.41 5.61 10.87
5/29/2022 4:15:00 AM 9.43 48.974 0 7.23 5.69 10.86
5/29/2022 4:30:00 AM 9.18 48.524 0 7.26 5.57 10.92
5/29/2022 4:45:00 AM 9.14 48.452 0 7.58 5.64 10.95
5/29/2022 5:00:00 AM 9.07 48.326 0 7.49 5.81 10.97
5/29/2022 5:15:00 AM 8.93 48.074 0 7.37 5.73 11.01
5/29/2022 5:30:00 AM 8.53 47.354 0 7.29 5.68 11.14
5/29/2022 5:45:00 AM 8.45 47.21 0 7.11 5.79 11.13
5/29/2022 6:00:00 AM 8.38 47.084 0 7.38 5.64 11.16
5/29/2022 6:15:00 AM 8.4 47.12 0 7.76 6.01 11.19
5/29/2022 6:30:00 AM 8.59 47.462 0 7.63 5.77 11.12
5/29/2022 6:45:00 AM 8.52 47.336 0 7.52 5.64 11.14
5/29/2022 7:00:00 AM 8.78 47.804 0 7.76 5.78 11.08
5/29/2022 7:15:00 AM 9.05 48.29 0 7.78 5.56 11
5/29/2022 7:30:00 AM 9.35 48.83 0 7.81 5.7 10.93
5/29/2022 7:45:00 AM 9.63 49.334 0 7.78 5.55 10.86
5/29/2022 8:00:00 AM 10.05 50.09 0 7.8 5.58 10.75
5/29/2022 8:15:00 AM 10.56 51.008 0 7.81 5.58 10.63
5/29/2022 8:30:00 AM 11.11 51.998 0 7.75 5.48 10.5
5/29/2022 8:45:00 AM 11.65 52.97 0 7.75 5.46 10.38
5/29/2022 9:00:00 AM 12.17 53.906 0 7.75 5.47 10.26
5/29/2022 9:15:00 AM 12.7 54.86 0 7.7 5.5 10.15
5/29/2022 9:30:00 AM 13.26 55.868 0 7.68 5.48 10.03
5/29/2022 9:45:00 AM 13.79 56.822 0 7.67 5.37 9.92
5/29/2022 10:00:00 AM 14.23 57.614 0 7.64 5.38 9.84
5/29/2022 10:15:00 AM 14.54 58.172 0 7.61 5.62 9.78
5/29/2022 10:30:00 AM 14.86 58.748 0 7.54 5.51 9.72
5/29/2022 10:45:00 AM 15.27 59.486 0 7.56 5.77 9.65
5/29/2022 11:00:00 AM 15.61 60.098 0 6.81 5.69 9.58
5/29/2022 11:15:00 AM 16.11 60.998 0 7.41 5.87 9.5
5/29/2022 11:30:00 AM 16.53 61.754 0 7.2 5.91 9.42
5/29/2022 11:45:00 AM 17.39 63.302 0 6.79 5.8 9.35
5/29/2022 12:00:00 PM 18.83 65.894 0 6.64 6.18 9.12
5/29/2022 12:15:00 PM 20.12 68.216 0 6.45 6.13 8.82
5/29/2022 12:30:00 PM 19.11 66.398 0 6.53 6.1 8.99
5/29/2022 12:45:00 PM 21.15 70.07 0 6.49 6.02 8.71
5/29/2022 1:00:00 PM 21.53 70.754 0 6.56 6.23 8.61
5/29/2022 1:15:00 PM 21.26 70.268 0 6.8 6.13 8.56
5/29/2022 1:30:00 PM 21.1 69.98 0 6.88 6.34 8.56
5/29/2022 1:45:00 PM 22.27 72.086 0 6.54 6.1 8.38
5/29/2022 2:00:00 PM 22.09 71.762 0 6.34 6.46 8.42
5/29/2022 2:15:00 PM 24.21 75.578 0 6.28 6.43 8.14
5/29/2022 2:30:00 PM 25.19 77.342 0 6.31 6.28 7.97
5/29/2022 2:45:00 PM 25.89 78.602 0 6.5 6.22 7.94
5/29/2022 3:00:00 PM 27.33 81.194 0 6.18 6.14 7.74
5/29/2022 3:15:00 PM 26.88 80.384 0 6.16 6.25 7.82
5/29/2022 3:30:00 PM 28.03 82.454 0 6.39 6.18 7.68
5/29/2022 3:45:00 PM 28.21 82.778 0 6.35 6.33 7.62
5/29/2022 4:00:00 PM 28.14 82.652 0 6.2 6.2 7.67
5/29/2022 4:15:00 PM 28.4 83.12 0 6.09 6.3 7.62
5/29/2022 4:30:00 PM 27.95 82.31 0 17.33 6.25 7.67
5/29/2022 4:45:00 PM 28.09 82.562 0 6.12 6.3 7.64
5/29/2022 5:00:00 PM 28.61 83.498 0 7.03 6.43 7.57
5/29/2022 5:15:00 PM 28.89 84.002 0 17.3 6.5 7.56
5/29/2022 5:30:00 PM 28.29 82.922 0 17.32 6.57 7.6
5/29/2022 5:45:00 PM 28.67 83.606 0 17.31 6.59 7.56
5/29/2022 6:00:00 PM 28.3 82.94 0 17.32 6.45 7.61
5/29/2022 6:15:00 PM 27.78 82.004 0 17.34 6.52 7.64
5/29/2022 6:30:00 PM 26.49 79.682 0 17.38 6.64 7.79
5/29/2022 6:45:00 PM 25.79 78.422 0 17.41 6.65 7.86
5/29/2022 7:00:00 PM 24.47 76.046 0 17.45 6.7 8.02
5/29/2022 7:15:00 PM 23.06 73.508 0 17.5 6.73 8.2
5/29/2022 7:30:00 PM 22.33 72.194 0 17.53 6.76 8.25
5/29/2022 7:45:00 PM 21.23 70.214 0 17.57 6.77 8.4
5/29/2022 8:00:00 PM 20.56 69.008 0 9.59 6.78 8.49
5/29/2022 8:15:00 PM 19.9 67.82 0 7.91 6.75 8.56
5/29/2022 8:30:00 PM 19.15 66.47 0 8.51 6.79 8.7
5/29/2022 8:45:00 PM 18.55 65.39 0 7.03 6.82 8.8
5/29/2022 9:00:00 PM 17.75 63.95 0 7.68 6.83 8.94
5/29/2022 9:15:00 PM 16.97 62.546 0 7.68 6.85 9.08
5/29/2022 9:30:00 PM 16.81 62.258 0 6.01 6.87 9.1
5/29/2022 9:45:00 PM 16.28 61.304 0 6.73 6.87 9.2
5/29/2022 10:00:00 PM 15.8 60.44 0 7.77 6.88 9.3
5/29/2022 10:15:00 PM 15.53 59.954 0 6.76 6.89 9.34
5/29/2022 10:30:00 PM 15.23 59.414 0 6.48 6.9 9.41
5/29/2022 10:45:00 PM 14.91 58.838 0 5.75 6.88 9.49
5/29/2022 11:00:00 PM 14.67 58.406 0 5.98 6.86 9.53
5/29/2022 11:15:00 PM 14.52 58.136 0 7.04 6.62 9.56
5/29/2022 11:30:00 PM 14.32 57.776 0 7.02 6.51 9.6
5/29/2022 11:45:00 PM 14.08 57.344 0 7.11 6.3 9.65
5/30/2022 12:00:00 AM 13.81 56.858 0 7.05 6.39 9.7
5/30/2022 12:15:00 AM 13.65 56.57 0 7.02 6.38 9.72
5/30/2022 12:30:00 AM 13.4 56.12 0 7.08 6.13 9.78
5/30/2022 12:45:00 AM 13.17 55.706 0 7.08 6.04 9.83
5/30/2022 1:00:00 AM 12.99 55.382 0 7.07 6.14 9.87
5/30/2022 1:15:00 AM 12.81 55.058 0 7.02 5.88 9.91
5/30/2022 1:30:00 AM 12.66 54.788 0 7.01 5.72 9.94
5/30/2022 1:45:00 AM 12.52 54.536 0 7.16 5.47 9.99
5/30/2022 2:00:00 AM 12.39 54.302 0 7.08 5.1 10
5/30/2022 2:15:00 AM 12.25 54.05 0 7.04 4.95 10.03
5/30/2022 2:30:00 AM 12.16 53.888 0 7.26 4.52 10.06
5/30/2022 2:45:00 AM 11.91 53.438 0 7.15 4.67 10.12
5/30/2022 3:00:00 AM 11.82 53.276 0 7.14 4.48 10.14
5/30/2022 3:15:00 AM 11.74 53.132 0 7.12 4.46 10.15
5/30/2022 3:30:00 AM 11.66 52.988 0 7.21 4.17 10.18
5/30/2022 3:45:00 AM 11.48 52.664 0 7.09 4.27 10.22
5/30/2022 4:00:00 AM 11.43 52.574 0 7.17 3.98 10.24
5/30/2022 4:15:00 AM 11.41 52.538 0 7.12 3.98 10.24
5/30/2022 4:30:00 AM 11.27 52.286 0 7.19 3.78 10.28
5/30/2022 4:45:00 AM 11.22 52.196 0 7.15 3.95 10.28
5/30/2022 5:00:00 AM 11.03 51.854 0 7.32 3.61 10.34
5/30/2022 5:15:00 AM 11 51.8 0 7.29 3.64 10.35
5/30/2022 5:30:00 AM 10.95 51.71 0 7.33 3.54 10.36
5/30/2022 5:45:00 AM 10.9 51.62 0 7.23 3.6 10.38
5/30/2022 6:00:00 AM 10.92 51.656 0 7.32 3.53 10.37
5/30/2022 6:15:00 AM 10.96 51.728 0 7.36 3.48 10.36
5/30/2022 6:30:00 AM 11.13 52.034 0 7.35 3.56 10.33
5/30/2022 6:45:00 AM 11.46 52.628 0 7.53 3.28 10.24
5/30/2022 7:00:00 AM 11.82 53.276 0 7.49 2.98 10.16
5/30/2022 7:15:00 AM 12.24 54.032 0 7.59 3.25 10.06
5/30/2022 7:30:00 AM 12.67 54.806 0 7.57 3.11 9.96
5/30/2022 7:45:00 AM 13.19 55.742 0 7.51 3.37 9.85
5/30/2022 8:00:00 AM 13.74 56.732 0 7.54 3.49 9.74
5/30/2022 8:15:00 AM 14.31 57.758 0 7.51 3.12 9.62
5/30/2022 8:30:00 AM 14.81 58.658 0 7.54 3.25 9.54
5/30/2022 8:45:00 AM 15.55 59.99 0 7.58 3.26 9.4
5/30/2022 9:00:00 AM 16.15 61.07 0 7.58 3.23 9.3
5/30/2022 9:15:00 AM 16.87 62.366 0 7.55 3.18 9.16
5/30/2022 9:30:00 AM 17.39 63.302 0 7.5 3.26 9.07
5/30/2022 9:45:00 AM 17.98 64.364 0 7.35 3.33 8.99
5/30/2022 10:00:00 AM 18.28 64.904 0 7.2 4.01 8.93
5/30/2022 10:15:00 AM 18.48 65.264 0 7.09 4.13 8.9
5/30/2022 10:30:00 AM 19.11 66.398 0 6.66 6.69 8.81
5/30/2022 10:45:00 AM 19.97 67.946 0 6.59 6.86 8.7
5/30/2022 11:00:00 AM 20.4 68.72 0 6.7 6.58 8.62
5/30/2022 11:15:00 AM 20.69 69.242 0 6.71 6.56 8.58
5/30/2022 11:30:00 AM 21.08 69.944 0 6.56 6.77 8.53
5/30/2022 11:45:00 AM 21.66 70.988 0 6.66 6.72 8.47
5/30/2022 12:00:00 PM 22.44 72.392 0 6.65 6.58 8.38
5/30/2022 12:15:00 PM 23.94 75.092 0 6.79 6.4 8.25
5/30/2022 12:30:00 PM 25.74 78.332 0 6.58 6.63 8.05
5/30/2022 12:45:00 PM 27.42 81.356 0 6.41 6.79 7.79
5/30/2022 1:00:00 PM 28.81 83.858 0 6.51 6.69 7.66
5/30/2022 1:15:00 PM 29.64 85.35201 0 6.64 7 7.56
5/30/2022 1:30:00 PM 30.83 87.494 0 7.07 7.07 7.4
5/30/2022 1:45:00 PM 31.47 88.646 0 11.13 6.97 7.32
5/30/2022 2:00:00 PM 32.08 89.744 0 17.19 6.99 7.24
5/30/2022 2:15:00 PM 33.23 91.814 0 15.44 6.91 7.11
5/30/2022 2:30:00 PM 34.34 93.812 0 17.12 6.93 6.89
5/30/2022 2:45:00 PM 34.15 93.47 0 14.38 6.92 6.89
5/30/2022 3:00:00 PM 34.24 93.632 0 6.02 6.99 6.93
5/30/2022 3:15:00 PM 34.91 94.838 0 14.33 6.99 6.85
5/30/2022 3:30:00 PM 34.56 94.208 0 15.54 7.02 6.81
5/30/2022 3:45:00 PM 35.04 95.07201 0 11.67 6.97 6.81
5/30/2022 4:00:00 PM 35.38 95.68401 0 6.16 6.98 6.76
5/30/2022 4:15:00 PM 35.7 96.26 0 7.88 7 6.73
5/30/2022 4:30:00 PM 35.01 95.018 0 3.67 7.04 6.79
5/30/2022 4:45:00 PM 34.65 94.37 0 6.66 7.09 6.78
5/30/2022 5:00:00 PM 35.05 95.09 0 6.23 7.14 6.73
5/30/2022 5:15:00 PM 35.02 95.036 0 5.15 7.11 6.71
5/30/2022 5:30:00 PM 34.8 94.64 0 1.56 7.08 6.71
5/30/2022 5:45:00 PM 34.55 94.18999 0 3.63 7.11 6.73
5/30/2022 6:00:00 PM 34.43 93.974 0 -0.82 7.19 6.74
5/30/2022 6:15:00 PM 33.89 93.002 0 -0.1 7.2 6.78
5/30/2022 6:30:00 PM 32.87 91.166 0 8.9 7.14 6.85
5/30/2022 6:45:00 PM 31.68 89.024 0 5.58 7.11 6.98
5/30/2022 7:00:00 PM 30.72 87.296 0 4.14 7.18 7.03
5/30/2022 7:15:00 PM 29.18 84.524 0 17.29 7.29 7.21
5/30/2022 7:30:00 PM 28.34 83.012 0 8.44 7.32 7.28
5/30/2022 7:45:00 PM 27.17 80.906 0 10.22 7.34 7.41
5/30/2022 8:00:00 PM 26.11 78.998 0 16.21 7.37 7.55
5/30/2022 8:15:00 PM 25.29 77.522 0 14.72 7.32 7.64
5/30/2022 8:30:00 PM 24.38 75.884 0 13.29 7.43 7.75
5/30/2022 8:45:00 PM 23.54 74.372 0 9.49 7.41 7.85
5/30/2022 9:00:00 PM 22.89 73.202 0 17.51 7.47 7.93
5/30/2022 9:15:00 PM 22.17 71.906 0 13.1 7.51 8.03
5/30/2022 9:30:00 PM 21.71 71.078 0 9.64 7.51 8.1
5/30/2022 9:45:00 PM 21.21 70.17799 0 4.2 7.51 8.17
5/30/2022 10:00:00 PM 20.53 68.954 0 4.87 7.49 8.27
5/30/2022 10:15:00 PM 20.33 68.594 0 6.35 7.41 8.29
5/30/2022 10:30:00 PM 19.94 67.892 0 6.23 7.41 8.36
5/30/2022 10:45:00 PM 19.69 67.442 0 6.08 7.41 8.4
5/30/2022 11:00:00 PM 19.67 67.406 0 6.59 7.39 8.39
5/30/2022 11:15:00 PM 19.27 66.686 0 7.6 7.42 8.46
5/30/2022 11:30:00 PM 18.96 66.128 0 6.81 7.4 8.52
5/30/2022 11:45:00 PM 18.7 65.66 0 6.8 7.39 8.56
5/31/2022 12:00:00 AM 18.56 65.408 0 6.89 7.12 8.58
5/31/2022 12:15:00 AM 18.36 65.048 0 6.92 6.98 8.62
5/31/2022 12:30:00 AM 18.18 64.724 0 6.91 7.03 8.65
5/31/2022 12:45:00 AM 18.19 64.742 0 6.91 6.84 8.64
5/31/2022 1:00:00 AM 18.07 64.526 0 6.9 6.72 8.67
5/31/2022 1:15:00 AM 17.8 64.04 0 6.91 6.65 8.72
5/31/2022 1:30:00 AM 17.54 63.572 0 6.94 6.38 8.77
5/31/2022 1:45:00 AM 17.47 63.446 0 7.03 6.1 8.78
5/31/2022 2:00:00 AM 17.44 63.392 0 6.99 6 8.78
5/31/2022 2:15:00 AM 17.12 62.816 0 7 6.04 8.85
5/31/2022 2:30:00 AM 17.11 62.798 0 6.96 6.08 8.85
5/31/2022 2:45:00 AM 17.05 62.69 0 7.03 5.8 8.86
5/31/2022 3:00:00 AM 16.76 62.168 0 6.95 6.11 8.92
5/31/2022 3:15:00 AM 16.49 61.682 0 6.96 5.95 8.98
5/31/2022 3:30:00 AM 16.42 61.556 0 7.05 5.65 9
5/31/2022 3:45:00 AM 16.36 61.448 0 7.06 5.58 9.01
5/31/2022 4:00:00 AM 16.25 61.25 0 6.97 5.51 9.03
5/31/2022 4:15:00 AM 16.13 61.034 0 7.01 5.43 9.05
5/31/2022 4:30:00 AM 16.02 60.836 0 7.05 5.27 9.08
5/31/2022 4:45:00 AM 15.89 60.602 0 7.02 5.32 9.1
5/31/2022 5:00:00 AM 15.69 60.242 0 6.97 5.36 9.14
5/31/2022 5:15:00 AM 15.58 60.044 0 7.08 5.36 9.17
5/31/2022 5:30:00 AM 15.59 60.062 0 7.11 5.16 9.17
5/31/2022 5:45:00 AM 15.32 59.576 0 7.08 5.29 9.24
5/31/2022 6:00:00 AM 15.32 59.576 0 7.08 5.17 9.23
5/31/2022 6:15:00 AM 15.31 59.558 0 7.11 4.96 9.25
5/31/2022 6:30:00 AM 15.5 59.9 0 7.18 4.74 9.2
5/31/2022 6:45:00 AM 15.75 60.35 0 7.21 4.64 9.15
5/31/2022 7:00:00 AM 16.02 60.836 0 7.25 4.68 9.1
5/31/2022 7:15:00 AM 16.37 61.466 0 7.22 4.92 9.03
5/31/2022 7:30:00 AM 16.9 62.42 0 7.31 4.54 8.96
5/31/2022 7:45:00 AM 17.43 63.374 0 7.25 4.92 8.84
5/31/2022 8:00:00 AM 17.82 64.076 0 7.27 5.09 8.78
5/31/2022 8:15:00 AM 18.51 65.318 0 7.3 4.99 8.67
5/31/2022 8:30:00 AM 18.77 65.786 0 7.23 4.35 8.63
5/31/2022 8:45:00 AM 19.29 66.722 0 7.21 4.08 8.54
5/31/2022 9:00:00 AM 19.78 67.604 0 7.02 5.46 8.49
5/31/2022 9:15:00 AM 20.61 69.098 0 6.92 6.35 8.38
5/31/2022 9:30:00 AM 21.2 70.16 0 6.85 6.8 8.3
5/31/2022 9:45:00 AM 21.75 71.15 0 6.78 7.66 8.21
5/31/2022 10:00:00 AM 22.06 71.708 0 6.81 7.07 8.18
5/31/2022 10:15:00 AM 22.41 72.338 0 6.83 7.25 8.14
5/31/2022 10:30:00 AM 23.05 73.49 0 6.62 7.96 8.03
5/31/2022 10:45:00 AM 23.54 74.372 0 6.8 7.91 7.98
5/31/2022 11:00:00 AM 23.96 75.128 0 6.75 7.85 7.92
5/31/2022 11:15:00 AM 24.39 75.902 0 6.68 7.72 7.87
5/31/2022 11:30:00 AM 24.54 76.172 0 6.6 7.7 7.85
5/31/2022 11:45:00 AM 25.19 77.342 0 6.62 7.67 7.76
5/31/2022 12:00:00 PM 25.72 78.296 0 6.63 7.62 7.7
5/31/2022 12:15:00 PM 26.47 79.646 0 6.2 7.59 7.6
5/31/2022 12:30:00 PM 27.3 81.14 0 17.36 7.53 7.51
5/31/2022 12:45:00 PM 28.59 83.462 0 17.31 7.5 7.38
5/31/2022 1:00:00 PM 28.86 83.948 0 3.97 7.47 7.34
5/31/2022 1:15:00 PM 30.15 86.27 0 12.67 7.41 7.25
5/31/2022 1:30:00 PM 30.8 87.43999 0 14.22 7.44 7.14
5/31/2022 1:45:00 PM 32.01 89.618 0 16.52 7.38 7.05
5/31/2022 2:00:00 PM 32.08 89.744 0 6.43 7.33 7
5/31/2022 2:15:00 PM 32.98 91.364 0 17.16 7.31 6.9
5/31/2022 2:30:00 PM 33.24 91.832 0 4.18 7.32 6.81
5/31/2022 2:45:00 PM 33.15 91.67 0 4.38 7.33 6.82
5/31/2022 3:00:00 PM 33.89 93.002 0 9.55 7.29 6.76
5/31/2022 3:15:00 PM 34.93 94.874 0 13.55 7.25 6.65
5/31/2022 3:30:00 PM 35.07 95.126 0 3.41 7.26 6.65
5/31/2022 3:45:00 PM 36.19 97.142 0 6.72 7.19 6.57
5/31/2022 4:00:00 PM 36.87 98.366 0 1.71 7.17 6.51
5/31/2022 4:15:00 PM 37.8 100.04 0 5.03 7.1 6.41
5/31/2022 4:30:00 PM 37.74 99.932 0 6.07 7.15 6.39
5/31/2022 4:45:00 PM 36.22 97.196 0 5.97 7.16 6.49
5/31/2022 5:00:00 PM 35.76 96.368 0 6.9 7.15 6.49
5/31/2022 5:15:00 PM 35.44 95.792 0 10.03 7.17 6.52
5/31/2022 5:30:00 PM 34.47 94.04601 0 -3.77 7.26 6.58
5/31/2022 5:45:00 PM 34.11 93.39799 0 2.41 7.22 6.65
5/31/2022 6:00:00 PM 32.73 90.914 0 12.78 7.28 6.76
5/31/2022 6:15:00 PM 32.51 90.518 0 4.41 7.25 6.79
5/31/2022 6:30:00 PM 32.7 90.86 0 10.36 7.28 6.76
5/31/2022 6:45:00 PM 31.67 89.006 0 8.22 7.3 6.87
5/31/2022 7:00:00 PM 30.71 87.278 0 14.55 7.33 6.94
5/31/2022 7:15:00 PM 30.01 86.018 0 1.62 7.34 6.97
5/31/2022 7:30:00 PM 28.84 83.912 0 12.92 7.37 7.13
5/31/2022 7:45:00 PM 27.77 81.986 0 13.64 7.37 7.24
5/31/2022 8:00:00 PM 26.98 80.564 0 16.65 7.44 7.33
5/31/2022 8:15:00 PM 26.27 79.286 0 15.01 7.42 7.41
5/31/2022 8:30:00 PM 25.27 77.486 0 17.39 7.45 7.54
5/31/2022 8:45:00 PM 24.45 76.01 0 17.45 7.46 7.63
5/31/2022 9:00:00 PM 23.7 74.66 0 7.72 7.46 7.73
5/31/2022 9:15:00 PM 23.21 73.778 0 7.47 7.48 7.8
5/31/2022 9:30:00 PM 22.59 72.662 0 4.9 7.51 7.9
5/31/2022 9:45:00 PM 22.24 72.032 0 8.68 7.53 7.94
5/31/2022 10:00:00 PM 22.02 71.636 0 14.36 7.66 7.96
5/31/2022 10:15:00 PM 21.83 71.294 0 11.12 7.59 7.98
5/31/2022 10:30:00 PM 21.56 70.808 0 8.31 7.48 8.03
5/31/2022 10:45:00 PM 21.39 70.502 0 5.76 7.33 8.05
5/31/2022 11:00:00 PM 21.2 70.16 0 6.9 7.29 8.07
5/31/2022 11:15:00 PM 20.89 69.602 0 6.93 7.27 8.13
5/31/2022 11:30:00 PM 20.83 69.494 0 6.96 7.14 8.14
5/31/2022 11:45:00 PM 20.8 69.44 0 6.96 6.95 8.14
6/1/2022 12:00:00 AM 20.75 69.35 0 6.93 6.87 8.14
6/1/2022 12:15:00 AM 20.69 69.242 0 6.95 6.76 8.15
6/1/2022 12:30:00 AM 20.55 68.99 0 6.95 6.71 8.18
6/1/2022 12:45:00 AM 20.33 68.594 0 6.94 6.71 8.21
6/1/2022 1:00:00 AM 20.01 68.018 0 6.94 6.71 8.27
6/1/2022 1:15:00 AM 19.67 67.406 0 6.95 6.72 8.34
6/1/2022 1:30:00 AM 19.44 66.992 0 6.94 6.74 8.37
6/1/2022 1:45:00 AM 19.11 66.398 0 6.95 7.07 8.43
6/1/2022 2:00:00 AM 18.84 65.912 0 7 6.36 8.48
6/1/2022 2:15:00 AM 18.7 65.66 0 7.02 6.26 8.5
6/1/2022 2:30:00 AM 18.46 65.228 0 7.03 6.03 8.54
6/1/2022 2:45:00 AM 18.35 65.03 0 7.04 5.92 8.55
6/1/2022 3:00:00 AM 18.18 64.724 0 7.02 5.92 8.59
6/1/2022 3:15:00 AM 17.97 64.346 0 7.05 5.7 8.62
6/1/2022 3:30:00 AM 17.82 64.076 0 7.04 5.64 8.66
6/1/2022 3:45:00 AM 17.72 63.896 0 7.04 5.52 8.67
6/1/2022 4:00:00 AM 17.61 63.698 0 7.03 5.45 8.69
6/1/2022 4:15:00 AM 17.48 63.464 0 7.03 5.5 8.72
6/1/2022 4:30:00 AM 17.39 63.302 0 7.05 5.33 8.74
6/1/2022 4:45:00 AM 17.35 63.23 0 7.04 5.31 8.75
6/1/2022 5:00:00 AM 17.21 62.978 0 7.01 5.12 8.77
6/1/2022 5:15:00 AM 17.01 62.618 0 7.03 5.21 8.82
6/1/2022 5:30:00 AM 16.97 62.546 0 7.03 5.16 8.81
6/1/2022 5:45:00 AM 16.82 62.276 0 7.05 5.12 8.85
6/1/2022 6:00:00 AM 16.7 62.06 0 7.07 5.07 8.88
6/1/2022 6:15:00 AM 16.68 62.024 0 7.07 4.95 8.87
6/1/2022 6:30:00 AM 16.86 62.348 0 7.09 4.67 8.84
6/1/2022 6:45:00 AM 17.04 62.672 0 7.11 4.53 8.81
6/1/2022 7:00:00 AM 17.08 62.744 0 7.09 4.8 8.8
6/1/2022 7:15:00 AM 17.28 63.104 0 7.13 4.58 8.77
6/1/2022 7:30:00 AM 17.83 64.094 0 7.21 5.13 8.67
6/1/2022 7:45:00 AM 18.26 64.868 0 7.15 4.84 8.59
6/1/2022 8:00:00 AM 18.77 65.786 0 7.21 5.47 8.51
6/1/2022 8:15:00 AM 19.17 66.506 0 7.18 5.36 8.45
6/1/2022 8:30:00 AM 19.73 67.514 0 7.19 5 8.37
6/1/2022 8:45:00 AM 20.25 68.45 0 7.02 4.34 8.28
6/1/2022 9:00:00 AM 20.67 69.206 0 6.92 4.34 8.22
6/1/2022 9:15:00 AM 21.08 69.944 0 6.91 4.4 8.18
6/1/2022 9:30:00 AM 21.38 70.484 0 6.8 5.38 8.14
6/1/2022 9:45:00 AM 21.74 71.132 0 6.88 5.15 8.1
6/1/2022 10:00:00 AM 22.09 71.762 0 6.84 5.48 8.06
6/1/2022 10:15:00 AM 22.3 72.14 0 6.82 5.79 8.04
6/1/2022 10:30:00 AM 22.55 72.59 0 6.84 6.29 8
6/1/2022 10:45:00 AM 22.93 73.274 0 6.83 6.02 7.94
6/1/2022 11:00:00 AM 23.43 74.174 0 6.81 7.8 7.88
6/1/2022 11:15:00 AM 23.97 75.146 0 6.76 8.03 7.81
6/1/2022 11:30:00 AM 24.49 76.082 0 6.76 8.06 7.75
6/1/2022 11:45:00 AM 25.48 77.864 0 6.65 8.06 7.64
6/1/2022 12:00:00 PM 26.37 79.466 0 6.66 8 7.53
6/1/2022 12:15:00 PM 26.99 80.582 0 9.82 7.87 7.44
6/1/2022 12:30:00 PM 27.37 81.266 0 12.41 7.78 7.37
6/1/2022 12:45:00 PM 27.75 81.95 0 15.74 7.79 7.33
6/1/2022 1:00:00 PM 27.47 81.446 0 16.13 7.74 7.34
6/1/2022 1:15:00 PM 26.65 79.97 0 14.63 7.78 7.43
6/1/2022 1:30:00 PM 26.48 79.664 0 14.51 7.81 7.47
6/1/2022 1:45:00 PM 27.98 82.364 0 12.81 7.69 7.32
6/1/2022 2:00:00 PM 29.09 84.362 0 13.86 7.7 7.19
6/1/2022 2:15:00 PM 29.35 84.83 0 14.5 7.62 7.12
6/1/2022 2:30:00 PM 29.42 84.956 0 13.07 7.62 7.12
6/1/2022 2:45:00 PM 29.22 84.59599 0 15.96 7.61 7.11
6/1/2022 3:00:00 PM 28.99 84.182 0 15.86 7.65 7.14
6/1/2022 3:15:00 PM 28.14 82.652 0 14.77 7.68 7.21
6/1/2022 3:30:00 PM 27.03 80.654 0 6.5 7.68 7.33
6/1/2022 3:45:00 PM 26.6 79.88 0 4.9 7.78 7.39
6/1/2022 4:00:00 PM 25.44 77.792 0 4.39 7.88 7.53
6/1/2022 4:15:00 PM 24.71 76.478 0 2.34 7.95 7.6
6/1/2022 4:30:00 PM 21.58 70.844 0 7.35 2.59 8.01
6/1/2022 4:45:00 PM 22.1 71.78 0 7.6 2.43 7.93
6/1/2022 5:00:00 PM 22.22 71.996 0.001 7.49 2.46 7.92
6/1/2022 5:15:00 PM 22.62 72.716 0.001 7.55 2.56 7.87
6/1/2022 5:30:00 PM 22.82 73.076 0.001 7.5 2.39 7.83
6/1/2022 5:45:00 PM 22.76 72.968 0.001 7.5 2.62 7.83
6/1/2022 6:00:00 PM 22.29 72.122 0.001 7.42 2.55 7.92
6/1/2022 6:15:00 PM 21.7 71.06 0.001 7.5 2.53 8.01
6/1/2022 6:30:00 PM 21.2 70.16 0.001 7.48 2.52 8.08
6/1/2022 6:45:00 PM 20.87 69.566 0.001 7.34 2.58 8.14
6/1/2022 7:00:00 PM 20.86 69.548 0.001 7.5 2.51 8.14
6/1/2022 7:15:00 PM 20.75 69.35 0.001 7.77 2.62 8.16
6/1/2022 7:30:00 PM 20.51 68.918 0 7.82 2.65 8.19
6/1/2022 7:45:00 PM 20.86 69.548 0.117 7.2 7.59 7.05
6/1/2022 8:00:00 PM 20.67 69.206 0.116 7.2 8.78 7.04
6/1/2022 8:15:00 PM 20.56 69.008 0.113 7.23 10.34 7.17
6/1/2022 8:30:00 PM 20.5 68.9 0.112 7.23 12.09 7.23
6/1/2022 8:45:00 PM 20.42 68.756 0.111 7.22 12.44 7.26
6/1/2022 9:00:00 PM 20.37 68.666 0.11 7.21 12.63 7.27
6/1/2022 9:15:00 PM 20.32 68.576 0.108 7.19 14.88 7.25
6/1/2022 9:30:00 PM 20.23 68.414 0.106 7.16 18.12 7.22
6/1/2022 9:45:00 PM 20.08 68.144 0.104 7.14 20.1 7.24
6/1/2022 10:00:00 PM 19.89 67.802 0.103 7.13 24.83 7.34
6/1/2022 10:15:00 PM 19.67 67.406 0.1 7.14 29.8 7.5
6/1/2022 10:30:00 PM 19.46 67.028 0.098 7.15 46.77 7.63
6/1/2022 10:45:00 PM 19.27 66.686 0.098 7.16 52.09 7.72
6/1/2022 11:00:00 PM 19.13 66.434 0.095 7.15 53.66 7.77
6/1/2022 11:15:00 PM 19.02 66.236 0.093 7.15 50.05 7.8
6/1/2022 11:30:00 PM 18.9 66.02 0.091 7.15 48.51 7.8
6/1/2022 11:45:00 PM 18.79 65.82201 0.089 7.15 44.19 7.82
6/2/2022 12:00:00 AM 18.69 65.642 0.089 7.16 40.23 7.81
6/2/2022 12:15:00 AM 18.61 65.498 0.088 7.15 32.86 7.85
6/2/2022 12:30:00 AM 18.54 65.372 0.088 7.15 35.94 7.86
6/2/2022 12:45:00 AM 18.48 65.264 0.088 7.15 33.82 7.86
6/2/2022 1:00:00 AM 18.42 65.156 0.088 7.16 36.41 7.85
6/2/2022 1:15:00 AM 18.38 65.084 0.089 7.16 30.39 7.84
6/2/2022 1:30:00 AM 18.32 64.976 0.089 7.15 29.18 7.84
6/2/2022 1:45:00 AM 18.28 64.904 0.089 7.16 25.89 7.84
6/2/2022 2:00:00 AM 18.24 64.832 0.09 7.16 23.5 7.83
6/2/2022 2:15:00 AM 18.21 64.778 0.09 7.16 21.38 7.81
6/2/2022 2:30:00 AM 18.18 64.724 0.09 7.16 19.11 7.82
6/2/2022 2:45:00 AM 18.16 64.688 0.091 7.16 17 7.8
6/2/2022 3:00:00 AM 18.15 64.67 0.092 7.17 18.48 7.83
6/2/2022 3:15:00 AM 18.14 64.652 0.093 7.17 16.17 7.83
6/2/2022 3:30:00 AM 18.12 64.616 0.094 7.17 14.18 7.81
6/2/2022 3:45:00 AM 18.12 64.616 0.095 7.18 13.6 7.81
6/2/2022 4:00:00 AM 18.11 64.598 0.096 7.18 12.13 7.81
6/2/2022 4:15:00 AM 18.11 64.598 0.097 7.18 11.5 7.8
6/2/2022 4:30:00 AM 18.12 64.616 0.098 7.18 10.94 7.78
6/2/2022 4:45:00 AM 18.12 64.616 0.099 7.19 10.66 7.81
6/2/2022 5:00:00 AM 18.13 64.634 0.1 7.19 9.78 7.76
6/2/2022 5:15:00 AM 18.14 64.652 0.1 7.19 9.81 7.78
6/2/2022 5:30:00 AM 18.16 64.688 0.101 7.18 9.21 7.8
6/2/2022 5:45:00 AM 18.17 64.706 0.102 7.19 9.1 7.73
6/2/2022 6:00:00 AM 18.18 64.724 0.103 7.19 8.72 7.74
6/2/2022 6:15:00 AM 18.2 64.76 0.104 7.19 8.11 7.7
6/2/2022 6:30:00 AM 18.21 64.778 0.104 7.19 7.88 7.71
6/2/2022 6:45:00 AM 18.22 64.796 0.105 7.19 7.15 7.74
6/2/2022 7:00:00 AM 18.24 64.832 0.106 7.19 6.97 7.74
6/2/2022 7:15:00 AM 18.24 64.832 0.106 7.2 6.47 7.76
6/2/2022 7:30:00 AM 18.25 64.85 0.107 7.21 6.47 7.77
6/2/2022 7:45:00 AM 18.25 64.85 0.108 7.22 6.11 7.78
6/2/2022 8:00:00 AM 18.25 64.85 0.108 7.22 5.85 7.78
6/2/2022 8:15:00 AM 18.24 64.832 0.109 7.23 5.65 7.83
6/2/2022 8:30:00 AM 18.24 64.832 0.109 7.24 5.57 7.85
6/2/2022 8:45:00 AM 18.25 64.85 0.11 7.25 5.55 7.9
6/2/2022 9:00:00 AM 18.28 64.904 0.11 7.27 5.54 7.95
6/2/2022 9:15:00 AM 18.31 64.958 0.111 7.29 5.28 8.03
6/2/2022 9:30:00 AM 18.36 65.048 0.111 7.32 5.35 8.12
6/2/2022 9:45:00 AM 18.43 65.174 0.112 7.34 5.12 8.25
6/2/2022 10:00:00 AM 18.53 65.354 0.112 7.37 5.03 8.35
6/2/2022 10:15:00 AM 18.66 65.588 0.112 7.4 4.86 8.45
6/2/2022 10:30:00 AM 18.74 65.732 0.112 7.42 4.9 8.51
6/2/2022 10:45:00 AM 18.84 65.912 0.113 7.45 4.89 8.55
6/2/2022 11:00:00 AM 18.95 66.11 0.113 7.47 4.7 8.59
6/2/2022 11:15:00 AM 19.06 66.308 0.113 7.48 5.75 8.61
6/2/2022 11:30:00 AM 19.23 66.614 0.112 7.55 4.6 8.91
6/2/2022 11:45:00 AM 19.3 66.74 0.112 7.55 4.57 8.9
6/2/2022 12:00:00 PM 19.39 66.902 0.112 7.54 4.38 8.91
6/2/2022 12:15:00 PM 19.49 67.082 0.112 7.53 4.56 8.93
6/2/2022 12:30:00 PM 19.56 67.208 0.112 7.55 4.62 8.95
6/2/2022 12:45:00 PM 19.64 67.352 0.113 7.58 4.81 8.95
6/2/2022 1:00:00 PM 19.7 67.46 0.113 7.56 4.82 8.91
6/2/2022 1:15:00 PM 19.76 67.568 0.114 7.58 5.12 8.89
6/2/2022 1:30:00 PM 19.8 67.64 0.114 7.58 5.1 8.88
6/2/2022 1:45:00 PM 19.83 67.694 0.114 7.57 4.98 8.86
6/2/2022 2:00:00 PM 19.87 67.766 0.114 7.57 5.15 8.85
6/2/2022 2:15:00 PM 19.91 67.838 0.115 7.57 5.04 8.85
6/2/2022 2:30:00 PM 19.94 67.892 0.116 7.57 4.97 8.87
6/2/2022 2:45:00 PM 19.98 67.964 0.118 7.59 4.98 8.87
6/2/2022 3:00:00 PM 20.04 68.07201 0.12 7.59 5.06 8.88
6/2/2022 3:15:00 PM 20.08 68.144 0.12 7.59 4.99 8.88
6/2/2022 3:30:00 PM 20.14 68.252 0.119 7.6 5.04 8.87
6/2/2022 3:45:00 PM 20.23 68.414 0.117 7.59 5.2 8.86
6/2/2022 4:00:00 PM 20.31 68.558 0.114 7.59 5.19 8.84
6/2/2022 4:15:00 PM 20.31 68.558 0.111 7.57 5.12 8.79
6/2/2022 4:30:00 PM 20.33 68.594 0.11 7.55 5.3 8.73
6/2/2022 4:45:00 PM 20.36 68.648 0.108 7.55 4.92 8.71
6/2/2022 5:00:00 PM 20.38 68.684 0.107 7.53 4.85 8.68
6/2/2022 5:15:00 PM 20.4 68.72 0.107 7.52 4.68 8.65
6/2/2022 5:30:00 PM 20.41 68.738 0.106 7.5 4.73 8.58
6/2/2022 5:45:00 PM 20.4 68.72 0.106 7.48 4.65 8.54
6/2/2022 6:00:00 PM 20.41 68.738 0.106 7.46 4.71 8.5
6/2/2022 6:15:00 PM 20.42 68.756 0.106 7.46 4.73 8.49
6/2/2022 6:30:00 PM 20.39 68.702 0.106 7.44 4.51 8.47
6/2/2022 6:45:00 PM 20.36 68.648 0.106 7.43 4.55 8.43
6/2/2022 7:00:00 PM 20.31 68.558 0.106 7.41 4.31 8.4
6/2/2022 7:15:00 PM 20.24 68.432 0.106 7.39 4.5 8.33
6/2/2022 7:30:00 PM 20.16 68.288 0.106 7.36 4.45 8.24
6/2/2022 7:45:00 PM 20.06 68.108 0.106 7.33 4.37 8.15
6/2/2022 8:00:00 PM 19.97 67.946 0.106 7.3 4.49 8.08
6/2/2022 8:15:00 PM 19.87 67.766 0.107 7.29 4.47 8.02
6/2/2022 8:30:00 PM 19.77 67.586 0.107 7.24 4.43 7.95
6/2/2022 8:45:00 PM 19.66 67.388 0.107 7.23 4.39 7.9
6/2/2022 9:00:00 PM 19.56 67.208 0.107 7.21 4.32 7.86
6/2/2022 9:15:00 PM 19.45 67.01 0.107 7.19 4.37 7.82
6/2/2022 9:30:00 PM 19.35 66.83 0.107 7.18 4.51 7.81
6/2/2022 9:45:00 PM 19.26 66.668 0.107 7.17 4.42 7.8
6/2/2022 10:00:00 PM 19.16 66.488 0.108 7.16 4.59 7.79
6/2/2022 10:15:00 PM 19.06 66.308 0.108 7.15 4.56 7.8
6/2/2022 10:30:00 PM 18.97 66.146 0.108 7.16 4.57 7.82
6/2/2022 10:45:00 PM 18.9 66.02 0.108 7.15 4.39 7.81
6/2/2022 11:00:00 PM 18.8 65.84 0.108 7.15 4.46 7.84
6/2/2022 11:15:00 PM 18.73 65.714 0.108 7.14 4.48 7.85
6/2/2022 11:30:00 PM 18.64 65.552 0.108 7.14 4.67 7.87
6/2/2022 11:45:00 PM 18.57 65.426 0.108 7.14 4.49 7.88
6/3/2022 12:00:00 AM 18.49 65.282 0.108 7.14 4.3 7.89
6/3/2022 12:15:00 AM 18.41 65.138 0.109 7.15 4.54 7.9
6/3/2022 12:30:00 AM 18.34 65.012 0.109 7.15 4.4 7.92
6/3/2022 12:45:00 AM 18.26 64.868 0.109 7.14 4.48 7.94
6/3/2022 1:00:00 AM 18.2 64.76 0.109 7.15 4.34 7.95
6/3/2022 1:15:00 AM 18.15 64.67 0.109 7.14 4.44 7.95
6/3/2022 1:30:00 AM 18.09 64.562 0.109 7.14 4.32 7.96
6/3/2022 1:45:00 AM 18.04 64.472 0.109 7.15 4.3 7.98
6/3/2022 2:00:00 AM 17.99 64.382 0.109 7.14 4.23 7.98
6/3/2022 2:15:00 AM 17.93 64.274 0.109 7.14 4.45 7.99
6/3/2022 2:30:00 AM 17.89 64.202 0.109 7.14 4.35 8
6/3/2022 2:45:00 AM 17.83 64.094 0.11 7.14 4.22 8.02
6/3/2022 3:00:00 AM 17.79 64.022 0.11 7.13 4.28 8.01
6/3/2022 3:15:00 AM 17.74 63.932 0.11 7.14 4.12 8.03
6/3/2022 3:30:00 AM 17.69 63.842 0.11 7.13 4.39 8.04
6/3/2022 3:45:00 AM 17.65 63.77 0.11 7.14 4.12 8.05
6/3/2022 4:00:00 AM 17.6 63.68 0.11 7.13 3.96 8.06
6/3/2022 4:15:00 AM 17.54 63.572 0.11 7.14 4.24 8.08
6/3/2022 4:30:00 AM 17.49 63.482 0.111 7.15 4.39 8.09
6/3/2022 4:45:00 AM 17.44 63.392 0.111 7.14 4.2 8.09
6/3/2022 5:00:00 AM 17.39 63.302 0.111 7.14 4.23 8.11
6/3/2022 5:15:00 AM 17.35 63.23 0.111 7.15 4.22 8.12
6/3/2022 5:30:00 AM 17.3 63.14 0.111 7.15 4.28 8.13
6/3/2022 5:45:00 AM 17.26 63.068 0.111 7.14 4.14 8.14
6/3/2022 6:00:00 AM 17.21 62.978 0.111 7.15 3.99 8.15
6/3/2022 6:15:00 AM 17.17 62.906 0.111 7.15 3.91 8.19
6/3/2022 6:30:00 AM 17.11 62.798 0.112 7.16 3.79 8.24
6/3/2022 6:45:00 AM 17.07 62.726 0.112 7.17 3.63 8.29
6/3/2022 7:00:00 AM 17.04 62.672 0.112 7.17 3.47 8.35
6/3/2022 7:15:00 AM 17.02 62.636 0.112 7.19 3.62 8.43
6/3/2022 7:30:00 AM 17.01 62.618 0.112 7.2 3.38 8.5
6/3/2022 7:45:00 AM 16.99 62.582 0.112 7.22 3.34 8.55
6/3/2022 8:00:00 AM 16.97 62.546 0.112 7.22 3.13 8.58
6/3/2022 8:15:00 AM 16.95 62.51 0.112 7.24 3.22 8.63
6/3/2022 8:30:00 AM 16.92 62.456 0.112 7.23 3.11 8.66
6/3/2022 8:45:00 AM 16.9 62.42 0.112 7.25 3.07 8.68
6/3/2022 9:00:00 AM 16.91 62.438 0.112 7.26 3.15 8.73
6/3/2022 9:15:00 AM 16.95 62.51 0.112 7.25 3.15 8.75
6/3/2022 9:30:00 AM 17.02 62.636 0.112 7.28 2.92 8.82
6/3/2022 9:45:00 AM 17.11 62.798 0.112 7.29 2.88 8.85
6/3/2022 10:00:00 AM 17.24 63.032 0.112 7.3 2.95 8.89
6/3/2022 10:15:00 AM 17.36 63.248 0.112 7.31 2.85 8.93
6/3/2022 10:30:00 AM 17.55 63.59 0.112 7.33 2.88 8.98
6/3/2022 10:45:00 AM 17.72 63.896 0.112 7.34 2.89 9
6/3/2022 11:00:00 AM 17.95 64.31 0.112 7.37 2.82 9.04
6/3/2022 11:15:00 AM 18.18 64.724 0.112 7.38 2.84 9.06
6/3/2022 11:30:00 AM 18.37 65.066 0.112 7.39 2.78 9.07
6/3/2022 11:45:00 AM 18.69 65.642 0.112 7.42 2.74 9.09
6/3/2022 12:00:00 PM 18.96 66.128 0.112 7.42 2.96 9.1
6/3/2022 12:15:00 PM 19.24 66.632 0.112 7.45 2.8 9.09
6/3/2022 12:30:00 PM 19.62 67.316 0.112 7.47 2.79 9.1
6/3/2022 12:45:00 PM 19.93 67.874 0.112 7.48 2.7 9.08
6/3/2022 1:00:00 PM 20.3 68.54 0.112 7.5 2.73 9.07
6/3/2022 1:15:00 PM 20.61 69.098 0.113 7.51 2.7 9.05
6/3/2022 1:30:00 PM 20.94 69.692 0.113 7.53 2.8 9.02
6/3/2022 1:45:00 PM 21.25 70.25 0.113 7.55 2.76 8.99
6/3/2022 2:00:00 PM 21.5 70.7 0.113 7.55 2.67 8.95
6/3/2022 2:15:00 PM 21.87 71.366 0.113 7.57 2.8 8.91
6/3/2022 2:30:00 PM 22.12 71.816 0.113 7.57 2.7 8.87
6/3/2022 2:45:00 PM 22.34 72.212 0.113 7.58 2.75 8.83
6/3/2022 3:00:00 PM 22.51 72.518 0.113 7.57 2.72 8.79
6/3/2022 3:15:00 PM 22.64 72.752 0.113 7.58 2.73 8.75
6/3/2022 3:30:00 PM 22.73 72.914 0.113 7.56 2.75 8.69
6/3/2022 3:45:00 PM 22.75 72.95 0.113 7.55 2.73 8.62
6/3/2022 4:00:00 PM 22.76 72.968 0.113 7.52 2.79 8.52
6/3/2022 4:15:00 PM 22.73 72.914 0.114 7.5 2.72 8.45
6/3/2022 4:30:00 PM 22.77 72.986 0.114 7.48 2.92 8.41
6/3/2022 4:45:00 PM 22.69 72.842 0.114 7.47 2.7 8.4
6/3/2022 5:00:00 PM 22.68 72.824 0.114 7.47 2.86 8.36
6/3/2022 5:15:00 PM 22.61 72.698 0.114 7.46 2.75 8.35
6/3/2022 5:30:00 PM 22.54 72.57201 0.114 7.45 2.71 8.31
6/3/2022 5:45:00 PM 22.35 72.23 0.114 7.45 2.74 8.29
6/3/2022 6:00:00 PM 22.18 71.924 0.114 7.43 2.67 8.26
6/3/2022 6:15:00 PM 21.98 71.564 0.115 7.4 2.77 8.2
6/3/2022 6:30:00 PM 21.72 71.096 0.115 7.38 2.8 8.16
6/3/2022 6:45:00 PM 21.46 70.628 0.115 7.36 2.99 8.09
6/3/2022 7:00:00 PM 21.23 70.214 0.115 7.33 2.79 8.01
6/3/2022 7:15:00 PM 21.01 69.818 0.116 7.3 2.95 7.92
6/3/2022 7:30:00 PM 20.73 69.314 0.116 7.28 2.79 7.87
6/3/2022 7:45:00 PM 20.57 69.026 0.116 7.25 2.86 7.81
6/3/2022 8:00:00 PM 20.35 68.63 0.116 7.22 2.86 7.77
6/3/2022 8:15:00 PM 20.14 68.252 0.117 7.22 2.92 7.71
6/3/2022 8:30:00 PM 20 68 0.117 7.18 2.75 7.64
6/3/2022 8:45:00 PM 19.74 67.532 0.117 7.18 2.75 7.63
6/3/2022 9:00:00 PM 19.56 67.208 0.117 7.15 2.79 7.59
6/3/2022 9:15:00 PM 19.4 66.92 0.117 7.14 2.9 7.56
6/3/2022 9:30:00 PM 19.23 66.614 0.118 7.13 2.93 7.53
6/3/2022 9:45:00 PM 19.05 66.29 0.118 7.12 2.9 7.54
6/3/2022 10:00:00 PM 18.91 66.038 0.118 7.1 2.86 7.56
6/3/2022 10:15:00 PM 18.74 65.732 0.118 7.11 2.91 7.57
6/3/2022 10:30:00 PM 18.6 65.48 0.118 7.1 2.89 7.59
6/3/2022 10:45:00 PM 18.5 65.3 0.118 7.09 3.09 7.56
6/3/2022 11:00:00 PM 18.33 64.994 0.118 7.1 3.03 7.63
6/3/2022 11:15:00 PM 18.19 64.742 0.118 7.1 2.9 7.64
6/3/2022 11:30:00 PM 18.07 64.526 0.118 7.08 2.89 7.66
6/3/2022 11:45:00 PM 17.93 64.274 0.119 7.09 2.81 7.7
6/4/2022 12:00:00 AM 17.81 64.058 0.119 7.08 3.07 7.68
6/4/2022 12:15:00 AM 17.67 63.806 0.119 7.08 3.03 7.73
6/4/2022 12:30:00 AM 17.56 63.608 0.119 7.08 3.1 7.74
6/4/2022 12:45:00 AM 17.4 63.32 0.119 7.08 2.92 7.79
6/4/2022 1:00:00 AM 17.27 63.086 0.119 7.08 2.8 7.83
6/4/2022 1:15:00 AM 17.15 62.87 0.119 7.08 2.88 7.85
6/4/2022 1:30:00 AM 17.03 62.654 0.119 7.08 2.85 7.88
6/4/2022 1:45:00 AM 16.93 62.474 0.119 7.08 2.85 7.89
6/4/2022 2:00:00 AM 16.8 62.24 0.12 7.08 2.9 7.93
6/4/2022 2:15:00 AM 16.69 62.042 0.12 7.07 2.95 7.91
6/4/2022 2:30:00 AM 16.55 61.79 0.12 7.08 3.13 7.99
6/4/2022 2:45:00 AM 16.44 61.592 0.12 7.07 2.92 7.99
6/4/2022 3:00:00 AM 16.33 61.394 0.12 7.08 2.9 8.02
6/4/2022 3:15:00 AM 16.24 61.232 0.12 7.07 2.94 8.03
6/4/2022 3:30:00 AM 16.11 60.998 0.12 7.08 2.81 8.07
6/4/2022 3:45:00 AM 16 60.8 0.12 7.08 2.81 8.1
6/4/2022 4:00:00 AM 15.91 60.638 0.12 7.07 2.9 8.09
6/4/2022 4:15:00 AM 15.81 60.458 0.12 7.06 2.91 8.11
6/4/2022 4:30:00 AM 15.71 60.278 0.12 7.07 2.9 8.13
6/4/2022 4:45:00 AM 15.61 60.098 0.12 7.07 2.77 8.17
6/4/2022 5:00:00 AM 15.51 59.918 0.12 7.07 2.87 8.2
6/4/2022 5:15:00 AM 15.42 59.756 0.12 7.07 2.78 8.2
6/4/2022 5:30:00 AM 15.33 59.594 0.12 7.06 2.76 8.22
6/4/2022 5:45:00 AM 15.25 59.45 0.12 7.07 2.64 8.25
6/4/2022 6:00:00 AM 15.15 59.27 0.12 7.07 2.61 8.28
6/4/2022 6:15:00 AM 15.08 59.144 0.12 7.07 2.51 8.32
6/4/2022 6:30:00 AM 14.99 58.982 0.12 7.08 2.51 8.39
6/4/2022 6:45:00 AM 14.94 58.892 0.12 7.08 2.42 8.43
6/4/2022 7:00:00 AM 14.87 58.766 0.12 7.1 2.49 8.54
6/4/2022 7:15:00 AM 14.83 58.694 0.12 7.11 2.37 8.62
6/4/2022 7:30:00 AM 14.79 58.622 0.12 7.11 2.37 8.68
6/4/2022 7:45:00 AM 14.78 58.604 0.12 7.13 2.35 8.73
6/4/2022 8:00:00 AM 14.79 58.622 0.12 7.14 2.39 8.81
6/4/2022 8:15:00 AM 14.8 58.64 0.12 7.14 2.25 8.88
6/4/2022 8:30:00 AM 14.83 58.694 0.12 7.16 2.29 8.94
6/4/2022 8:45:00 AM 14.86 58.748 0.12 7.17 2.29 9
6/4/2022 9:00:00 AM 14.91 58.838 0.12 7.18 2.28 9.05
6/4/2022 9:15:00 AM 14.98 58.964 0.12 7.19 2.32 9.09
6/4/2022 9:30:00 AM 15.07 59.126 0.12 7.2 2.33 9.15
6/4/2022 9:45:00 AM 15.21 59.378 0.12 7.22 2.21 9.19
6/4/2022 10:00:00 AM 15.35 59.63 0.12 7.23 2.56 9.23
6/4/2022 10:15:00 AM 15.56 60.008 0.119 7.24 2.23 9.28
6/4/2022 10:30:00 AM 15.79 60.422 0.119 7.25 2.23 9.3
6/4/2022 10:45:00 AM 16.07 60.926 0.119 7.28 2.21 9.34
6/4/2022 11:00:00 AM 16.37 61.466 0.119 7.29 2.15 9.36
6/4/2022 11:15:00 AM 16.63 61.934 0.119 7.3 2.18 9.37
6/4/2022 11:30:00 AM 16.92 62.456 0.119 7.32 2.17 9.38
6/4/2022 11:45:00 AM 17.25 63.05 0.119 7.34 2.24 9.4
6/4/2022 12:00:00 PM 17.56 63.608 0.119 7.35 2.13 9.4
6/4/2022 12:15:00 PM 17.91 64.238 0.118 7.36 2.21 9.39
6/4/2022 12:30:00 PM 18.31 64.958 0.118 7.38 2.16 9.39
6/4/2022 12:45:00 PM 18.67 65.606 0.118 7.39 2.15 9.37
6/4/2022 1:00:00 PM 19.08 66.344 0.118 7.41 2.21 9.35
6/4/2022 1:15:00 PM 19.45 67.01 0.118 7.42 2.19 9.33
6/4/2022 1:30:00 PM 19.74 67.532 0.118 7.43 2.19 9.28
6/4/2022 1:45:00 PM 20.16 68.288 0.118 7.45 2.22 9.25
6/4/2022 2:00:00 PM 20.49 68.882 0.118 7.46 2.22 9.21
6/4/2022 2:15:00 PM 20.84 69.512 0.118 7.46 2.18 9.15
6/4/2022 2:30:00 PM 21.11 69.998 0.118 7.47 2.34 9.11
6/4/2022 2:45:00 PM 21.37 70.466 0.118 7.48 2.34 9.07
6/4/2022 3:00:00 PM 21.59 70.862 0.118 7.49 2.46 9.03
6/4/2022 3:15:00 PM 21.76 71.168 0.118 7.49 2.34 8.98
6/4/2022 3:30:00 PM 21.9 71.42 0.119 7.48 2.33 8.93
6/4/2022 3:45:00 PM 22 71.6 0.119 7.48 2.32 8.88
6/4/2022 4:00:00 PM 22.11 71.798 0.119 7.47 2.54 8.84
6/4/2022 4:15:00 PM 22.13 71.834 0.119 7.46 2.55 8.78
6/4/2022 4:30:00 PM 22.15 71.87 0.119 7.45 2.54 8.74
6/4/2022 4:45:00 PM 22.12 71.816 0.119 7.44 2.48 8.7
6/4/2022 5:00:00 PM 22.05 71.69 0.119 7.43 2.51 8.64
6/4/2022 5:15:00 PM 21.97 71.546 0.119 7.42 2.59 8.59
6/4/2022 5:30:00 PM 21.91 71.438 0.12 7.41 2.62 8.55
6/4/2022 5:45:00 PM 21.82 71.276 0.12 7.39 2.57 8.5
6/4/2022 6:00:00 PM 21.69 71.042 0.12 7.38 2.53 8.45
6/4/2022 6:15:00 PM 21.47 70.646 0.12 7.37 2.54 8.41
6/4/2022 6:30:00 PM 21.21 70.17799 0.12 7.35 2.46 8.38
6/4/2022 6:45:00 PM 21 69.8 0.121 7.33 2.6 8.32
6/4/2022 7:00:00 PM 20.71 69.278 0.121 7.32 2.62 8.26
6/4/2022 7:15:00 PM 20.47 68.846 0.121 7.29 2.52 8.17
6/4/2022 7:30:00 PM 20.17 68.306 0.121 7.27 2.46 8.11
6/4/2022 7:45:00 PM 19.93 67.874 0.122 7.24 2.47 8.05
6/4/2022 8:00:00 PM 19.69 67.442 0.122 7.23 2.43 7.97
6/4/2022 8:15:00 PM 19.45 67.01 0.122 7.2 2.53 7.9
6/4/2022 8:30:00 PM 19.21 66.578 0.122 7.18 2.58 7.84
6/4/2022 8:45:00 PM 19 66.2 0.123 7.16 2.74 7.77
6/4/2022 9:00:00 PM 18.76 65.768 0.123 7.14 2.56 7.73
6/4/2022 9:15:00 PM 18.59 65.462 0.123 7.12 2.67 7.67
6/4/2022 9:30:00 PM 18.39 65.102 0.123 7.11 2.76 7.64
6/4/2022 9:45:00 PM 18.22 64.796 0.123 7.1 2.82 7.6
6/4/2022 10:00:00 PM 18.05 64.49 0.123 7.08 2.75 7.6
6/4/2022 10:15:00 PM 17.9 64.22 0.123 7.07 2.9 7.59
6/4/2022 10:30:00 PM 17.69 63.842 0.123 7.06 2.62 7.62
6/4/2022 10:45:00 PM 17.55 63.59 0.123 7.07 2.83 7.62
6/4/2022 11:00:00 PM 17.37 63.266 0.123 7.05 2.74 7.66
6/4/2022 11:15:00 PM 17.22 62.996 0.123 7.06 2.85 7.67
6/4/2022 11:30:00 PM 17.07 62.726 0.123 7.05 2.72 7.7
6/4/2022 11:45:00 PM 16.92 62.456 0.123 7.06 2.69 7.72
6/5/2022 12:00:00 AM 16.78 62.204 0.124 7.03 2.61 7.74
6/5/2022 12:15:00 AM 16.65 61.97 0.124 7.05 2.79 7.75
6/5/2022 12:30:00 AM 16.53 61.754 0.124 7.04 2.79 7.77
6/5/2022 12:45:00 AM 16.39 61.502 0.124 7.04 2.74 7.8
6/5/2022 1:00:00 AM 16.26 61.268 0.124 7.03 2.8 7.83
6/5/2022 1:15:00 AM 16.11 60.998 0.124 7.05 2.64 7.87
6/5/2022 1:30:00 AM 16.02 60.836 0.124 7.04 2.95 7.85
6/5/2022 1:45:00 AM 15.84 60.512 0.124 7.05 2.83 7.93
6/5/2022 2:00:00 AM 15.73 60.314 0.124 7.04 2.82 7.94
6/5/2022 2:15:00 AM 15.6 60.08 0.124 7.04 2.7 7.97
6/5/2022 2:30:00 AM 15.48 59.864 0.124 7.04 2.75 8
6/5/2022 2:45:00 AM 15.37 59.666 0.124 7.04 2.74 8.03
6/5/2022 3:00:00 AM 15.2 59.36 0.124 7.05 2.69 8.11
6/5/2022 3:15:00 AM 15.08 59.144 0.124 7.05 2.58 8.11
6/5/2022 3:30:00 AM 14.96 58.928 0.124 7.05 2.54 8.17
6/5/2022 3:45:00 AM 14.83 58.694 0.124 7.03 2.49 8.21
6/5/2022 4:00:00 AM 14.74 58.532 0.124 7.05 2.71 8.2
6/5/2022 4:15:00 AM 14.65 58.37 0.124 7.04 2.64 8.21
6/5/2022 4:30:00 AM 14.53 58.154 0.124 7.04 3.48 8.23
6/5/2022 4:45:00 AM 14.42 57.956 0.124 7.04 2.6 8.28
6/5/2022 5:00:00 AM 14.31 57.758 0.124 7.02 2.57 8.3
6/5/2022 5:15:00 AM 14.22 57.596 0.124 7.04 2.58 8.32
6/5/2022 5:30:00 AM 14.12 57.416 0.124 7.04 2.51 8.35
6/5/2022 5:45:00 AM 14.04 57.272 0.124 7.04 2.52 8.37
6/5/2022 6:00:00 AM 14 57.2 0.124 7.02 2.25 8.44
6/5/2022 6:15:00 AM 13.94 57.092 0.124 7.04 2.33 8.46
6/5/2022 6:30:00 AM 13.85 56.93 0.124 7.04 2.24 8.54
6/5/2022 6:45:00 AM 13.79 56.822 0.124 7.04 2.24 8.61
6/5/2022 7:00:00 AM 13.75 56.75 0.124 7.04 2.28 8.64
6/5/2022 7:15:00 AM 13.68 56.624 0.124 7.02 2.2 8.75
6/5/2022 7:30:00 AM 13.64 56.552 0.124 7.06 2.27 8.79
6/5/2022 7:45:00 AM 13.62 56.516 0.124 7.05 2.23 8.9
6/5/2022 8:00:00 AM 13.61 56.498 0.123 7.1 2.16 9.02
6/5/2022 8:15:00 AM 13.62 56.516 0.123 7.1 2.14 9.08
6/5/2022 8:30:00 AM 13.65 56.57 0.123 7.14 2.11 9.23
6/5/2022 8:45:00 AM 13.7 56.66 0.123 7.14 2.15 9.3
6/5/2022 9:00:00 AM 13.76 56.768 0.123 7.17 2.11 9.38
6/5/2022 9:15:00 AM 13.82 56.876 0.123 7.19 2.04 9.47
6/5/2022 9:30:00 AM 13.88 56.984 0.123 7.19 2.14 9.52
6/5/2022 9:45:00 AM 14.01 57.218 0.123 7.22 2.09 9.63
6/5/2022 10:00:00 AM 14.12 57.416 0.123 7.24 2.08 9.7
6/5/2022 10:15:00 AM 14.29 57.722 0.122 7.26 2.07 9.76
6/5/2022 10:30:00 AM 14.52 58.136 0.122 7.25 2.08 9.82
6/5/2022 10:45:00 AM 14.77 58.586 0.122 7.3 2.1 9.84
6/5/2022 11:00:00 AM 15.09 59.162 0.122 7.31 2.02 9.87
6/5/2022 11:15:00 AM 15.37 59.666 0.122 7.32 1.99 9.86
6/5/2022 11:30:00 AM 15.62 60.116 0.122 7.33 1.99 9.86
6/5/2022 11:45:00 AM 15.83 60.494 0.122 7.34 2.03 9.86
6/5/2022 12:00:00 PM 16.13 61.034 0.122 7.35 2.02 9.84
6/5/2022 12:15:00 PM 16.38 61.484 0.122 7.35 2.06 9.84
6/5/2022 12:30:00 PM 16.73 62.114 0.122 7.34 2.05 9.82
6/5/2022 12:45:00 PM 17.12 62.816 0.122 7.38 2.03 9.81
6/5/2022 1:00:00 PM 17.55 63.59 0.122 7.4 1.99 9.77
6/5/2022 1:15:00 PM 17.95 64.31 0.121 7.41 2.03 9.74
6/5/2022 1:30:00 PM 18.33 64.994 0.121 7.4 2.09 9.69
6/5/2022 1:45:00 PM 18.74 65.732 0.121 7.42 2.04 9.65
6/5/2022 2:00:00 PM 19.14 66.452 0.121 7.43 2.1 9.59
6/5/2022 2:15:00 PM 19.58 67.244 0.121 7.43 2.05 9.51
6/5/2022 2:30:00 PM 19.93 67.874 0.121 7.43 2.01 9.46
6/5/2022 2:45:00 PM 20.11 68.198 0.121 7.38 1.99 9.42
6/5/2022 3:00:00 PM 20.34 68.612 0.121 7.44 2.15 9.34
6/5/2022 3:15:00 PM 20.64 69.152 0.121 7.43 2.12 9.23
6/5/2022 3:30:00 PM 20.71 69.278 0.122 7.42 2.11 9.2
6/5/2022 3:45:00 PM 20.99 69.782 0.121 7.41 2.25 9.11
6/5/2022 4:00:00 PM 21.05 69.89 0.121 7.36 2.1 9.05
6/5/2022 4:15:00 PM 21.24 70.232 0.121 7.4 2.15 8.99
6/5/2022 4:30:00 PM 21.3 70.34 0.122 7.39 2.27 8.94
6/5/2022 4:45:00 PM 21.2 70.16 0.122 7.39 2.25 8.9
6/5/2022 5:00:00 PM 21.12 70.016 0.122 7.35 2.69 8.83
6/5/2022 5:15:00 PM 21.08 69.944 0.122 7.37 2.41 8.75
6/5/2022 5:30:00 PM 20.92 69.656 0.122 7.35 2.29 8.69
6/5/2022 5:45:00 PM 20.83 69.494 0.122 7.35 2.35 8.64
6/5/2022 6:00:00 PM 20.7 69.26 0.122 7.33 2.27 8.6
6/5/2022 6:15:00 PM 20.61 69.098 0.122 7.33 2.45 8.59
6/5/2022 6:30:00 PM 20.52 68.936 0.122 7.32 2.22 8.59
6/5/2022 6:45:00 PM 20.4 68.72 0.122 7.32 2.41 8.57
6/5/2022 7:00:00 PM 20.27 68.486 0.122 7.3 2.31 8.51
6/5/2022 7:15:00 PM 20.05 68.09 0.122 7.29 2.42 8.46
6/5/2022 7:30:00 PM 19.84 67.712 0.122 7.27 2.24 8.39
6/5/2022 7:45:00 PM 19.61 67.298 0.123 7.2 2.36 8.32
6/5/2022 8:00:00 PM 19.37 66.866 0.123 7.19 2.39 8.23
6/5/2022 8:15:00 PM 19.14 66.452 0.123 7.21 2.19 8.16
6/5/2022 8:30:00 PM 18.9 66.02 0.123 7.19 2.35 8.07
6/5/2022 8:45:00 PM 18.68 65.624 0.123 7.17 2.31 7.98
6/5/2022 9:00:00 PM 18.49 65.282 0.123 7.15 2.62 7.89
6/5/2022 9:15:00 PM 18.29 64.922 0.123 7.12 2.54 7.83
6/5/2022 9:30:00 PM 18.11 64.598 0.124 7.1 2.67 7.76
6/5/2022 9:45:00 PM 17.96 64.328 0.124 7.09 2.57 7.71
6/5/2022 10:00:00 PM 17.83 64.094 0.124 7.08 2.53 7.66
6/5/2022 10:15:00 PM 17.66 63.788 0.124 7.04 2.96 7.66
6/5/2022 10:30:00 PM 17.52 63.536 0.124 7.06 2.89 7.64
6/5/2022 10:45:00 PM 17.38 63.284 0.124 7.05 2.7 7.64
6/5/2022 11:00:00 PM 17.25 63.05 0.124 7.05 2.72 7.64
6/5/2022 11:15:00 PM 17.14 62.852 0.124 7.04 2.81 7.63
6/5/2022 11:30:00 PM 17.01 62.618 0.124 7.04 2.76 7.66
6/5/2022 11:45:00 PM 16.9 62.42 0.124 7.04 2.89 7.67
6/6/2022 12:00:00 AM 16.79 62.222 0.124 7.03 2.64 7.68
6/6/2022 12:15:00 AM 16.68 62.024 0.124 7.03 2.62 7.7
6/6/2022 12:30:00 AM 16.58 61.844 0.124 7.02 2.81 7.72
6/6/2022 12:45:00 AM 16.48 61.664 0.124 7.02 2.75 7.73
6/6/2022 1:00:00 AM 16.38 61.484 0.124 7.02 2.76 7.76
6/6/2022 1:15:00 AM 16.31 61.358 0.124 7.02 2.78 7.76
6/6/2022 1:30:00 AM 16.23 61.214 0.124 6.95 3.2 7.77
6/6/2022 1:45:00 AM 16.15 61.07 0.124 7.02 2.67 7.8
6/6/2022 2:00:00 AM 16.08 60.944 0.124 7.02 2.67 7.81
6/6/2022 2:15:00 AM 16 60.8 0.124 7.02 2.6 7.83
6/6/2022 2:30:00 AM 15.93 60.674 0.124 7.02 2.63 7.85
6/6/2022 2:45:00 AM 15.86 60.548 0.124 7 2.75 7.85
6/6/2022 3:00:00 AM 15.79 60.422 0.124 7.01 2.78 7.85
6/6/2022 3:15:00 AM 15.71 60.278 0.124 7.02 2.79 7.89
6/6/2022 3:30:00 AM 15.63 60.134 0.124 7.01 2.55 7.91
6/6/2022 3:45:00 AM 15.56 60.008 0.124 7.02 2.54 7.91
6/6/2022 4:00:00 AM 15.49 59.882 0.124 6.95 2.52 7.95
6/6/2022 4:15:00 AM 15.43 59.774 0.125 7.02 2.67 7.98
6/6/2022 4:30:00 AM 15.37 59.666 0.125 7.01 2.52 7.99
6/6/2022 4:45:00 AM 15.3 59.54 0.125 7.01 2.4 7.98
6/6/2022 5:00:00 AM 15.22 59.396 0.125 6.96 2.59 8.02
6/6/2022 5:15:00 AM 15.14 59.252 0.125 7.01 2.43 8.02
6/6/2022 5:30:00 AM 15.05 59.09 0.125 7.01 2.45 8.06
6/6/2022 5:45:00 AM 14.98 58.964 0.125 6.98 2.32 8.07
6/6/2022 6:00:00 AM 14.89 58.802 0.125 7.02 2.2 8.11
6/6/2022 6:15:00 AM 14.83 58.694 0.125 7.02 2.2 8.14
6/6/2022 6:30:00 AM 14.77 58.586 0.125 7.03 2.19 8.2
6/6/2022 6:45:00 AM 14.71 58.478 0.125 7.03 2.2 8.25
6/6/2022 7:00:00 AM 14.68 58.424 0.125 7.03 2.09 8.27
6/6/2022 7:15:00 AM 14.64 58.352 0.125 7.04 2.13 8.36
6/6/2022 7:30:00 AM 14.61 58.298 0.125 7.05 2.1 8.44
6/6/2022 7:45:00 AM 14.59 58.262 0.124 7 2 8.57
6/6/2022 8:00:00 AM 14.59 58.262 0.124 7.04 1.97 8.63
6/6/2022 8:15:00 AM 14.6 58.28 0.124 7.08 2.09 8.69
6/6/2022 8:30:00 AM 14.62 58.316 0.124 7.05 2.02 8.77
6/6/2022 8:45:00 AM 14.65 58.37 0.124 7.07 1.99 8.9
6/6/2022 9:00:00 AM 14.71 58.478 0.124 7.12 1.96 8.96
6/6/2022 9:15:00 AM 14.81 58.658 0.124 7.07 2.02 9.11
6/6/2022 9:30:00 AM 14.91 58.838 0.124 7.16 2 9.18
6/6/2022 9:45:00 AM 15.03 59.054 0.124 7.18 2 9.26
6/6/2022 10:00:00 AM 15.18 59.324 0.124 7.19 1.89 9.32
6/6/2022 10:15:00 AM 15.33 59.594 0.124 7.13 2.04 9.38
6/6/2022 10:30:00 AM 15.5 59.9 0.123 7.23 1.85 9.41
6/6/2022 10:45:00 AM 15.74 60.332 0.123 7.24 1.97 9.46
6/6/2022 11:00:00 AM 15.97 60.746 0.123 7.25 2.02 9.48
6/6/2022 11:15:00 AM 16.28 61.304 0.123 7.25 1.97 9.51
6/6/2022 11:30:00 AM 16.58 61.844 0.123 7.29 1.88 9.52
6/6/2022 11:45:00 AM 16.91 62.438 0.123 7.3 1.93 9.55
6/6/2022 12:00:00 PM 17.22 62.996 0.123 7.31 1.98 9.55
6/6/2022 12:15:00 PM 17.59 63.662 0.123 7.33 2 9.56
6/6/2022 12:30:00 PM 17.97 64.346 0.123 7.32 1.94 9.56
6/6/2022 12:45:00 PM 18.25 64.85 0.122 7.34 1.84 9.55
6/6/2022 1:00:00 PM 18.66 65.588 0.122 7.34 1.95 9.53
6/6/2022 1:15:00 PM 19.05 66.29 0.122 7.37 1.99 9.51
6/6/2022 1:30:00 PM 19.44 66.992 0.122 7.34 2.28 9.48
6/6/2022 1:45:00 PM 19.8 67.64 0.122 7.39 2.14 9.45
6/6/2022 2:00:00 PM 20.14 68.252 0.122 7.38 2 9.4
6/6/2022 2:15:00 PM 20.46 68.828 0.122 7.41 2.09 9.33
6/6/2022 2:30:00 PM 20.69 69.242 0.122 7.41 2.13 9.29
6/6/2022 2:45:00 PM 20.98 69.764 0.122 7.38 2.06 9.24
6/6/2022 3:00:00 PM 21.21 70.17799 0.122 7.43 2.06 9.21
6/6/2022 3:15:00 PM 21.51 70.718 0.122 7.44 2.45 9.16
6/6/2022 3:30:00 PM 21.63 70.934 0.122 7.44 2.2 9.16
6/6/2022 3:45:00 PM 21.72 71.096 0.122 7.45 2.24 9.13
6/6/2022 4:00:00 PM 21.83 71.294 0.122 7.45 2.41 9.08
6/6/2022 4:15:00 PM 21.93 71.474 0.122 7.44 2.56 9.03
6/6/2022 4:30:00 PM 21.94 71.492 0.122 7.43 2.4 8.99
6/6/2022 4:45:00 PM 21.95 71.51 0.122 7.43 2.55 8.96
6/6/2022 5:00:00 PM 21.88 71.384 0.122 7.43 3.24 8.9
6/6/2022 5:15:00 PM 21.83 71.294 0.122 7.41 2.51 8.86
6/6/2022 5:30:00 PM 21.75 71.15 0.122 7.39 2.65 8.8
6/6/2022 5:45:00 PM 21.66 70.988 0.122 7.4 2.56 8.76
6/6/2022 6:00:00 PM 21.57 70.826 0.122 7.35 2.62 8.73
6/6/2022 6:15:00 PM 21.46 70.628 0.122 7.37 2.81 8.67
6/6/2022 6:30:00 PM 21.32 70.376 0.122 7.35 2.4 8.64
6/6/2022 6:45:00 PM 21.15 70.07 0.122 7.35 2.63 8.6
6/6/2022 7:00:00 PM 20.97 69.746 0.122 7.33 2.58 8.53
6/6/2022 7:15:00 PM 20.78 69.404 0.122 7.31 2.58 8.47
6/6/2022 7:30:00 PM 20.59 69.062 0.123 7.29 2.92 8.39
6/6/2022 7:45:00 PM 20.41 68.738 0.123 7.26 3.01 8.3
6/6/2022 8:00:00 PM 20.25 68.45 0.123 7.18 2.99 8.2
6/6/2022 8:15:00 PM 20.07 68.126 0.123 7.17 3.06 8.1
6/6/2022 8:30:00 PM 19.91 67.838 0.123 7.19 2.93 7.99
6/6/2022 8:45:00 PM 19.74 67.532 0.123 7.16 2.94 7.85
6/6/2022 9:00:00 PM 19.57 67.226 0.124 7.14 3.38 7.74
6/6/2022 9:15:00 PM 19.44 66.992 0.124 7.11 3.44 7.63
6/6/2022 9:30:00 PM 19.26 66.668 0.124 7.04 3.1 7.54
6/6/2022 9:45:00 PM 19.11 66.398 0.124 7.08 3.22 7.46
6/6/2022 10:00:00 PM 18.97 66.146 0.124 7.06 3.25 7.4
6/6/2022 10:15:00 PM 18.84 65.912 0.124 7.05 3.17 7.36
6/6/2022 10:30:00 PM 18.7 65.66 0.124 7.03 3.28 7.32
6/6/2022 10:45:00 PM 18.55 65.39 0.124 7.03 3.05 7.31
6/6/2022 11:00:00 PM 18.45 65.21 0.124 7.02 3.09 7.29
6/6/2022 11:15:00 PM 18.33 64.994 0.124 7.01 2.81 7.29
6/6/2022 11:30:00 PM 18.21 64.778 0.125 7.01 3.22 7.3
6/6/2022 11:45:00 PM 18.1 64.58 0.125 7 3.22 7.29
6/7/2022 12:00:00 AM 17.99 64.382 0.125 7 3.37 7.3
6/7/2022 12:15:00 AM 17.9 64.22 0.125 7 3.51 7.31
6/7/2022 12:30:00 AM 17.78 64.004 0.125 7 3.09 7.33
6/7/2022 12:45:00 AM 17.69 63.842 0.125 7 3.01 7.34
6/7/2022 1:00:00 AM 17.61 63.698 0.125 6.99 3.35 7.35
6/7/2022 1:15:00 AM 17.54 63.572 0.125 6.99 3.08 7.36
6/7/2022 1:30:00 AM 17.46 63.428 0.125 6.98 3.92 7.36
6/7/2022 1:45:00 AM 17.37 63.266 0.125 6.99 3.12 7.4
6/7/2022 2:00:00 AM 17.31 63.158 0.125 6.99 3.28 7.41
6/7/2022 2:15:00 AM 17.24 63.032 0.125 6.99 3 7.43
6/7/2022 2:30:00 AM 17.16 62.888 0.125 6.99 2.97 7.44
6/7/2022 2:45:00 AM 17.11 62.798 0.125 6.91 3.19 7.43
6/7/2022 3:00:00 AM 17.04 62.672 0.125 6.99 3.3 7.47
6/7/2022 3:15:00 AM 16.98 62.564 0.125 6.99 3.01 7.49
6/7/2022 3:30:00 AM 16.92 62.456 0.125 6.99 3.26 7.49
6/7/2022 3:45:00 AM 16.86 62.348 0.125 6.99 3.29 7.5
6/7/2022 4:00:00 AM 16.8 62.24 0.125 6.93 2.95 7.54
6/7/2022 4:15:00 AM 16.75 62.15 0.125 6.99 3.01 7.55
6/7/2022 4:30:00 AM 16.69 62.042 0.125 6.97 3.04 7.55
6/7/2022 4:45:00 AM 16.64 61.952 0.125 6.99 3.35 7.55
6/7/2022 5:00:00 AM 16.57 61.826 0.125 6.92 3.04 7.58
6/7/2022 5:15:00 AM 16.49 61.682 0.125 7 3.33 7.61
6/7/2022 5:30:00 AM 16.42 61.556 0.125 7 2.96 7.63
6/7/2022 5:45:00 AM 16.35 61.43 0.125 7 2.85 7.64
6/7/2022 6:00:00 AM 16.27 61.286 0.125 7 2.46 7.67
6/7/2022 6:15:00 AM 16.19 61.142 0.125 6.94 2.63 7.73
6/7/2022 6:30:00 AM 16.14 61.052 0.125 7.01 3.11 7.76
6/7/2022 6:45:00 AM 16.09 60.962 0.125 7.01 2.55 7.81
6/7/2022 7:00:00 AM 16.05 60.89 0.125 7.02 2.62 7.87
6/7/2022 7:15:00 AM 16.01 60.818 0.125 6.98 2.35 8.01
6/7/2022 7:30:00 AM 16 60.8 0.125 7.05 2.33 8.1
6/7/2022 7:45:00 AM 16 60.8 0.125 7.05 2.37 8.19
6/7/2022 8:00:00 AM 16 60.8 0.125 7.07 2.29 8.33
6/7/2022 8:15:00 AM 16.02 60.836 0.125 7.08 2.29 8.41
6/7/2022 8:30:00 AM 16.03 60.854 0.125 7.1 2.22 8.54
6/7/2022 8:45:00 AM 16.07 60.926 0.124 7.12 2.29 8.67
6/7/2022 9:00:00 AM 16.13 61.034 0.124 7.15 2.15 8.81
6/7/2022 9:15:00 AM 16.23 61.214 0.124 7.17 2.17 8.94
6/7/2022 9:30:00 AM 16.36 61.448 0.124 7.14 2.31 9.08
6/7/2022 9:45:00 AM 16.47 61.646 0.124 7.22 2.1 9.16
6/7/2022 10:00:00 AM 16.57 61.826 0.124 7.23 2.2 9.22
6/7/2022 10:15:00 AM 16.65 61.97 0.124 7.25 2.14 9.28
6/7/2022 10:30:00 AM 16.72 62.096 0.123 7.24 2.12 9.32
6/7/2022 10:45:00 AM 16.8 62.24 0.123 7.27 2.17 9.35
6/7/2022 11:00:00 AM 16.9 62.42 0.123 7.29 2.14 9.42
6/7/2022 11:15:00 AM 17.02 62.636 0.123 7.3 2.03 9.45
6/7/2022 11:30:00 AM 17.17 62.906 0.123 7.27 2.02 9.48
6/7/2022 11:45:00 AM 17.34 63.212 0.123 7.34 2.03 9.51
6/7/2022 12:00:00 PM 17.53 63.554 0.123 7.35 2.08 9.53
6/7/2022 12:15:00 PM 17.68 63.824 0.123 7.36 2 9.53
6/7/2022 12:30:00 PM 17.8 64.04 0.122 7.37 2.23 9.52
6/7/2022 12:45:00 PM 17.9 64.22 0.122 7.38 2.17 9.51
6/7/2022 1:00:00 PM 18 64.4 0.122 7.38 2.22 9.49
6/7/2022 1:15:00 PM 18.05 64.49 0.122 7.38 2.12 9.48
6/7/2022 1:30:00 PM 18.09 64.562 0.122 7.38 2.38 9.44
6/7/2022 1:45:00 PM 18.17 64.706 0.122 7.37 2.35 9.42
6/7/2022 2:00:00 PM 18.22 64.796 0.122 7.37 2.14 9.4
6/7/2022 2:15:00 PM 18.28 64.904 0.121 7.36 2.3 9.37
6/7/2022 2:30:00 PM 18.33 64.994 0.121 7.37 2.3 9.35
6/7/2022 2:45:00 PM 18.34 65.012 0.121 7.32 2.24 9.28
6/7/2022 3:00:00 PM 18.35 65.03 0.121 7.34 2.32 9.21
6/7/2022 3:15:00 PM 18.35 65.03 0.121 7.33 2.33 9.14
6/7/2022 3:30:00 PM 18.35 65.03 0.121 7.26 2.18 9.08
6/7/2022 3:45:00 PM 18.36 65.048 0.121 7.27 2.26 9.03
6/7/2022 4:00:00 PM 18.37 65.066 0.121 7.3 2.34 9
6/7/2022 4:15:00 PM 18.37 65.066 0.121 7.3 2.2 8.96
6/7/2022 4:30:00 PM 18.36 65.048 0.121 7.21 2.17 8.9
6/7/2022 4:45:00 PM 18.32 64.976 0.121 7.24 2.31 8.83
6/7/2022 5:00:00 PM 18.28 64.904 0.12 7.26 2.68 8.73
6/7/2022 5:15:00 PM 18.26 64.868 0.12 7.22 2.37 8.63
6/7/2022 5:30:00 PM 18.22 64.796 0.12 7.22 2.62 8.53
6/7/2022 5:45:00 PM 18.17 64.706 0.119 7.16 2.69 8.48
6/7/2022 6:00:00 PM 18.14 64.652 0.119 7.21 2.54 8.44
6/7/2022 6:15:00 PM 18.11 64.598 0.119 7.17 2.65 8.36
6/7/2022 6:30:00 PM 18.06 64.508 0.118 7.18 2.58 8.33
6/7/2022 6:45:00 PM 18.01 64.418 0.118 7.18 2.53 8.28
6/7/2022 7:00:00 PM 17.97 64.346 0.118 7.1 2.68 8.21
6/7/2022 7:15:00 PM 17.91 64.238 0.117 7.14 2.93 8.12
6/7/2022 7:30:00 PM 17.86 64.148 0.117 7.13 3.46 8.06
6/7/2022 7:45:00 PM 17.8 64.04 0.117 7.12 5.08 8
6/7/2022 8:00:00 PM 17.75 63.95 0.117 7.09 6.97 7.95
6/7/2022 8:15:00 PM 17.7 63.86 0.117 7.11 7.81 7.92
6/7/2022 8:30:00 PM 17.65 63.77 0.117 7.1 8.63 7.89
6/7/2022 8:45:00 PM 17.61 63.698 0.117 7.09 7.89 7.86
6/7/2022 9:00:00 PM 17.55 63.59 0.117 7.1 6.67 7.86
6/7/2022 9:15:00 PM 17.5 63.5 0.117 7.09 6 7.84
6/7/2022 9:30:00 PM 17.46 63.428 0.117 7.09 5.73 7.84
6/7/2022 9:45:00 PM 17.43 63.374 0.117 7.08 5.73 7.84
6/7/2022 10:00:00 PM 17.39 63.302 0.117 7.1 5.5 7.85
6/7/2022 10:15:00 PM 17.35 63.23 0.117 7.1 5.54 7.86
6/7/2022 10:30:00 PM 17.31 63.158 0.117 7.1 5.68 7.89
6/7/2022 10:45:00 PM 17.27 63.086 0.117 7.11 5.69 7.93
6/7/2022 11:00:00 PM 17.24 63.032 0.118 7.11 5.23 7.93
6/7/2022 11:15:00 PM 17.21 62.978 0.119 7.12 4.97 7.97
6/7/2022 11:30:00 PM 17.19 62.942 0.119 7.14 4.7 8.01
6/7/2022 11:45:00 PM 17.16 62.888 0.119 7.14 4.72 8.05
6/8/2022 12:00:00 AM 17.13 62.834 0.119 7.14 4.71 8.09
6/8/2022 12:15:00 AM 17.11 62.798 0.119 7.16 4.74 8.11
6/8/2022 12:30:00 AM 17.08 62.744 0.119 7.16 4.4 8.14
6/8/2022 12:45:00 AM 17.05 62.69 0.119 7.16 4.24 8.16
6/8/2022 1:00:00 AM 17.01 62.618 0.119 7.17 4.03 8.19
6/8/2022 1:15:00 AM 16.99 62.582 0.119 7.17 4.25 8.21
6/8/2022 1:30:00 AM 16.96 62.528 0.119 7.17 4.12 8.21
6/8/2022 1:45:00 AM 16.93 62.474 0.119 7.17 4.05 8.23
6/8/2022 2:00:00 AM 16.9 62.42 0.119 7.17 3.99 8.23
6/8/2022 2:15:00 AM 16.87 62.366 0.119 7.17 4.01 8.23
6/8/2022 2:30:00 AM 16.85 62.33 0.119 7.16 5.1 8.23
6/8/2022 2:45:00 AM 16.82 62.276 0.119 7.17 6.33 8.25
6/8/2022 3:00:00 AM 16.81 62.258 0.118 7.17 5.92 8.27
6/8/2022 3:15:00 AM 16.78 62.204 0.118 7.16 5.02 8.29
6/8/2022 3:30:00 AM 16.76 62.168 0.117 7.16 4.44 8.28
6/8/2022 3:45:00 AM 16.74 62.132 0.117 7.15 4.42 8.29
6/8/2022 4:00:00 AM 16.7 62.06 0.117 7.16 6.12 8.3
6/8/2022 4:15:00 AM 16.66 61.988 0.116 7.16 20.18 8.33
6/8/2022 4:30:00 AM 16.62 61.916 0.116 7.18 19.18 8.35
6/8/2022 4:45:00 AM 16.55 61.79 0.116 7.19 12.96 8.37
6/8/2022 5:00:00 AM 16.48 61.664 0.117 7.19 9.68 8.41
6/8/2022 5:15:00 AM 16.41 61.538 0.117 7.2 9.23 8.43
6/8/2022 5:30:00 AM 16.33 61.394 0.117 7.22 12.33 8.46
6/8/2022 5:45:00 AM 16.27 61.286 0.117 7.22 11.23 8.49
6/8/2022 6:00:00 AM 16.2 61.16 0.118 7.22 11.96 8.54
6/8/2022 6:15:00 AM 16.15 61.07 0.118 7.24 10.2 8.58
6/8/2022 6:30:00 AM 16.11 60.998 0.118 7.25 8.67 8.65
6/8/2022 6:45:00 AM 16.06 60.908 0.118 7.26 8.52 8.69
6/8/2022 7:00:00 AM 16 60.8 0.117 7.27 7.44 8.74
6/8/2022 7:15:00 AM 15.95 60.71 0.116 7.28 7.05 8.78
6/8/2022 7:30:00 AM 15.91 60.638 0.116 7.29 6.52 8.83
6/8/2022 7:45:00 AM 15.89 60.602 0.115 7.29 6.16 8.87
6/8/2022 8:00:00 AM 15.87 60.566 0.115 7.29 5.74 8.92
6/8/2022 8:15:00 AM 15.87 60.566 0.114 7.32 5.82 8.97
6/8/2022 8:30:00 AM 15.91 60.638 0.114 7.33 5.47 9.02
6/8/2022 8:45:00 AM 15.89 60.602 0.113 7.33 5.31 9.06
6/8/2022 9:00:00 AM 15.92 60.656 0.113 7.34 5.02 9.11
6/8/2022 9:15:00 AM 16.01 60.818 0.112 7.34 5.19 9.15
6/8/2022 9:30:00 AM 16.1 60.98 0.112 7.37 4.77 9.2
6/8/2022 9:45:00 AM 16.13 61.034 0.112 7.38 4.69 9.22
6/8/2022 10:00:00 AM 16.17 61.106 0.112 7.4 4.51 9.26
6/8/2022 10:15:00 AM 16.28 61.304 0.112 7.41 4.29 9.32
6/8/2022 10:30:00 AM 16.47 61.646 0.112 7.45 4.12 9.37
6/8/2022 10:45:00 AM 16.57 61.826 0.112 7.46 4.22 9.41
6/8/2022 11:00:00 AM 16.64 61.952 0.112 7.46 3.99 9.4
6/8/2022 11:15:00 AM 16.77 62.186 0.112 7.46 3.64 9.42
6/8/2022 11:30:00 AM 16.96 62.528 0.112 7.49 3.61 9.44
6/8/2022 11:45:00 AM 17.14 62.852 0.112 7.49 3.5 9.45
6/8/2022 12:00:00 PM 17.44 63.392 0.112 7.52 3.44 9.46
6/8/2022 12:15:00 PM 17.66 63.788 0.112 7.53 3.51 9.45
6/8/2022 12:30:00 PM 17.7 63.86 0.112 7.54 3.41 9.42
6/8/2022 12:45:00 PM 17.93 64.274 0.112 7.54 3.22 9.42
6/8/2022 1:00:00 PM 18.13 64.634 0.112 7.56 3.32 9.41
6/8/2022 1:15:00 PM 18.41 65.138 0.112 7.58 3.2 9.41
6/8/2022 1:30:00 PM 18.51 65.318 0.112 7.58 3.36 9.39
6/8/2022 1:45:00 PM 18.66 65.588 0.112 7.58 3.34 9.37
6/8/2022 2:00:00 PM 18.97 66.146 0.112 7.6 3.33 9.35
6/8/2022 2:15:00 PM 19.39 66.902 0.112 7.61 3.37 9.34
6/8/2022 2:30:00 PM 19.73 67.514 0.112 7.63 3.26 9.29
6/8/2022 2:45:00 PM 19.88 67.784 0.112 7.62 3.11 9.21
6/8/2022 3:00:00 PM 19.94 67.892 0.112 7.61 3.15 9.14
6/8/2022 3:15:00 PM 20.12 68.216 0.112 7.59 3.22 9.07
6/8/2022 3:30:00 PM 20.38 68.684 0.112 7.6 3.11 9.04
6/8/2022 3:45:00 PM 20.62 69.116 0.112 7.59 2.98 9.02
6/8/2022 4:00:00 PM 20.87 69.566 0.112 7.59 3.03 8.97
6/8/2022 4:15:00 PM 21.05 69.89 0.112 7.59 3.12 8.92
6/8/2022 4:30:00 PM 21.2 70.16 0.113 7.58 3.01 8.86
6/8/2022 4:45:00 PM 21.26 70.268 0.113 7.56 2.96 8.8
6/8/2022 5:00:00 PM 21.23 70.214 0.113 7.54 2.97 8.75
6/8/2022 5:15:00 PM 21.17 70.106 0.113 7.53 3 8.7
6/8/2022 5:30:00 PM 21.08 69.944 0.113 7.52 3.14 8.65
6/8/2022 5:45:00 PM 20.97 69.746 0.113 7.5 2.91 8.62
6/8/2022 6:00:00 PM 20.76 69.368 0.114 7.49 2.99 8.61
6/8/2022 6:15:00 PM 20.6 69.08 0.114 7.46 2.93 8.56
6/8/2022 6:30:00 PM 20.44 68.792 0.114 7.45 3.05 8.54
6/8/2022 6:45:00 PM 20.24 68.432 0.114 7.43 3.09 8.5
6/8/2022 7:00:00 PM 20.07 68.126 0.114 7.41 3.2 8.44
6/8/2022 7:15:00 PM 19.98 67.964 0.114 7.36 3.15 8.35
6/8/2022 7:30:00 PM 19.79 67.622 0.114 7.33 2.99 8.3
6/8/2022 7:45:00 PM 19.65 67.37 0.115 7.31 7.63 8.23
6/8/2022 8:00:00 PM 19.46 67.028 0.115 7.3 3.3 8.19
6/8/2022 8:15:00 PM 19.33 66.794 0.115 7.26 2.96 8.12
6/8/2022 8:30:00 PM 19.17 66.506 0.115 7.25 3.11 8.04
6/8/2022 8:45:00 PM 19.05 66.29 0.115 7.22 3.33 7.96
6/8/2022 9:00:00 PM 18.93 66.074 0.116 7.19 3.13 7.88
6/8/2022 9:15:00 PM 18.79 65.82201 0.116 7.17 3.11 7.84
6/8/2022 9:30:00 PM 18.66 65.588 0.116 7.16 3.45 7.82
6/8/2022 9:45:00 PM 18.54 65.372 0.116 7.16 3.32 7.8
6/8/2022 10:00:00 PM 18.43 65.174 0.116 7.13 3.29 7.78
6/8/2022 10:15:00 PM 18.33 64.994 0.117 7.13 3.4 7.77
6/8/2022 10:30:00 PM 18.22 64.796 0.117 7.13 3.32 7.78
6/8/2022 10:45:00 PM 18.12 64.616 0.117 7.12 3.24 7.78
6/8/2022 11:00:00 PM 18.03 64.454 0.117 7.11 3.47 7.76
6/8/2022 11:15:00 PM 17.93 64.274 0.117 7.1 3.26 7.78
6/8/2022 11:30:00 PM 17.83 64.094 0.117 7.11 3.35 7.81
6/8/2022 11:45:00 PM 17.77 63.986 0.118 7.1 3.34 7.76
6/9/2022 12:00:00 AM 17.68 63.824 0.118 7.1 3.56 7.79
6/9/2022 12:15:00 AM 17.58 63.644 0.118 7.1 3.35 7.83
6/9/2022 12:30:00 AM 17.51 63.518 0.118 7.09 3.27 7.82
6/9/2022 12:45:00 AM 17.44 63.392 0.118 7.09 3.57 7.82
6/9/2022 1:00:00 AM 17.35 63.23 0.118 7.1 3.36 7.86
6/9/2022 1:15:00 AM 17.29 63.122 0.119 7.08 3.33 7.86
6/9/2022 1:30:00 AM 17.23 63.014 0.118 7.1 3.49 7.89
6/9/2022 1:45:00 AM 17.13 62.834 0.118 7.11 3.51 7.97
6/9/2022 2:00:00 AM 17.06 62.708 0.117 7.11 3.69 7.98
6/9/2022 2:15:00 AM 16.98 62.564 0.117 7.12 3.45 8.02
6/9/2022 2:30:00 AM 16.91 62.438 0.116 7.11 3.56 8.05
6/9/2022 2:45:00 AM 16.86 62.348 0.116 7.12 3.47 8.05
6/9/2022 3:00:00 AM 16.78 62.204 0.115 7.13 3.77 8.09
6/9/2022 3:15:00 AM 16.71 62.078 0.115 7.14 7.37 8.14
6/9/2022 3:30:00 AM 16.64 61.952 0.114 7.14 13.1 8.18
6/9/2022 3:45:00 AM 16.55 61.79 0.113 7.16 12.96 8.24
6/9/2022 4:00:00 AM 16.46 61.628 0.112 7.17 15.5 8.29
6/9/2022 4:15:00 AM 16.36 61.448 0.111 7.19 35.55 8.35
6/9/2022 4:30:00 AM 16.27 61.286 0.11 7.19 56.03 8.4
6/9/2022 4:45:00 AM 16.16 61.088 0.11 7.21 93.27 8.49
6/9/2022 5:00:00 AM 16.03 60.854 0.108 7.22 81.49 8.59
6/9/2022 5:15:00 AM 15.85 60.53 0.105 7.21 126.01 8.71
6/9/2022 5:30:00 AM 15.65 60.17 0.101 7.03 147.47 8.8
6/9/2022 5:45:00 AM 15.48 59.864 0.095 6.98 148.35 8.88
6/9/2022 6:00:00 AM 15.37 59.666 0.092 6.98 141.35 8.95
6/9/2022 6:15:00 AM 15.31 59.558 0.09 6.94 133.01 8.99
6/9/2022 6:30:00 AM 15.28 59.504 0.088 7.04 102.94 9.02
6/9/2022 6:45:00 AM 15.26 59.468 0.088 6.98 88.63 9.03
6/9/2022 7:00:00 AM 15.24 59.432 0.087 7.1 91.16 9.05
6/9/2022 7:15:00 AM 15.24 59.432 0.084 7.13 77.75 9.06
6/9/2022 7:30:00 AM 15.24 59.432 0.082 7.15 68.51 9.07
6/9/2022 7:45:00 AM 15.26 59.468 0.08 7.18 61.86 9.08
6/9/2022 8:00:00 AM 15.3 59.54 0.079 7.19 49.09 9.08
6/9/2022 8:15:00 AM 15.33 59.594 0.079 7.2 50.53 9.08
6/9/2022 8:30:00 AM 15.37 59.666 0.078 7.2 45.14 9.08
6/9/2022 8:45:00 AM 15.41 59.738 0.079 7.2 40.51 9.08
6/9/2022 9:00:00 AM 15.47 59.846 0.079 7.21 37.66 9.08
6/9/2022 9:15:00 AM 15.51 59.918 0.079 7.22 33.44 9.08
6/9/2022 9:30:00 AM 15.56 60.008 0.08 7.22 31.15 9.06
6/9/2022 9:45:00 AM 15.61 60.098 0.081 7.25 29.43 9.05
6/9/2022 10:00:00 AM 15.72 60.296 0.081 7.25 26.86 9.06
6/9/2022 10:15:00 AM 15.81 60.458 0.082 7.28 24.94 9.07
6/9/2022 10:30:00 AM 15.99 60.782 0.083 7.28 20.48 9.08
6/9/2022 10:45:00 AM 16.08 60.944 0.084 7.27 20.76 9.08
6/9/2022 11:00:00 AM 16.29 61.322 0.085 7.29 19.46 9.1
6/9/2022 11:15:00 AM 16.46 61.628 0.085 7.32 18.73 9.11
6/9/2022 11:30:00 AM 16.51 61.718 0.086 7.33 17.69 9.09
6/9/2022 11:45:00 AM 16.73 62.114 0.087 7.35 16.54 9.09
6/9/2022 12:00:00 PM 16.9 62.42 0.087 7.36 15.48 9.1
6/9/2022 12:15:00 PM 17.17 62.906 0.088 7.38 15.39 9.1
6/9/2022 12:30:00 PM 17.35 63.23 0.088 7.4 14.18 9.1
6/9/2022 12:45:00 PM 17.4 63.32 0.089 7.4 13.59 9.09
6/9/2022 1:00:00 PM 17.53 63.554 0.089 7.42 13.15 9.08
6/9/2022 1:15:00 PM 17.55 63.59 0.09 7.42 13.18 9.07
6/9/2022 1:30:00 PM 17.58 63.644 0.091 7.42 12.36 9.03
6/9/2022 1:45:00 PM 17.55 63.59 0.091 7.4 12.17 8.96
6/9/2022 2:00:00 PM 17.54 63.572 0.092 7.4 11.76 8.95
6/9/2022 2:15:00 PM 17.42 63.356 0.093 7.38 11.41 8.91
6/9/2022 2:30:00 PM 17.42 63.356 0.094 7.38 10.86 8.9
6/9/2022 2:45:00 PM 17.39 63.302 0.094 7.38 10.21 8.92
6/9/2022 3:00:00 PM 17.46 63.428 0.095 7.39 9.83 8.96
6/9/2022 3:15:00 PM 17.49 63.482 0.096 7.4 9.84 8.99
6/9/2022 3:30:00 PM 17.49 63.482 0.096 7.42 9.49 9.03
6/9/2022 3:45:00 PM 17.48 63.464 0.097 7.42 9.36 9.03
6/9/2022 4:00:00 PM 17.46 63.428 0.098 7.42 9.42 8.99
6/9/2022 4:15:00 PM 17.53 63.554 0.098 7.42 9.1 9
6/9/2022 4:30:00 PM 17.67 63.806 0.098 7.45 8.65 9.02
6/9/2022 4:45:00 PM 17.7 63.86 0.099 7.44 8.35 9.03
6/9/2022 5:00:00 PM 17.55 63.59 0.1 7.42 8.09 8.97
6/9/2022 5:15:00 PM 17.53 63.554 0.1 7.41 8.15 8.95
6/9/2022 5:30:00 PM 17.59 63.662 0.1 7.42 7.81 8.96
6/9/2022 5:45:00 PM 17.56 63.608 0.101 7.41 7.62 8.94
6/9/2022 6:00:00 PM 17.55 63.59 0.101 7.41 7.68 8.92
6/9/2022 6:15:00 PM 17.52 63.536 0.101 7.4 7.66 8.91
6/9/2022 6:30:00 PM 17.45 63.41 0.102 7.38 7.52 8.87
6/9/2022 6:45:00 PM 17.4 63.32 0.102 7.37 7.48 8.84
6/9/2022 7:00:00 PM 17.36 63.248 0.102 7.36 7.26 8.83
6/9/2022 7:15:00 PM 17.3 63.14 0.103 7.35 7.09 8.81
6/9/2022 7:30:00 PM 17.21 62.978 0.103 7.33 7.23 8.78
6/9/2022 7:45:00 PM 17.1 62.78 0.104 7.32 7.58 8.75
6/9/2022 8:00:00 PM 17.02 62.636 0.104 7.3 7.05 8.73
6/9/2022 8:15:00 PM 16.92 62.456 0.104 7.29 7.13 8.71
6/9/2022 8:30:00 PM 16.81 62.258 0.105 7.28 6.9 8.69
6/9/2022 8:45:00 PM 16.71 62.078 0.105 7.27 6.98 8.68
6/9/2022 9:00:00 PM 16.61 61.898 0.105 7.25 7.01 8.67
6/9/2022 9:15:00 PM 16.51 61.718 0.105 7.25 7.23 8.66
6/9/2022 9:30:00 PM 16.41 61.538 0.106 7.23 7.31 8.67
6/9/2022 9:45:00 PM 16.32 61.376 0.106 7.23 7.29 8.66
6/9/2022 10:00:00 PM 16.24 61.232 0.106 7.22 7.46 8.68
6/9/2022 10:15:00 PM 16.16 61.088 0.106 7.22 7.28 8.69
6/9/2022 10:30:00 PM 16.08 60.944 0.107 7.21 7.1 8.7
6/9/2022 10:45:00 PM 15.99 60.782 0.107 7.21 7.04 8.72
6/9/2022 11:00:00 PM 15.89 60.602 0.107 7.21 6.8 8.73
6/9/2022 11:15:00 PM 15.81 60.458 0.107 7.21 6.86 8.74
6/9/2022 11:30:00 PM 15.72 60.296 0.108 7.2 6.83 8.77
6/9/2022 11:45:00 PM 15.65 60.17 0.108 7.21 6.9 8.77
6/10/2022 12:00:00 AM 15.59 60.062 0.108 7.19 7.02 8.79
6/10/2022 12:15:00 AM 15.53 59.954 0.108 7.2 6.69 8.8
6/10/2022 12:30:00 AM 15.48 59.864 0.108 7.19 6.79 8.81
6/10/2022 12:45:00 AM 15.41 59.738 0.108 7.19 6.42 8.82
6/10/2022 1:00:00 AM 15.33 59.594 0.108 7.19 6.5 8.84
6/10/2022 1:15:00 AM 15.27 59.486 0.109 7.19 6.73 8.85
6/10/2022 1:30:00 AM 15.21 59.378 0.109 7.19 6.48 8.86
6/10/2022 1:45:00 AM 15.15 59.27 0.109 7.19 6.53 8.87
6/10/2022 2:00:00 AM 15.09 59.162 0.109 7.19 5.95 8.89
6/10/2022 2:15:00 AM 15.03 59.054 0.109 7.18 6.15 8.89
6/10/2022 2:30:00 AM 14.96 58.928 0.109 7.18 6.13 8.91
6/10/2022 2:45:00 AM 14.89 58.802 0.109 7.19 6.2 8.92
6/10/2022 3:00:00 AM 14.82 58.676 0.11 7.18 6.16 8.93
6/10/2022 3:15:00 AM 14.76 58.568 0.11 7.19 6.04 8.94
6/10/2022 3:30:00 AM 14.7 58.46 0.11 7.18 6.3 8.95
6/10/2022 3:45:00 AM 14.64 58.352 0.11 7.17 6.25 8.97
6/10/2022 4:00:00 AM 14.58 58.244 0.11 7.18 5.94 8.99
6/10/2022 4:15:00 AM 14.51 58.118 0.11 7.17 5.98 8.99
6/10/2022 4:30:00 AM 14.45 58.01 0.11 7.16 6.21 9
6/10/2022 4:45:00 AM 14.39 57.902 0.11 7.17 6.12 9.02
6/10/2022 5:00:00 AM 14.34 57.812 0.11 7.16 5.89 9.02
6/10/2022 5:15:00 AM 14.29 57.722 0.11 7.17 5.86 9.04
6/10/2022 5:30:00 AM 14.24 57.632 0.11 7.16 5.6 9.05
6/10/2022 5:45:00 AM 14.18 57.524 0.11 7.17 5.49 9.07
6/10/2022 6:00:00 AM 14.12 57.416 0.11 7.17 5.26 9.1
6/10/2022 6:15:00 AM 14.07 57.326 0.111 7.18 5.17 9.13
6/10/2022 6:30:00 AM 14.03 57.254 0.111 7.18 5.04 9.16
6/10/2022 6:45:00 AM 14 57.2 0.111 7.17 4.77 9.19
6/10/2022 7:00:00 AM 14.05 57.29 0.11 7.19 4.65 9.2
6/10/2022 7:15:00 AM 14.03 57.254 0.11 7.21 4.47 9.23
6/10/2022 7:30:00 AM 14 57.2 0.11 7.21 4.34 9.26
6/10/2022 7:45:00 AM 13.99 57.182 0.11 7.22 4.3 9.3
6/10/2022 8:00:00 AM 13.99 57.182 0.11 7.22 4.17 9.33
6/10/2022 8:15:00 AM 14.01 57.218 0.11 7.22 4.14 9.36
6/10/2022 8:30:00 AM 14.05 57.29 0.11 7.24 4.06 9.38
6/10/2022 8:45:00 AM 14.11 57.398 0.11 7.25 4.2 9.41
6/10/2022 9:00:00 AM 14.18 57.524 0.11 7.27 3.9 9.43
6/10/2022 9:15:00 AM 14.29 57.722 0.11 7.28 3.86 9.45
6/10/2022 9:30:00 AM 14.41 57.938 0.11 7.28 3.77 9.47
6/10/2022 9:45:00 AM 14.57 58.226 0.11 7.3 3.62 9.49
6/10/2022 10:00:00 AM 14.73 58.514 0.11 7.31 3.63 9.51
6/10/2022 10:15:00 AM 14.93 58.874 0.11 7.33 3.6 9.52
6/10/2022 10:30:00 AM 15.1 59.18 0.11 7.33 3.61 9.52
6/10/2022 10:45:00 AM 15.36 59.648 0.11 7.37 3.56 9.53
6/10/2022 11:00:00 AM 15.62 60.116 0.11 7.37 3.48 9.54
6/10/2022 11:15:00 AM 15.86 60.548 0.11 7.39 3.44 9.52
6/10/2022 11:30:00 AM 16.1 60.98 0.11 7.4 3.55 9.51
6/10/2022 11:45:00 AM 16.3 61.34 0.11 7.41 3.34 9.49
6/10/2022 12:00:00 PM 16.58 61.844 0.11 7.43 3.39 9.49
6/10/2022 12:15:00 PM 16.76 62.168 0.11 7.44 3.31 9.46
6/10/2022 12:30:00 PM 16.93 62.474 0.11 7.45 3.34 9.43
6/10/2022 12:45:00 PM 17.19 62.942 0.11 7.46 3.41 9.41
6/10/2022 1:00:00 PM 17.6 63.68 0.11 7.47 3.34 9.4
6/10/2022 1:15:00 PM 17.83 64.094 0.11 7.49 3.47 9.38
6/10/2022 1:30:00 PM 18.12 64.616 0.11 7.5 3.32 9.35
6/10/2022 1:45:00 PM 18.27 64.886 0.11<